<?xml version='1.0' encoding='UTF-8'?><gpx version="1.1" creator="JPX - https://github.com/jenetics/jpx" xmlns="http://www.topografix.com/GPX/1/1"><trk><trkseg><trkpt lat="49.060672259929845" lon="2.505195018818738"><ele>118.00000000000001</ele><time>2026-03-31T06:28:59.999Z</time></trkpt><trkpt lat="49.060708591005934" lon="2.5051022242442977"><ele>118.0</ele><time>2026-03-31T06:29:11.999Z</time></trkpt><trkpt lat="49.06070526004184" lon="2.5049659474836803"><ele>118.0</ele><time>2026-03-31T06:29:14.999Z</time></trkpt><trkpt lat="49.06068240913375" lon="2.50484526586944"><ele>118.0</ele><time>2026-03-31T06:29:16.999Z</time></trkpt><trkpt lat="49.06064861698398" lon="2.50471457944962"><ele>118.00000000000001</ele><time>2026-03-31T06:29:18.999Z</time></trkpt><trkpt lat="49.060585923901186" lon="2.5045926163958505"><ele>118.0</ele><time>2026-03-31T06:29:20.999Z</time></trkpt><trkpt lat="49.06051571310175" lon="2.5044804602560986"><ele>117.80000000000001</ele><time>2026-03-31T06:29:22.999Z</time></trkpt><trkpt lat="49.06043724098008" lon="2.504352492550083"><ele>117.60000000000001</ele><time>2026-03-31T06:29:24.999Z</time></trkpt><trkpt lat="49.0603672208195" lon="2.504218094827888"><ele>117.39999999999999</ele><time>2026-03-31T06:29:26.999Z</time></trkpt><trkpt lat="49.06031684790822" lon="2.50410977479449"><ele>117.19999999999999</ele><time>2026-03-31T06:29:27.999Z</time></trkpt><trkpt lat="49.06023795396087" lon="2.503997629574654"><ele>117.0</ele><time>2026-03-31T06:29:29.999Z</time></trkpt><trkpt lat="49.06014675023344" lon="2.5039297735370996"><ele>117.0</ele><time>2026-03-31T06:29:31.999Z</time></trkpt><trkpt lat="49.0600367019304" lon="2.5039196370428174"><ele>116.99999999999999</ele><time>2026-03-31T06:29:33.999Z</time></trkpt><trkpt lat="49.05992012136409" lon="2.503915423804038"><ele>116.99999999999999</ele><time>2026-03-31T06:29:35.999Z</time></trkpt><trkpt lat="49.0598096735109" lon="2.5039043080659815"><ele>117.0</ele><time>2026-03-31T06:29:37.999Z</time></trkpt><trkpt lat="49.05970017979043" lon="2.5038904715819403"><ele>117.0</ele><time>2026-03-31T06:29:39.999Z</time></trkpt><trkpt lat="49.05960781476835" lon="2.50383905615568"><ele>116.6</ele><time>2026-03-31T06:29:41.999Z</time></trkpt><trkpt lat="49.05961664419475" lon="2.5037029335596532"><ele>116.19999999999999</ele><time>2026-03-31T06:29:42.999Z</time></trkpt><trkpt lat="49.05959541802676" lon="2.5035264752611996"><ele>115.8</ele><time>2026-03-31T06:29:45Z</time></trkpt><trkpt lat="49.059592804827545" lon="2.5033693782021644"><ele>115.4</ele><time>2026-03-31T06:29:47Z</time></trkpt><trkpt lat="49.0595861455268" lon="2.5032476375427533"><ele>115.0</ele><time>2026-03-31T06:29:56Z</time></trkpt><trkpt lat="49.05950673685665" lon="2.5031614242778675"><ele>115.00000000000001</ele><time>2026-03-31T06:29:58Z</time></trkpt><trkpt lat="49.05944135893774" lon="2.50313328201073"><ele>115.0</ele><time>2026-03-31T06:29:59Z</time></trkpt><trkpt lat="49.05938011593237" lon="2.5031006811610763"><ele>115.0</ele><time>2026-03-31T06:30:00Z</time></trkpt><trkpt lat="49.05926927907764" lon="2.503025119896198"><ele>115.0</ele><time>2026-03-31T06:30:02Z</time></trkpt><trkpt lat="49.059215645453584" lon="2.502974005392891"><ele>115.00000000000001</ele><time>2026-03-31T06:30:03Z</time></trkpt><trkpt lat="49.059161260601975" lon="2.5029070676251637"><ele>115.0</ele><time>2026-03-31T06:30:04Z</time></trkpt><trkpt lat="49.059103303034924" lon="2.502838038257783"><ele>115.0</ele><time>2026-03-31T06:30:05Z</time></trkpt><trkpt lat="49.05902796731602" lon="2.502760372803697"><ele>115.0</ele><time>2026-03-31T06:30:06Z</time></trkpt><trkpt lat="49.058949206893146" lon="2.5026749761534965"><ele>115.0</ele><time>2026-03-31T06:30:07Z</time></trkpt><trkpt lat="49.05887003490464" lon="2.50259293617644"><ele>115.0</ele><time>2026-03-31T06:30:08Z</time></trkpt><trkpt lat="49.05878934528092" lon="2.5025088419950565"><ele>115.0</ele><time>2026-03-31T06:30:09Z</time></trkpt><trkpt lat="49.058709831695744" lon="2.5024245365970703"><ele>115.00000000000001</ele><time>2026-03-31T06:30:10Z</time></trkpt><trkpt lat="49.058629483762374" lon="2.502341073898891"><ele>115.0</ele><time>2026-03-31T06:30:11Z</time></trkpt><trkpt lat="49.05855465848253" lon="2.5022649292117087"><ele>115.0</ele><time>2026-03-31T06:30:12Z</time></trkpt><trkpt lat="49.05848464209511" lon="2.5021844573223433"><ele>115.0</ele><time>2026-03-31T06:30:13Z</time></trkpt><trkpt lat="49.058418747806144" lon="2.5021126871781876"><ele>115.00000000000001</ele><time>2026-03-31T06:30:14Z</time></trkpt><trkpt lat="49.058360811285866" lon="2.5020551629635723"><ele>115.0</ele><time>2026-03-31T06:30:15Z</time></trkpt><trkpt lat="49.05827999044028" lon="2.5019676819606604"><ele>114.8</ele><time>2026-03-31T06:30:17Z</time></trkpt><trkpt lat="49.05819435199537" lon="2.5018825082817373"><ele>114.6</ele><time>2026-03-31T06:30:19Z</time></trkpt><trkpt lat="49.05810421408872" lon="2.5017854561520627"><ele>114.4</ele><time>2026-03-31T06:30:21Z</time></trkpt><trkpt lat="49.057996586804954" lon="2.5016803705523816"><ele>114.2</ele><time>2026-03-31T06:30:23Z</time></trkpt><trkpt lat="49.057941057769" lon="2.5016300808906298"><ele>114.0</ele><time>2026-03-31T06:30:24Z</time></trkpt><trkpt lat="49.05784800401082" lon="2.5015279986567975"><ele>114.0</ele><time>2026-03-31T06:30:26Z</time></trkpt><trkpt lat="49.0577682601579" lon="2.5014114786394805"><ele>114.0</ele><time>2026-03-31T06:30:28Z</time></trkpt><trkpt lat="49.0577202972675" lon="2.5012507269793605"><ele>114.0</ele><time>2026-03-31T06:30:30Z</time></trkpt><trkpt lat="49.05768600974592" lon="2.501087563781909"><ele>114.0</ele><time>2026-03-31T06:30:32Z</time></trkpt><trkpt lat="49.05766258646125" lon="2.5009196181069466"><ele>114.0</ele><time>2026-03-31T06:30:34Z</time></trkpt><trkpt lat="49.05764073678746" lon="2.5007625589055893"><ele>114.0</ele><time>2026-03-31T06:30:36Z</time></trkpt><trkpt lat="49.05758082568383" lon="2.5006407413534864"><ele>114.0</ele><time>2026-03-31T06:30:38Z</time></trkpt><trkpt lat="49.05749387633618" lon="2.5006107809104483"><ele>114.0</ele><time>2026-03-31T06:30:39.999Z</time></trkpt><trkpt lat="49.05742819241874" lon="2.500648583429693"><ele>114.0</ele><time>2026-03-31T06:30:43.999Z</time></trkpt><trkpt lat="49.05736163503879" lon="2.5006639654385543"><ele>114.0</ele><time>2026-03-31T06:30:46.999Z</time></trkpt><trkpt lat="49.05729758737175" lon="2.500685726938519"><ele>114.14285714285714</ele><time>2026-03-31T06:30:48.999Z</time></trkpt><trkpt lat="49.0572260865507" lon="2.5007030345445793"><ele>114.28571428571428</ele><time>2026-03-31T06:30:50.999Z</time></trkpt><trkpt lat="49.05715464056685" lon="2.5007203306126295"><ele>114.42857142857142</ele><time>2026-03-31T06:30:52.999Z</time></trkpt><trkpt lat="49.05708635805086" lon="2.5007404757203284"><ele>114.57142857142856</ele><time>2026-03-31T06:30:54.999Z</time></trkpt><trkpt lat="49.05701819302815" lon="2.5007572353709673"><ele>114.71428571428571</ele><time>2026-03-31T06:30:56.999Z</time></trkpt><trkpt lat="49.05695168056573" lon="2.5007763912212124"><ele>114.85714285714283</ele><time>2026-03-31T06:30:58.999Z</time></trkpt><trkpt lat="49.05688558702322" lon="2.500799664241995"><ele>114.99999999999999</ele><time>2026-03-31T06:31:00.999Z</time></trkpt><trkpt lat="49.05682366056864" lon="2.500817194202198"><ele>115.0</ele><time>2026-03-31T06:31:02.999Z</time></trkpt><trkpt lat="49.056757914249445" lon="2.5008408144126046"><ele>115.0</ele><time>2026-03-31T06:31:18.999Z</time></trkpt><trkpt lat="49.05665068406149" lon="2.5008588481985985"><ele>115.0</ele><time>2026-03-31T06:31:21.999Z</time></trkpt><trkpt lat="49.05655697164771" lon="2.5008840311515725"><ele>115.0</ele><time>2026-03-31T06:31:23.999Z</time></trkpt><trkpt lat="49.05644847525909" lon="2.5009162715776254"><ele>115.0</ele><time>2026-03-31T06:31:25.999Z</time></trkpt><trkpt lat="49.056316640866065" lon="2.5009492766349695"><ele>115.6</ele><time>2026-03-31T06:31:27.999Z</time></trkpt><trkpt lat="49.0562319549935" lon="2.500975309519479"><ele>116.2</ele><time>2026-03-31T06:31:28.999Z</time></trkpt><trkpt lat="49.056139977443095" lon="2.5010055896395094"><ele>116.80000000000001</ele><time>2026-03-31T06:31:29.999Z</time></trkpt><trkpt lat="49.05604965956831" lon="2.5010335656845566"><ele>117.4</ele><time>2026-03-31T06:31:30.999Z</time></trkpt><trkpt lat="49.05595854480543" lon="2.501056481535545"><ele>118.0</ele><time>2026-03-31T06:31:31.999Z</time></trkpt><trkpt lat="49.05586923287251" lon="2.5010779947764274"><ele>118.4</ele><time>2026-03-31T06:31:32.999Z</time></trkpt><trkpt lat="49.055781978775926" lon="2.5011050269133803"><ele>118.80000000000001</ele><time>2026-03-31T06:31:33.999Z</time></trkpt><trkpt lat="49.055693365336936" lon="2.5011275116360863"><ele>119.2</ele><time>2026-03-31T06:31:34.999Z</time></trkpt><trkpt lat="49.055604666770925" lon="2.5011496099537713"><ele>119.6</ele><time>2026-03-31T06:31:35.999Z</time></trkpt><trkpt lat="49.05551323477072" lon="2.501173304016952"><ele>120.0</ele><time>2026-03-31T06:31:36.999Z</time></trkpt><trkpt lat="49.05542147946185" lon="2.5011992025827268"><ele>120.0</ele><time>2026-03-31T06:31:37.999Z</time></trkpt><trkpt lat="49.055330611607914" lon="2.5012238027833127"><ele>120.0</ele><time>2026-03-31T06:31:38.999Z</time></trkpt><trkpt lat="49.05523793844089" lon="2.5012486380181636"><ele>120.0</ele><time>2026-03-31T06:31:39.999Z</time></trkpt><trkpt lat="49.05514871068382" lon="2.5012697272932916"><ele>120.0</ele><time>2026-03-31T06:31:40.999Z</time></trkpt><trkpt lat="49.055062940210554" lon="2.5012932646559043"><ele>120.0</ele><time>2026-03-31T06:31:41.999Z</time></trkpt><trkpt lat="49.05496780261788" lon="2.5013173052269995"><ele>119.6</ele><time>2026-03-31T06:31:42.999Z</time></trkpt><trkpt lat="49.054858554688636" lon="2.5013478264173012"><ele>119.2</ele><time>2026-03-31T06:31:43.999Z</time></trkpt><trkpt lat="49.054744040954766" lon="2.5013815149160314"><ele>118.80000000000001</ele><time>2026-03-31T06:31:44.999Z</time></trkpt><trkpt lat="49.05463676553195" lon="2.50141403579925"><ele>118.4</ele><time>2026-03-31T06:31:45.999Z</time></trkpt><trkpt lat="49.054526789562274" lon="2.5014418142516055"><ele>118.0</ele><time>2026-03-31T06:31:46.999Z</time></trkpt><trkpt lat="49.05442496494086" lon="2.501470598917312"><ele>118.0</ele><time>2026-03-31T06:31:47.999Z</time></trkpt><trkpt lat="49.054322932674424" lon="2.5014931821833146"><ele>118.00000000000001</ele><time>2026-03-31T06:31:48.999Z</time></trkpt><trkpt lat="49.05422314946538" lon="2.501523554923658"><ele>118.00000000000001</ele><time>2026-03-31T06:31:49.999Z</time></trkpt><trkpt lat="49.05412037035165" lon="2.5015487669685728"><ele>118.0</ele><time>2026-03-31T06:31:51Z</time></trkpt><trkpt lat="49.054017200614204" lon="2.5015864715155836"><ele>118.0</ele><time>2026-03-31T06:31:52Z</time></trkpt><trkpt lat="49.05391226912061" lon="2.501616391477233"><ele>117.16666666666667</ele><time>2026-03-31T06:31:53Z</time></trkpt><trkpt lat="49.05380950145727" lon="2.5016398617907756"><ele>116.33333333333334</ele><time>2026-03-31T06:31:54Z</time></trkpt><trkpt lat="49.05371809688863" lon="2.501663046917758"><ele>115.5</ele><time>2026-03-31T06:31:55Z</time></trkpt><trkpt lat="49.05363432683236" lon="2.501687183518927"><ele>114.66666666666666</ele><time>2026-03-31T06:31:56Z</time></trkpt><trkpt lat="49.05355351853261" lon="2.501710718862832"><ele>113.83333333333333</ele><time>2026-03-31T06:31:57Z</time></trkpt><trkpt lat="49.05347473443772" lon="2.501733275874893"><ele>113.0</ele><time>2026-03-31T06:31:58Z</time></trkpt><trkpt lat="49.05340162449665" lon="2.5017543971990723"><ele>112.99999999999999</ele><time>2026-03-31T06:31:59Z</time></trkpt><trkpt lat="49.05333490260076" lon="2.5017718958341533"><ele>113.0</ele><time>2026-03-31T06:32:00Z</time></trkpt><trkpt lat="49.05326835005306" lon="2.5017898546252773"><ele>113.0</ele><time>2026-03-31T06:32:01Z</time></trkpt><trkpt lat="49.053156598472555" lon="2.5018155622926965"><ele>113.0</ele><time>2026-03-31T06:32:03Z</time></trkpt><trkpt lat="49.05308500682582" lon="2.5017797124110777"><ele>112.99999999999999</ele><time>2026-03-31T06:32:05Z</time></trkpt><trkpt lat="49.05303525092411" lon="2.5017039423225103"><ele>113.0</ele><time>2026-03-31T06:32:12Z</time></trkpt><trkpt lat="49.05298615181546" lon="2.5016271787605273"><ele>112.4</ele><time>2026-03-31T06:32:15Z</time></trkpt><trkpt lat="49.05293802392858" lon="2.501529065337702"><ele>111.80000000000001</ele><time>2026-03-31T06:32:25Z</time></trkpt><trkpt lat="49.05290093783457" lon="2.5014471818700734"><ele>111.2</ele><time>2026-03-31T06:32:28Z</time></trkpt><trkpt lat="49.05287664481172" lon="2.5012954391223063"><ele>110.6</ele><time>2026-03-31T06:32:35Z</time></trkpt><trkpt lat="49.052859650419514" lon="2.501099690484506"><ele>110.0</ele><time>2026-03-31T06:32:37Z</time></trkpt><trkpt lat="49.05284757482791" lon="2.5009653274085566"><ele>110.0</ele><time>2026-03-31T06:32:38Z</time></trkpt><trkpt lat="49.05283508535335" lon="2.500832064263661"><ele>110.0</ele><time>2026-03-31T06:32:39Z</time></trkpt><trkpt lat="49.05281338490751" lon="2.5006818808612867"><ele>110.0</ele><time>2026-03-31T06:32:40Z</time></trkpt><trkpt lat="49.05273327104873" lon="2.500561913342959"><ele>110.0</ele><time>2026-03-31T06:32:41Z</time></trkpt><trkpt lat="49.052675840058974" lon="2.5004387631764535"><ele>110.0</ele><time>2026-03-31T06:32:42Z</time></trkpt><trkpt lat="49.05262377833374" lon="2.5003065553494044"><ele>109.99999999999999</ele><time>2026-03-31T06:32:43Z</time></trkpt><trkpt lat="49.05256780285013" lon="2.500204345788996"><ele>110.0</ele><time>2026-03-31T06:32:44Z</time></trkpt><trkpt lat="49.052516514367625" lon="2.5001088880025515"><ele>110.0</ele><time>2026-03-31T06:32:45Z</time></trkpt><trkpt lat="49.052472723487796" lon="2.500026038813103"><ele>110.0</ele><time>2026-03-31T06:32:46Z</time></trkpt><trkpt lat="49.0524331628409" lon="2.4999511077823704"><ele>109.99999999999999</ele><time>2026-03-31T06:32:47Z</time></trkpt><trkpt lat="49.052356846538444" lon="2.4998053334289496"><ele>110.0</ele><time>2026-03-31T06:32:49Z</time></trkpt><trkpt lat="49.05231411266405" lon="2.499722683451861"><ele>109.99999999999999</ele><time>2026-03-31T06:32:50Z</time></trkpt><trkpt lat="49.052272995578136" lon="2.4996404079013868"><ele>110.0</ele><time>2026-03-31T06:32:51Z</time></trkpt><trkpt lat="49.052194609224415" lon="2.4995215448530415"><ele>110.0</ele><time>2026-03-31T06:32:52.999Z</time></trkpt><trkpt lat="49.05215233899754" lon="2.499449917051569"><ele>110.0</ele><time>2026-03-31T06:32:54.999Z</time></trkpt><trkpt lat="49.05214038287443" lon="2.4993394315279036"><ele>109.99999999999999</ele><time>2026-03-31T06:32:57.999Z</time></trkpt><trkpt lat="49.052089543641436" lon="2.4992235676018777"><ele>110.0</ele><time>2026-03-31T06:33:00.999Z</time></trkpt><trkpt lat="49.05194820416082" lon="2.4992968998908816"><ele>110.2</ele><time>2026-03-31T06:33:01.999Z</time></trkpt><trkpt lat="49.05185618917144" lon="2.4993110021370746"><ele>110.4</ele><time>2026-03-31T06:33:03.999Z</time></trkpt><trkpt lat="49.05175080577156" lon="2.4993469326431597"><ele>110.6</ele><time>2026-03-31T06:33:05.999Z</time></trkpt><trkpt lat="49.05164695559566" lon="2.499362280965839"><ele>110.8</ele><time>2026-03-31T06:33:07.999Z</time></trkpt><trkpt lat="49.0515693177589" lon="2.499367606273607"><ele>111.0</ele><time>2026-03-31T06:33:09.999Z</time></trkpt><trkpt lat="49.05147386375888" lon="2.499379207410945"><ele>110.42857142857143</ele><time>2026-03-31T06:33:12.999Z</time></trkpt><trkpt lat="49.051407272724" lon="2.4993853665346943"><ele>109.85714285714286</ele><time>2026-03-31T06:33:14.999Z</time></trkpt><trkpt lat="49.0513431242774" lon="2.4993690683323444"><ele>109.28571428571429</ele><time>2026-03-31T06:33:16.999Z</time></trkpt><trkpt lat="49.05127236010625" lon="2.4993689893736404"><ele>108.71428571428572</ele><time>2026-03-31T06:33:18.999Z</time></trkpt><trkpt lat="49.051209170209" lon="2.499354656221242"><ele>108.14285714285714</ele><time>2026-03-31T06:33:20.999Z</time></trkpt><trkpt lat="49.05113566493618" lon="2.4993327893748476"><ele>107.57142857142858</ele><time>2026-03-31T06:33:22.999Z</time></trkpt><trkpt lat="49.05105118232331" lon="2.499391342576735"><ele>107.0</ele><time>2026-03-31T06:33:24.999Z</time></trkpt><trkpt lat="49.05096088308545" lon="2.4994347483284183"><ele>107.0</ele><time>2026-03-31T06:33:26.999Z</time></trkpt><trkpt lat="49.05087441937373" lon="2.499490688565688"><ele>106.99999999999999</ele><time>2026-03-31T06:33:28.999Z</time></trkpt><trkpt lat="49.05077582830302" lon="2.499534557632915"><ele>106.99999999999999</ele><time>2026-03-31T06:33:30.999Z</time></trkpt><trkpt lat="49.050678433354754" lon="2.499585401460113"><ele>107.0</ele><time>2026-03-31T06:33:32.999Z</time></trkpt><trkpt lat="49.05060391246228" lon="2.4996336457192614"><ele>107.0</ele><time>2026-03-31T06:33:34.999Z</time></trkpt><trkpt lat="49.05053775709657" lon="2.4996760651996968"><ele>106.57142857142858</ele><time>2026-03-31T06:33:36.999Z</time></trkpt><trkpt lat="49.050467775194086" lon="2.499714943679572"><ele>106.14285714285714</ele><time>2026-03-31T06:33:39.999Z</time></trkpt><trkpt lat="49.050397648594995" lon="2.499774107834566"><ele>105.71428571428572</ele><time>2026-03-31T06:33:46.999Z</time></trkpt><trkpt lat="49.05033618228515" lon="2.4998223136939983"><ele>105.28571428571429</ele><time>2026-03-31T06:33:48.999Z</time></trkpt><trkpt lat="49.05024729044918" lon="2.499831047709712"><ele>104.85714285714286</ele><time>2026-03-31T06:33:50.999Z</time></trkpt><trkpt lat="49.05018183135273" lon="2.499868464889116"><ele>104.42857142857143</ele><time>2026-03-31T06:33:52.999Z</time></trkpt><trkpt lat="49.05012256346791" lon="2.4999023431026433"><ele>104.0</ele><time>2026-03-31T06:33:54.999Z</time></trkpt><trkpt lat="49.05004231854232" lon="2.499948212038725"><ele>103.99999999999999</ele><time>2026-03-31T06:33:57.001Z</time></trkpt><trkpt lat="49.04994885246047" lon="2.5000013774370404"><ele>104.0</ele><time>2026-03-31T06:33:59.001Z</time></trkpt><trkpt lat="49.049859668257895" lon="2.5000508227533005"><ele>104.0</ele><time>2026-03-31T06:34:01.001Z</time></trkpt><trkpt lat="49.0497764293668" lon="2.500096971880534"><ele>104.0</ele><time>2026-03-31T06:34:03.001Z</time></trkpt><trkpt lat="49.049710130862834" lon="2.5001337289564445"><ele>103.99999999999999</ele><time>2026-03-31T06:34:05.001Z</time></trkpt><trkpt lat="49.04964546552848" lon="2.500170687179221"><ele>104.0</ele><time>2026-03-31T06:34:08Z</time></trkpt><trkpt lat="49.04957450792617" lon="2.500217261230141"><ele>103.99999999999999</ele><time>2026-03-31T06:34:13Z</time></trkpt><trkpt lat="49.04951473058893" lon="2.500278189214752"><ele>104.0</ele><time>2026-03-31T06:34:16Z</time></trkpt><trkpt lat="49.0494406947361" lon="2.5002947820414065"><ele>104.0</ele><time>2026-03-31T06:34:18Z</time></trkpt><trkpt lat="49.049373292632325" lon="2.5001948279312267"><ele>104.0</ele><time>2026-03-31T06:34:19Z</time></trkpt><trkpt lat="49.049322722956305" lon="2.5001327908044555"><ele>103.99999999999999</ele><time>2026-03-31T06:34:20Z</time></trkpt><trkpt lat="49.04923239424403" lon="2.500003430447168"><ele>104.0</ele><time>2026-03-31T06:34:22Z</time></trkpt><trkpt lat="49.04913618492955" lon="2.4998561498614387"><ele>103.71428571428571</ele><time>2026-03-31T06:34:24Z</time></trkpt><trkpt lat="49.04908653089488" lon="2.499762126821799"><ele>103.42857142857143</ele><time>2026-03-31T06:34:25Z</time></trkpt><trkpt lat="49.049044436142495" lon="2.499670834480016"><ele>103.14285714285714</ele><time>2026-03-31T06:34:26Z</time></trkpt><trkpt lat="49.049007062540085" lon="2.4995852003732537"><ele>102.85714285714286</ele><time>2026-03-31T06:34:27Z</time></trkpt><trkpt lat="49.04896949847436" lon="2.4994997809201047"><ele>102.57142857142858</ele><time>2026-03-31T06:34:28Z</time></trkpt><trkpt lat="49.04893334873787" lon="2.49941345627218"><ele>102.28571428571429</ele><time>2026-03-31T06:34:29Z</time></trkpt><trkpt lat="49.04890147574019" lon="2.4993303339653092"><ele>102.0</ele><time>2026-03-31T06:34:30Z</time></trkpt><trkpt lat="49.04885441732964" lon="2.499213640261354"><ele>102.0</ele><time>2026-03-31T06:34:32Z</time></trkpt><trkpt lat="49.048803547260874" lon="2.499102567302883"><ele>102.0</ele><time>2026-03-31T06:34:35Z</time></trkpt><trkpt lat="49.0487680497121" lon="2.498989658601278"><ele>102.0</ele><time>2026-03-31T06:34:37Z</time></trkpt><trkpt lat="49.04872730344859" lon="2.4988603856978004"><ele>102.0</ele><time>2026-03-31T06:34:39Z</time></trkpt><trkpt lat="49.04865700849666" lon="2.4987465611149506"><ele>102.0</ele><time>2026-03-31T06:34:41Z</time></trkpt><trkpt lat="49.04857938998673" lon="2.4985567507192106"><ele>102.25</ele><time>2026-03-31T06:34:43Z</time></trkpt><trkpt lat="49.04849502757375" lon="2.498407554795006"><ele>102.5</ele><time>2026-03-31T06:34:44Z</time></trkpt><trkpt lat="49.048420599034" lon="2.498197637547402"><ele>102.75</ele><time>2026-03-31T06:34:45Z</time></trkpt><trkpt lat="49.04836109185416" lon="2.4980378269874124"><ele>103.0</ele><time>2026-03-31T06:34:46Z</time></trkpt><trkpt lat="49.04829101969734" lon="2.4978977398589794"><ele>103.0</ele><time>2026-03-31T06:34:47Z</time></trkpt><trkpt lat="49.04820916490463" lon="2.4977224490419467"><ele>103.0</ele><time>2026-03-31T06:34:48Z</time></trkpt><trkpt lat="49.048113431425946" lon="2.4975288624857583"><ele>103.0</ele><time>2026-03-31T06:34:49Z</time></trkpt><trkpt lat="49.04802152171271" lon="2.49733168086384"><ele>103.0</ele><time>2026-03-31T06:34:50Z</time></trkpt><trkpt lat="49.047927315377976" lon="2.497163737441076"><ele>103.0</ele><time>2026-03-31T06:34:51Z</time></trkpt><trkpt lat="49.047830825540984" lon="2.4969930357595644"><ele>103.0</ele><time>2026-03-31T06:34:52Z</time></trkpt><trkpt lat="49.0477440948823" lon="2.4968316446533025"><ele>103.0</ele><time>2026-03-31T06:34:53Z</time></trkpt><trkpt lat="49.04766678649948" lon="2.4966769312487975"><ele>103.0</ele><time>2026-03-31T06:34:54Z</time></trkpt><trkpt lat="49.047583486880086" lon="2.496525877973988"><ele>103.0</ele><time>2026-03-31T06:34:55Z</time></trkpt><trkpt lat="49.047507437313605" lon="2.4963935245143856"><ele>103.0</ele><time>2026-03-31T06:34:56Z</time></trkpt><trkpt lat="49.04744244097673" lon="2.496235806442802"><ele>103.0</ele><time>2026-03-31T06:34:57Z</time></trkpt><trkpt lat="49.04735058084688" lon="2.496113286629793"><ele>103.0</ele><time>2026-03-31T06:34:58Z</time></trkpt><trkpt lat="49.04727038223554" lon="2.495990099406784"><ele>103.0</ele><time>2026-03-31T06:34:59Z</time></trkpt><trkpt lat="49.04717730327646" lon="2.495871063155573"><ele>103.0</ele><time>2026-03-31T06:35:00Z</time></trkpt><trkpt lat="49.04708200128187" lon="2.495747147896141"><ele>103.0</ele><time>2026-03-31T06:35:01Z</time></trkpt><trkpt lat="49.0469864288579" lon="2.4956254708192804"><ele>103.0</ele><time>2026-03-31T06:35:02Z</time></trkpt><trkpt lat="49.04690610817736" lon="2.4955140663545716"><ele>103.0</ele><time>2026-03-31T06:35:03Z</time></trkpt><trkpt lat="49.04682208088263" lon="2.4953908333160992"><ele>103.0</ele><time>2026-03-31T06:35:04Z</time></trkpt><trkpt lat="49.046733197777094" lon="2.4952676850323594"><ele>103.0</ele><time>2026-03-31T06:35:04.999Z</time></trkpt><trkpt lat="49.04664305606505" lon="2.4951507660248766"><ele>101.25</ele><time>2026-03-31T06:35:05.999Z</time></trkpt><trkpt lat="49.04655652160464" lon="2.4950281965745975"><ele>99.5</ele><time>2026-03-31T06:35:06.999Z</time></trkpt><trkpt lat="49.04646846169025" lon="2.4949084787910456"><ele>97.75</ele><time>2026-03-31T06:35:07.999Z</time></trkpt><trkpt lat="49.04637566977873" lon="2.4947933464121137"><ele>96.0</ele><time>2026-03-31T06:35:08.999Z</time></trkpt><trkpt lat="49.04629026725982" lon="2.494674957819609"><ele>94.8</ele><time>2026-03-31T06:35:09.999Z</time></trkpt><trkpt lat="49.04621287941368" lon="2.4945676656682907"><ele>93.6</ele><time>2026-03-31T06:35:10.999Z</time></trkpt><trkpt lat="49.04614548137458" lon="2.4944719511806297"><ele>92.4</ele><time>2026-03-31T06:35:11.999Z</time></trkpt><trkpt lat="49.046075211390836" lon="2.4943926616521725"><ele>91.2</ele><time>2026-03-31T06:35:12.999Z</time></trkpt><trkpt lat="49.04600957897857" lon="2.494314986008576"><ele>90.0</ele><time>2026-03-31T06:35:13.999Z</time></trkpt><trkpt lat="49.04595034703412" lon="2.4942170726677215"><ele>90.0</ele><time>2026-03-31T06:35:14.999Z</time></trkpt><trkpt lat="49.04591755113203" lon="2.4940870729339744"><ele>90.0</ele><time>2026-03-31T06:35:15.999Z</time></trkpt><trkpt lat="49.04588294472042" lon="2.493986734161839"><ele>90.0</ele><time>2026-03-31T06:35:16.999Z</time></trkpt><trkpt lat="49.0457810397536" lon="2.4939611057030455"><ele>90.0</ele><time>2026-03-31T06:35:17.999Z</time></trkpt><trkpt lat="49.04569286346856" lon="2.4939755614508754"><ele>90.0</ele><time>2026-03-31T06:35:18.999Z</time></trkpt><trkpt lat="49.04563255848103" lon="2.494054979086225"><ele>90.0</ele><time>2026-03-31T06:35:19.999Z</time></trkpt><trkpt lat="49.04559661926967" lon="2.4941724944164303"><ele>89.4</ele><time>2026-03-31T06:35:20.999Z</time></trkpt><trkpt lat="49.04557031602462" lon="2.4942976242581985"><ele>88.8</ele><time>2026-03-31T06:35:21.999Z</time></trkpt><trkpt lat="49.045626519707355" lon="2.494425561239505"><ele>88.19999999999999</ele><time>2026-03-31T06:35:22.999Z</time></trkpt><trkpt lat="49.04567402756714" lon="2.494541810861756"><ele>87.6</ele><time>2026-03-31T06:35:23.999Z</time></trkpt><trkpt lat="49.04570289806166" lon="2.4946733783637303"><ele>87.0</ele><time>2026-03-31T06:35:24.999Z</time></trkpt><trkpt lat="49.04569574268196" lon="2.494817575545729"><ele>87.0</ele><time>2026-03-31T06:35:25.999Z</time></trkpt><trkpt lat="49.045672453740345" lon="2.4949630570183112"><ele>87.0</ele><time>2026-03-31T06:35:26.999Z</time></trkpt><trkpt lat="49.04564635793259" lon="2.4951222487070175"><ele>87.0</ele><time>2026-03-31T06:35:27.999Z</time></trkpt><trkpt lat="49.045608940083255" lon="2.4952970611156546"><ele>87.0</ele><time>2026-03-31T06:35:28.999Z</time></trkpt><trkpt lat="49.045559857263676" lon="2.4954660803705915"><ele>87.0</ele><time>2026-03-31T06:35:29.999Z</time></trkpt><trkpt lat="49.0455069572782" lon="2.495623810859505"><ele>88.25</ele><time>2026-03-31T06:35:30.999Z</time></trkpt><trkpt lat="49.04544916361194" lon="2.4957807102165415"><ele>89.5</ele><time>2026-03-31T06:35:31.999Z</time></trkpt><trkpt lat="49.045391526888274" lon="2.495935924787077"><ele>90.75</ele><time>2026-03-31T06:35:32.999Z</time></trkpt><trkpt lat="49.045329204255935" lon="2.496087035711213"><ele>92.0</ele><time>2026-03-31T06:35:33.999Z</time></trkpt><trkpt lat="49.045247287147106" lon="2.49620330832584"><ele>91.66666666666667</ele><time>2026-03-31T06:35:34.999Z</time></trkpt><trkpt lat="49.045191200615704" lon="2.4963152038463314"><ele>91.33333333333334</ele><time>2026-03-31T06:35:35.999Z</time></trkpt><trkpt lat="49.04514081380922" lon="2.4963873981918248"><ele>91.0</ele><time>2026-03-31T06:35:36.999Z</time></trkpt><trkpt lat="49.045088292774025" lon="2.4964556712066006"><ele>90.66666666666667</ele><time>2026-03-31T06:35:37.999Z</time></trkpt><trkpt lat="49.04500639706351" lon="2.4965364948178936"><ele>90.33333333333333</ele><time>2026-03-31T06:35:38.999Z</time></trkpt><trkpt lat="49.044914067594156" lon="2.496583525007435"><ele>90.0</ele><time>2026-03-31T06:35:39.999Z</time></trkpt><trkpt lat="49.04483066219961" lon="2.496639951644049"><ele>88.8</ele><time>2026-03-31T06:35:40.999Z</time></trkpt><trkpt lat="49.044751324907104" lon="2.4967213691646815"><ele>87.6</ele><time>2026-03-31T06:35:41.999Z</time></trkpt><trkpt lat="49.044661421148334" lon="2.4967854787206196"><ele>86.4</ele><time>2026-03-31T06:35:42.999Z</time></trkpt><trkpt lat="49.04456932357105" lon="2.4968146791077057"><ele>85.2</ele><time>2026-03-31T06:35:43.999Z</time></trkpt><trkpt lat="49.044474648745116" lon="2.4968165687032884"><ele>84.0</ele><time>2026-03-31T06:35:44.999Z</time></trkpt><trkpt lat="49.04437670770659" lon="2.496796065551202"><ele>84.0</ele><time>2026-03-31T06:35:45.999Z</time></trkpt><trkpt lat="49.044273732901104" lon="2.4967608882989913"><ele>84.0</ele><time>2026-03-31T06:35:46.999Z</time></trkpt><trkpt lat="49.04416271344425" lon="2.496721810031443"><ele>84.0</ele><time>2026-03-31T06:35:47.999Z</time></trkpt><trkpt lat="49.04404957580197" lon="2.49666348609918"><ele>84.0</ele><time>2026-03-31T06:35:48.999Z</time></trkpt><trkpt lat="49.0439440402408" lon="2.4965934629369473"><ele>83.0</ele><time>2026-03-31T06:35:49.999Z</time></trkpt><trkpt lat="49.043836673638786" lon="2.496526930213938"><ele>82.0</ele><time>2026-03-31T06:35:50.999Z</time></trkpt><trkpt lat="49.04372796704342" lon="2.4964677345178785"><ele>81.0</ele><time>2026-03-31T06:35:51.999Z</time></trkpt><trkpt lat="49.043615064711375" lon="2.4964100079720533"><ele>80.0</ele><time>2026-03-31T06:35:52.999Z</time></trkpt><trkpt lat="49.043498346405244" lon="2.4963499945228036"><ele>80.0</ele><time>2026-03-31T06:35:53.999Z</time></trkpt><trkpt lat="49.0433765910214" lon="2.496303896358738"><ele>80.0</ele><time>2026-03-31T06:35:54.999Z</time></trkpt><trkpt lat="49.043246652064404" lon="2.4962842919650017"><ele>80.0</ele><time>2026-03-31T06:35:55.999Z</time></trkpt><trkpt lat="49.043114775348926" lon="2.4962816114106103"><ele>80.0</ele><time>2026-03-31T06:35:56.999Z</time></trkpt><trkpt lat="49.04298761222321" lon="2.4962965340069494"><ele>80.0</ele><time>2026-03-31T06:35:57.999Z</time></trkpt><trkpt lat="49.04285783155478" lon="2.4963341863081703"><ele>80.0</ele><time>2026-03-31T06:35:58.999Z</time></trkpt><trkpt lat="49.042724347060904" lon="2.496389514904238"><ele>80.0</ele><time>2026-03-31T06:35:59.999Z</time></trkpt><trkpt lat="49.042590792769914" lon="2.4964720607261968"><ele>80.0</ele><time>2026-03-31T06:36:00.999Z</time></trkpt><trkpt lat="49.04246545632347" lon="2.4965627777294257"><ele>79.75</ele><time>2026-03-31T06:36:01.999Z</time></trkpt><trkpt lat="49.04233959339018" lon="2.4966869750593013"><ele>79.5</ele><time>2026-03-31T06:36:03.001Z</time></trkpt><trkpt lat="49.04221982738782" lon="2.496824597865166"><ele>79.25</ele><time>2026-03-31T06:36:04.001Z</time></trkpt><trkpt lat="49.04212016110725" lon="2.496975608337645"><ele>79.0</ele><time>2026-03-31T06:36:05.001Z</time></trkpt><trkpt lat="49.04201937608181" lon="2.497147141824208"><ele>78.5</ele><time>2026-03-31T06:36:06.001Z</time></trkpt><trkpt lat="49.04192684857695" lon="2.497307258962754"><ele>78.0</ele><time>2026-03-31T06:36:07.001Z</time></trkpt><trkpt lat="49.04181861688913" lon="2.4974618491966054"><ele>77.5</ele><time>2026-03-31T06:36:08.001Z</time></trkpt><trkpt lat="49.04172608617063" lon="2.497608669907034"><ele>77.0</ele><time>2026-03-31T06:36:09.001Z</time></trkpt><trkpt lat="49.041627043794655" lon="2.4977664610718993"><ele>77.0</ele><time>2026-03-31T06:36:10.001Z</time></trkpt><trkpt lat="49.04152583938133" lon="2.4979374605876083"><ele>77.0</ele><time>2026-03-31T06:36:11.001Z</time></trkpt><trkpt lat="49.04142216818406" lon="2.498104213526971"><ele>77.0</ele><time>2026-03-31T06:36:12.001Z</time></trkpt><trkpt lat="49.0413154025298" lon="2.4982667094892475"><ele>77.0</ele><time>2026-03-31T06:36:13.001Z</time></trkpt><trkpt lat="49.04121258278795" lon="2.4984275359477017"><ele>77.0</ele><time>2026-03-31T06:36:14.001Z</time></trkpt><trkpt lat="49.04111815642242" lon="2.498585530233037"><ele>77.0</ele><time>2026-03-31T06:36:15.001Z</time></trkpt><trkpt lat="49.04102095503002" lon="2.4987316723669535"><ele>77.0</ele><time>2026-03-31T06:36:16.001Z</time></trkpt><trkpt lat="49.04092637684792" lon="2.4988682721877873"><ele>76.75</ele><time>2026-03-31T06:36:17Z</time></trkpt><trkpt lat="49.04083424522699" lon="2.4990115532114316"><ele>76.5</ele><time>2026-03-31T06:36:18Z</time></trkpt><trkpt lat="49.040742347258224" lon="2.4991591879203905"><ele>76.25</ele><time>2026-03-31T06:36:19Z</time></trkpt><trkpt lat="49.04065093712168" lon="2.49930927793817"><ele>76.0</ele><time>2026-03-31T06:36:20Z</time></trkpt><trkpt lat="49.04055831826896" lon="2.499456928769023"><ele>77.0</ele><time>2026-03-31T06:36:21Z</time></trkpt><trkpt lat="49.04046121588643" lon="2.4996055379660196"><ele>78.0</ele><time>2026-03-31T06:36:22Z</time></trkpt><trkpt lat="49.04036832645421" lon="2.499758199537229"><ele>79.0</ele><time>2026-03-31T06:36:23Z</time></trkpt><trkpt lat="49.040271701117135" lon="2.4999139811131332"><ele>80.0</ele><time>2026-03-31T06:36:24Z</time></trkpt><trkpt lat="49.040174537029365" lon="2.500059437869573"><ele>80.0</ele><time>2026-03-31T06:36:25Z</time></trkpt><trkpt lat="49.04008088570079" lon="2.5002062511578194"><ele>80.0</ele><time>2026-03-31T06:36:26Z</time></trkpt><trkpt lat="49.03998720523052" lon="2.500349462979395"><ele>80.0</ele><time>2026-03-31T06:36:27Z</time></trkpt><trkpt lat="49.03988794437457" lon="2.500490057639066"><ele>80.0</ele><time>2026-03-31T06:36:28Z</time></trkpt><trkpt lat="49.039786374378494" lon="2.5006275740376824"><ele>79.25</ele><time>2026-03-31T06:36:29Z</time></trkpt><trkpt lat="49.039687731858415" lon="2.500764669247137"><ele>78.5</ele><time>2026-03-31T06:36:30Z</time></trkpt><trkpt lat="49.03958398003315" lon="2.5008974373966577"><ele>77.75</ele><time>2026-03-31T06:36:31Z</time></trkpt><trkpt lat="49.03948350799131" lon="2.5010289262027157"><ele>77.0</ele><time>2026-03-31T06:36:32Z</time></trkpt><trkpt lat="49.03938866908905" lon="2.5011563248521473"><ele>77.5</ele><time>2026-03-31T06:36:33Z</time></trkpt><trkpt lat="49.03929198395777" lon="2.5012836198027544"><ele>78.0</ele><time>2026-03-31T06:36:34Z</time></trkpt><trkpt lat="49.03919831344517" lon="2.501407016816592"><ele>78.5</ele><time>2026-03-31T06:36:35Z</time></trkpt><trkpt lat="49.03910634157933" lon="2.5015260603472265"><ele>79.0</ele><time>2026-03-31T06:36:36Z</time></trkpt><trkpt lat="49.039014528599566" lon="2.501639026301176"><ele>78.2</ele><time>2026-03-31T06:36:37Z</time></trkpt><trkpt lat="49.03892928954743" lon="2.5017526670723544"><ele>77.4</ele><time>2026-03-31T06:36:38Z</time></trkpt><trkpt lat="49.03884172818382" lon="2.501856403688709"><ele>76.6</ele><time>2026-03-31T06:36:39Z</time></trkpt><trkpt lat="49.03877218152111" lon="2.501958269871662"><ele>75.8</ele><time>2026-03-31T06:36:40Z</time></trkpt><trkpt lat="49.03870542963363" lon="2.502039848562928"><ele>75.0</ele><time>2026-03-31T06:36:41Z</time></trkpt><trkpt lat="49.038645570006366" lon="2.502131359488408"><ele>75.0</ele><time>2026-03-31T06:36:42Z</time></trkpt><trkpt lat="49.0386005781473" lon="2.502263157368128"><ele>75.0</ele><time>2026-03-31T06:36:43Z</time></trkpt><trkpt lat="49.038551409433026" lon="2.5024073276203627"><ele>75.0</ele><time>2026-03-31T06:36:44Z</time></trkpt><trkpt lat="49.038507299104744" lon="2.502544750416469"><ele>75.0</ele><time>2026-03-31T06:36:45Z</time></trkpt><trkpt lat="49.038479522467526" lon="2.5026949580520528"><ele>75.0</ele><time>2026-03-31T06:36:46Z</time></trkpt><trkpt lat="49.038467004421314" lon="2.502850512923129"><ele>75.0</ele><time>2026-03-31T06:36:47Z</time></trkpt><trkpt lat="49.03845440670161" lon="2.5030096872217498"><ele>75.0</ele><time>2026-03-31T06:36:48Z</time></trkpt><trkpt lat="49.03844944762514" lon="2.503177332444534"><ele>75.0</ele><time>2026-03-31T06:36:49Z</time></trkpt><trkpt lat="49.038425759664904" lon="2.503347610696636"><ele>75.0</ele><time>2026-03-31T06:36:50Z</time></trkpt><trkpt lat="49.038416343756545" lon="2.503526106733889"><ele>75.0</ele><time>2026-03-31T06:36:51Z</time></trkpt><trkpt lat="49.03840749806917" lon="2.503706773172313"><ele>74.75</ele><time>2026-03-31T06:36:52Z</time></trkpt><trkpt lat="49.038407209929325" lon="2.503890755466623"><ele>74.5</ele><time>2026-03-31T06:36:53Z</time></trkpt><trkpt lat="49.03839832232051" lon="2.5040683083749653"><ele>74.25</ele><time>2026-03-31T06:36:54Z</time></trkpt><trkpt lat="49.03838825256245" lon="2.5042464428118896"><ele>74.0</ele><time>2026-03-31T06:36:55Z</time></trkpt><trkpt lat="49.03838325221254" lon="2.5044203246039762"><ele>74.60000000000001</ele><time>2026-03-31T06:36:56Z</time></trkpt><trkpt lat="49.03837794607212" lon="2.5045938716413976"><ele>75.2</ele><time>2026-03-31T06:36:57Z</time></trkpt><trkpt lat="49.03837436153329" lon="2.5047487538789235"><ele>75.80000000000001</ele><time>2026-03-31T06:36:58Z</time></trkpt><trkpt lat="49.03835916139607" lon="2.504900130893795"><ele>76.4</ele><time>2026-03-31T06:36:59Z</time></trkpt><trkpt lat="49.03836942132764" lon="2.505044330521207"><ele>77.0</ele><time>2026-03-31T06:37:00Z</time></trkpt><trkpt lat="49.03836260046028" lon="2.505184430903667"><ele>77.0</ele><time>2026-03-31T06:37:01Z</time></trkpt><trkpt lat="49.038360882631714" lon="2.5053046781184993"><ele>77.0</ele><time>2026-03-31T06:37:02Z</time></trkpt><trkpt lat="49.03833423323939" lon="2.505463569598215"><ele>77.0</ele><time>2026-03-31T06:37:04Z</time></trkpt><trkpt lat="49.038212946461016" lon="2.5055375506101343"><ele>77.0</ele><time>2026-03-31T06:37:06Z</time></trkpt><trkpt lat="49.038132268223904" lon="2.505528776663989"><ele>77.0</ele><time>2026-03-31T06:37:07Z</time></trkpt><trkpt lat="49.03803409201315" lon="2.5055092036068305"><ele>77.2</ele><time>2026-03-31T06:37:08Z</time></trkpt><trkpt lat="49.03791780682305" lon="2.505498382235286"><ele>77.4</ele><time>2026-03-31T06:37:08.999Z</time></trkpt><trkpt lat="49.03780514658572" lon="2.5054939996551617"><ele>77.6</ele><time>2026-03-31T06:37:09.999Z</time></trkpt><trkpt lat="49.03769078904842" lon="2.5054980757174237"><ele>77.8</ele><time>2026-03-31T06:37:10.999Z</time></trkpt><trkpt lat="49.03758565818144" lon="2.5054983678341576"><ele>78.0</ele><time>2026-03-31T06:37:11.999Z</time></trkpt><trkpt lat="49.03747900697954" lon="2.505494785936705"><ele>79.2</ele><time>2026-03-31T06:37:12.999Z</time></trkpt><trkpt lat="49.03737504066126" lon="2.505485595291893"><ele>80.4</ele><time>2026-03-31T06:37:13.999Z</time></trkpt><trkpt lat="49.03727378836153" lon="2.5054823728879807"><ele>81.60000000000001</ele><time>2026-03-31T06:37:14.999Z</time></trkpt><trkpt lat="49.037166070134305" lon="2.5054809067583292"><ele>82.8</ele><time>2026-03-31T06:37:15.999Z</time></trkpt><trkpt lat="49.03705515149187" lon="2.5054859372503517"><ele>84.0</ele><time>2026-03-31T06:37:16.999Z</time></trkpt><trkpt lat="49.03694219559158" lon="2.505485008986037"><ele>84.0</ele><time>2026-03-31T06:37:17.999Z</time></trkpt><trkpt lat="49.03683362514723" lon="2.5054802975024804"><ele>84.0</ele><time>2026-03-31T06:37:18.999Z</time></trkpt><trkpt lat="49.036718306828575" lon="2.505476957592821"><ele>84.0</ele><time>2026-03-31T06:37:19.999Z</time></trkpt><trkpt lat="49.03660348953909" lon="2.5054746848200997"><ele>84.0</ele><time>2026-03-31T06:37:20.999Z</time></trkpt><trkpt lat="49.03648689771869" lon="2.5054711701567136"><ele>85.25</ele><time>2026-03-31T06:37:21.999Z</time></trkpt><trkpt lat="49.036372031265984" lon="2.5054652590566255"><ele>86.5</ele><time>2026-03-31T06:37:22.999Z</time></trkpt><trkpt lat="49.03625720056675" lon="2.505455780756332"><ele>87.75</ele><time>2026-03-31T06:37:23.999Z</time></trkpt><trkpt lat="49.036143481237815" lon="2.505449983004064"><ele>89.0</ele><time>2026-03-31T06:37:24.999Z</time></trkpt><trkpt lat="49.03603382699732" lon="2.5054419728048285"><ele>89.0</ele><time>2026-03-31T06:37:25.999Z</time></trkpt><trkpt lat="49.035915659155926" lon="2.5054506667723278"><ele>89.0</ele><time>2026-03-31T06:37:26.999Z</time></trkpt><trkpt lat="49.03580593262139" lon="2.5054406564123806"><ele>89.0</ele><time>2026-03-31T06:37:27.999Z</time></trkpt><trkpt lat="49.03569706133005" lon="2.505437757492871"><ele>89.0</ele><time>2026-03-31T06:37:28.999Z</time></trkpt><trkpt lat="49.035586188134644" lon="2.5054393313676657"><ele>89.0</ele><time>2026-03-31T06:37:29.999Z</time></trkpt><trkpt lat="49.03547580783787" lon="2.5054354259943423"><ele>90.25</ele><time>2026-03-31T06:37:30.999Z</time></trkpt><trkpt lat="49.035363573556694" lon="2.5054311561421145"><ele>91.5</ele><time>2026-03-31T06:37:31.999Z</time></trkpt><trkpt lat="49.035252144937914" lon="2.505420741244033"><ele>92.75</ele><time>2026-03-31T06:37:32.999Z</time></trkpt><trkpt lat="49.03514300679759" lon="2.5053967976176184"><ele>94.0</ele><time>2026-03-31T06:37:33.999Z</time></trkpt><trkpt lat="49.03502137091636" lon="2.5053654837541277"><ele>95.25</ele><time>2026-03-31T06:37:34.999Z</time></trkpt><trkpt lat="49.034893456525765" lon="2.5053302790434864"><ele>96.5</ele><time>2026-03-31T06:37:35.999Z</time></trkpt><trkpt lat="49.03475094407677" lon="2.5052730572293176"><ele>97.75</ele><time>2026-03-31T06:37:36.999Z</time></trkpt><trkpt lat="49.03460342367299" lon="2.505225784989049"><ele>99.0</ele><time>2026-03-31T06:37:37.999Z</time></trkpt><trkpt lat="49.03446016594726" lon="2.5050947039097196"><ele>99.0</ele><time>2026-03-31T06:37:38.999Z</time></trkpt><trkpt lat="49.034304644676176" lon="2.504997840556712"><ele>99.0</ele><time>2026-03-31T06:37:39.999Z</time></trkpt><trkpt lat="49.03412835475171" lon="2.5048937346025255"><ele>99.0</ele><time>2026-03-31T06:37:40.999Z</time></trkpt><trkpt lat="49.033942941744165" lon="2.504778753097112"><ele>99.66666666666666</ele><time>2026-03-31T06:37:41.999Z</time></trkpt><trkpt lat="49.03375700998182" lon="2.5046594667150286"><ele>100.33333333333333</ele><time>2026-03-31T06:37:42.999Z</time></trkpt><trkpt lat="49.03357609984247" lon="2.504539946554549"><ele>101.0</ele><time>2026-03-31T06:37:43.999Z</time></trkpt><trkpt lat="49.033396007796945" lon="2.504421350894869"><ele>101.33333333333333</ele><time>2026-03-31T06:37:44.999Z</time></trkpt><trkpt lat="49.03322063157681" lon="2.504304004966023"><ele>101.66666666666666</ele><time>2026-03-31T06:37:45.999Z</time></trkpt><trkpt lat="49.03304067648643" lon="2.504189399738545"><ele>102.0</ele><time>2026-03-31T06:37:46.999Z</time></trkpt><trkpt lat="49.03286212756207" lon="2.504072912943646"><ele>102.0</ele><time>2026-03-31T06:37:47.999Z</time></trkpt><trkpt lat="49.032687800620515" lon="2.503951811165731"><ele>102.0</ele><time>2026-03-31T06:37:48.999Z</time></trkpt><trkpt lat="49.032514737267945" lon="2.5038251598557606"><ele>102.0</ele><time>2026-03-31T06:37:49.999Z</time></trkpt><trkpt lat="49.032342974037185" lon="2.5037003938258544"><ele>102.33333333333334</ele><time>2026-03-31T06:37:50.999Z</time></trkpt><trkpt lat="49.03218148024641" lon="2.503568751468874"><ele>102.66666666666667</ele><time>2026-03-31T06:37:51.999Z</time></trkpt><trkpt lat="49.032035717167965" lon="2.503419642825207"><ele>103.0</ele><time>2026-03-31T06:37:52.999Z</time></trkpt><trkpt lat="49.031914714650405" lon="2.503274399664811"><ele>103.0</ele><time>2026-03-31T06:37:53.999Z</time></trkpt><trkpt lat="49.03182214210973" lon="2.5031426618321024"><ele>103.0</ele><time>2026-03-31T06:37:54.999Z</time></trkpt><trkpt lat="49.031740347706986" lon="2.5030154254886727"><ele>103.0</ele><time>2026-03-31T06:37:55.999Z</time></trkpt><trkpt lat="49.03166945109485" lon="2.5028884901144304"><ele>103.0</ele><time>2026-03-31T06:37:56.999Z</time></trkpt><trkpt lat="49.03160013475988" lon="2.5027692411286875"><ele>102.80000000000001</ele><time>2026-03-31T06:37:57.999Z</time></trkpt><trkpt lat="49.03154131783008" lon="2.502663532358986"><ele>102.6</ele><time>2026-03-31T06:37:58.999Z</time></trkpt><trkpt lat="49.03148234913662" lon="2.5025571734843886"><ele>102.4</ele><time>2026-03-31T06:37:59.999Z</time></trkpt><trkpt lat="49.031428095572664" lon="2.5024351532537272"><ele>102.19999999999999</ele><time>2026-03-31T06:38:00.999Z</time></trkpt><trkpt lat="49.03137051092652" lon="2.502297454327993"><ele>102.0</ele><time>2026-03-31T06:38:01.999Z</time></trkpt><trkpt lat="49.03131261806727" lon="2.502155726321878"><ele>101.8</ele><time>2026-03-31T06:38:02.999Z</time></trkpt><trkpt lat="49.03125782416282" lon="2.502007607500152"><ele>101.6</ele><time>2026-03-31T06:38:03.999Z</time></trkpt><trkpt lat="49.03120545541119" lon="2.5018535440983034"><ele>101.39999999999999</ele><time>2026-03-31T06:38:04.999Z</time></trkpt><trkpt lat="49.03115040841153" lon="2.5017072688990436"><ele>101.19999999999999</ele><time>2026-03-31T06:38:05.999Z</time></trkpt><trkpt lat="49.03110188688288" lon="2.501582199254082"><ele>101.0</ele><time>2026-03-31T06:38:06.999Z</time></trkpt><trkpt lat="49.03105244907978" lon="2.5014552014606615"><ele>101.0</ele><time>2026-03-31T06:38:07.999Z</time></trkpt><trkpt lat="49.030997573591534" lon="2.5013092003578614"><ele>101.0</ele><time>2026-03-31T06:38:09.001Z</time></trkpt><trkpt lat="49.03094128562135" lon="2.5011574926665388"><ele>101.0</ele><time>2026-03-31T06:38:10.001Z</time></trkpt><trkpt lat="49.03088216599374" lon="2.501016789581676"><ele>101.0</ele><time>2026-03-31T06:38:11.001Z</time></trkpt><trkpt lat="49.030825853979884" lon="2.500882613307595"><ele>101.0</ele><time>2026-03-31T06:38:12.001Z</time></trkpt><trkpt lat="49.030765916394984" lon="2.500769382354359"><ele>100.66666666666666</ele><time>2026-03-31T06:38:13.001Z</time></trkpt><trkpt lat="49.030701318271504" lon="2.500663382248126"><ele>100.33333333333333</ele><time>2026-03-31T06:38:14Z</time></trkpt><trkpt lat="49.030643664282316" lon="2.5005549215736806"><ele>100.0</ele><time>2026-03-31T06:38:15Z</time></trkpt><trkpt lat="49.030586562352596" lon="2.500455100960243"><ele>99.66666666666666</ele><time>2026-03-31T06:38:16Z</time></trkpt><trkpt lat="49.03053030313888" lon="2.500364829784785"><ele>99.33333333333333</ele><time>2026-03-31T06:38:17Z</time></trkpt><trkpt lat="49.03046907398504" lon="2.500268985041926"><ele>99.0</ele><time>2026-03-31T06:38:18Z</time></trkpt><trkpt lat="49.03040888476854" lon="2.5001677345157503"><ele>99.0</ele><time>2026-03-31T06:38:19Z</time></trkpt><trkpt lat="49.030342523538856" lon="2.5000779240560362"><ele>99.0</ele><time>2026-03-31T06:38:20Z</time></trkpt><trkpt lat="49.03027815474723" lon="2.49999167631195"><ele>99.0</ele><time>2026-03-31T06:38:21Z</time></trkpt><trkpt lat="49.0302299996209" lon="2.499921802853451"><ele>99.0</ele><time>2026-03-31T06:38:22Z</time></trkpt><trkpt lat="49.03016633715918" lon="2.4998156479521865"><ele>99.0</ele><time>2026-03-31T06:38:24Z</time></trkpt><trkpt lat="49.03009289334206" lon="2.4996791301334826"><ele>98.75</ele><time>2026-03-31T06:38:27Z</time></trkpt><trkpt lat="49.03006195007115" lon="2.4995658893681085"><ele>98.5</ele><time>2026-03-31T06:38:28Z</time></trkpt><trkpt lat="49.030033165267106" lon="2.499392110191411"><ele>98.25</ele><time>2026-03-31T06:38:29Z</time></trkpt><trkpt lat="49.02999117215671" lon="2.4991907885542726"><ele>98.0</ele><time>2026-03-31T06:38:30Z</time></trkpt><trkpt lat="49.0299250162667" lon="2.499011956457572"><ele>98.0</ele><time>2026-03-31T06:38:31Z</time></trkpt><trkpt lat="49.02983793624831" lon="2.4988630603714155"><ele>98.0</ele><time>2026-03-31T06:38:32Z</time></trkpt><trkpt lat="49.02973716230255" lon="2.498748537450517"><ele>98.0</ele><time>2026-03-31T06:38:33Z</time></trkpt><trkpt lat="49.02962370844133" lon="2.4986782846882902"><ele>98.0</ele><time>2026-03-31T06:38:34Z</time></trkpt><trkpt lat="49.029514785814385" lon="2.498641159109662"><ele>97.75</ele><time>2026-03-31T06:38:35Z</time></trkpt><trkpt lat="49.02940734528292" lon="2.498630735112875"><ele>97.5</ele><time>2026-03-31T06:38:36Z</time></trkpt><trkpt lat="49.0292867072093" lon="2.498632183817893"><ele>97.25</ele><time>2026-03-31T06:38:37Z</time></trkpt><trkpt lat="49.02917300591604" lon="2.4986654068730196"><ele>97.0</ele><time>2026-03-31T06:38:38Z</time></trkpt><trkpt lat="49.02907083787042" lon="2.4987324527068187"><ele>97.19999999999999</ele><time>2026-03-31T06:38:39Z</time></trkpt><trkpt lat="49.028977139510005" lon="2.4988274320670327"><ele>97.4</ele><time>2026-03-31T06:38:40Z</time></trkpt><trkpt lat="49.02889234394143" lon="2.4989445875167173"><ele>97.6</ele><time>2026-03-31T06:38:41Z</time></trkpt><trkpt lat="49.0288283920759" lon="2.4990785574395113"><ele>97.80000000000001</ele><time>2026-03-31T06:38:42Z</time></trkpt><trkpt lat="49.02878039671696" lon="2.4992297329138466"><ele>98.0</ele><time>2026-03-31T06:38:43Z</time></trkpt><trkpt lat="49.02873226542351" lon="2.4993781277385176"><ele>98.0</ele><time>2026-03-31T06:38:44Z</time></trkpt><trkpt lat="49.02864476833984" lon="2.4994604241465335"><ele>98.0</ele><time>2026-03-31T06:38:45Z</time></trkpt><trkpt lat="49.028534829968535" lon="2.4994995115435112"><ele>98.0</ele><time>2026-03-31T06:38:46Z</time></trkpt><trkpt lat="49.02841566950552" lon="2.499506074685977"><ele>98.0</ele><time>2026-03-31T06:38:47Z</time></trkpt><trkpt lat="49.02828432135456" lon="2.4995005924109"><ele>97.33333333333333</ele><time>2026-03-31T06:38:48Z</time></trkpt><trkpt lat="49.02813839662377" lon="2.4994832428206095"><ele>96.66666666666666</ele><time>2026-03-31T06:38:49Z</time></trkpt><trkpt lat="49.02798299267746" lon="2.4994700659158307"><ele>96.0</ele><time>2026-03-31T06:38:50Z</time></trkpt><trkpt lat="49.02782747703351" lon="2.4994617083171526"><ele>96.0</ele><time>2026-03-31T06:38:51Z</time></trkpt><trkpt lat="49.027676122927694" lon="2.4994588617035176"><ele>96.0</ele><time>2026-03-31T06:38:52Z</time></trkpt><trkpt lat="49.02751991664145" lon="2.49946909131698"><ele>96.0</ele><time>2026-03-31T06:38:53Z</time></trkpt><trkpt lat="49.02737376194279" lon="2.4994935136963417"><ele>96.33333333333334</ele><time>2026-03-31T06:38:54Z</time></trkpt><trkpt lat="49.02721642549292" lon="2.499529031531844"><ele>96.66666666666667</ele><time>2026-03-31T06:38:55Z</time></trkpt><trkpt lat="49.0270365604404" lon="2.4995731684415183"><ele>97.0</ele><time>2026-03-31T06:38:56Z</time></trkpt><trkpt lat="49.02684908949725" lon="2.499626891028382"><ele>97.66666666666667</ele><time>2026-03-31T06:38:57Z</time></trkpt><trkpt lat="49.026653380629575" lon="2.499691540946716"><ele>98.33333333333334</ele><time>2026-03-31T06:38:58Z</time></trkpt><trkpt lat="49.02642697582417" lon="2.499767127911098"><ele>99.0</ele><time>2026-03-31T06:38:59Z</time></trkpt><trkpt lat="49.02618540437315" lon="2.4998020849276177"><ele>100.0</ele><time>2026-03-31T06:39:00Z</time></trkpt><trkpt lat="49.02595004209041" lon="2.4997791975255748"><ele>101.0</ele><time>2026-03-31T06:39:01Z</time></trkpt><trkpt lat="49.02575067668785" lon="2.4997048137636924"><ele>102.0</ele><time>2026-03-31T06:39:02Z</time></trkpt><trkpt lat="49.025502988037665" lon="2.4996167276281462"><ele>102.0</ele><time>2026-03-31T06:39:03Z</time></trkpt><trkpt lat="49.02527519869269" lon="2.4995023383597244"><ele>102.0</ele><time>2026-03-31T06:39:04Z</time></trkpt><trkpt lat="49.025044282627576" lon="2.49935022377337"><ele>102.0</ele><time>2026-03-31T06:39:05Z</time></trkpt><trkpt lat="49.024809079928055" lon="2.4991671015757997"><ele>102.0</ele><time>2026-03-31T06:39:05.999Z</time></trkpt><trkpt lat="49.02456498161652" lon="2.4989557337221795"><ele>102.0</ele><time>2026-03-31T06:39:06.999Z</time></trkpt><trkpt lat="49.02432897750375" lon="2.4987559891846907"><ele>102.0</ele><time>2026-03-31T06:39:07.999Z</time></trkpt><trkpt lat="49.02410020404851" lon="2.4985712576518413"><ele>101.5</ele><time>2026-03-31T06:39:08.999Z</time></trkpt><trkpt lat="49.023873977537576" lon="2.498391190067646"><ele>101.0</ele><time>2026-03-31T06:39:09.999Z</time></trkpt><trkpt lat="49.02364634019616" lon="2.498222345973294"><ele>101.0</ele><time>2026-03-31T06:39:10.999Z</time></trkpt><trkpt lat="49.02341238585009" lon="2.4980650961642348"><ele>101.0</ele><time>2026-03-31T06:39:11.999Z</time></trkpt><trkpt lat="49.02317738257445" lon="2.497917293124484"><ele>102.0</ele><time>2026-03-31T06:39:12.999Z</time></trkpt><trkpt lat="49.022939474596974" lon="2.497779891400916"><ele>103.0</ele><time>2026-03-31T06:39:13.999Z</time></trkpt><trkpt lat="49.022700562210694" lon="2.497637677202011"><ele>104.0</ele><time>2026-03-31T06:39:14.999Z</time></trkpt><trkpt lat="49.02246665257961" lon="2.497487091446592"><ele>105.0</ele><time>2026-03-31T06:39:15.999Z</time></trkpt><trkpt lat="49.0222440096609" lon="2.497342557702222"><ele>105.0</ele><time>2026-03-31T06:39:16.999Z</time></trkpt><trkpt lat="49.02202121119483" lon="2.4971985803648056"><ele>105.0</ele><time>2026-03-31T06:39:17.999Z</time></trkpt><trkpt lat="49.02179572275808" lon="2.4970569118718933"><ele>105.0</ele><time>2026-03-31T06:39:18.999Z</time></trkpt><trkpt lat="49.02157154664044" lon="2.4969120090224255"><ele>105.0</ele><time>2026-03-31T06:39:19.999Z</time></trkpt><trkpt lat="49.02134558546002" lon="2.4967690515604346"><ele>105.0</ele><time>2026-03-31T06:39:20.999Z</time></trkpt><trkpt lat="49.021121109512805" lon="2.4966249704652372"><ele>105.0</ele><time>2026-03-31T06:39:21.999Z</time></trkpt><trkpt lat="49.02089636518966" lon="2.4964818798658537"><ele>104.5</ele><time>2026-03-31T06:39:22.999Z</time></trkpt><trkpt lat="49.02067163696981" lon="2.4963400143357046"><ele>104.0</ele><time>2026-03-31T06:39:23.999Z</time></trkpt><trkpt lat="49.0204458699195" lon="2.4961965178277894"><ele>104.0</ele><time>2026-03-31T06:39:24.999Z</time></trkpt><trkpt lat="49.02021679094802" lon="2.496050119444737"><ele>104.0</ele><time>2026-03-31T06:39:25.999Z</time></trkpt><trkpt lat="49.019981884180375" lon="2.495902516088715"><ele>104.0</ele><time>2026-03-31T06:39:26.999Z</time></trkpt><trkpt lat="49.01974752800859" lon="2.495756106411054"><ele>104.0</ele><time>2026-03-31T06:39:27.999Z</time></trkpt><trkpt lat="49.01951245716187" lon="2.4956063474990615"><ele>104.0</ele><time>2026-03-31T06:39:28.999Z</time></trkpt><trkpt lat="49.019280176571016" lon="2.4954565563725657"><ele>104.0</ele><time>2026-03-31T06:39:29.999Z</time></trkpt><trkpt lat="49.019050372879896" lon="2.4953088114893816"><ele>105.0</ele><time>2026-03-31T06:39:30.999Z</time></trkpt><trkpt lat="49.01882007047775" lon="2.4951654978771107"><ele>106.0</ele><time>2026-03-31T06:39:31.999Z</time></trkpt><trkpt lat="49.01859192401243" lon="2.495023723968275"><ele>106.0</ele><time>2026-03-31T06:39:32.999Z</time></trkpt><trkpt lat="49.01836318492957" lon="2.4948807403990307"><ele>106.0</ele><time>2026-03-31T06:39:33.999Z</time></trkpt><trkpt lat="49.018135979767024" lon="2.494736804008289"><ele>106.0</ele><time>2026-03-31T06:39:34.999Z</time></trkpt><trkpt lat="49.017913716393394" lon="2.4945916915224506"><ele>106.0</ele><time>2026-03-31T06:39:35.999Z</time></trkpt><trkpt lat="49.017689033433605" lon="2.494449261106824"><ele>105.5</ele><time>2026-03-31T06:39:36.999Z</time></trkpt><trkpt lat="49.01746556463792" lon="2.49430518660268"><ele>105.0</ele><time>2026-03-31T06:39:37.999Z</time></trkpt><trkpt lat="49.01724367618971" lon="2.4941644522537283"><ele>105.0</ele><time>2026-03-31T06:39:38.999Z</time></trkpt><trkpt lat="49.0170197980697" lon="2.4940212202417085"><ele>105.0</ele><time>2026-03-31T06:39:39.999Z</time></trkpt><trkpt lat="49.01679504299698" lon="2.4938786692475734"><ele>105.0</ele><time>2026-03-31T06:39:40.999Z</time></trkpt><trkpt lat="49.01656828367361" lon="2.493740102664048"><ele>105.0</ele><time>2026-03-31T06:39:41.999Z</time></trkpt><trkpt lat="49.01634369901387" lon="2.493599004891518"><ele>105.0</ele><time>2026-03-31T06:39:42.999Z</time></trkpt><trkpt lat="49.016114163401866" lon="2.4934757289089835"><ele>105.0</ele><time>2026-03-31T06:39:43.999Z</time></trkpt><trkpt lat="49.015881068453915" lon="2.4933664439095313"><ele>105.0</ele><time>2026-03-31T06:39:44.999Z</time></trkpt><trkpt lat="49.015641595042496" lon="2.4932716988025017"><ele>105.0</ele><time>2026-03-31T06:39:45.999Z</time></trkpt><trkpt lat="49.015400253427785" lon="2.493171060128319"><ele>105.0</ele><time>2026-03-31T06:39:46.999Z</time></trkpt><trkpt lat="49.01515890653324" lon="2.493076255565142"><ele>105.0</ele><time>2026-03-31T06:39:47.999Z</time></trkpt><trkpt lat="49.014918844613966" lon="2.4929862158640823"><ele>105.5</ele><time>2026-03-31T06:39:48.999Z</time></trkpt><trkpt lat="49.014677021735736" lon="2.4928951924200757"><ele>106.0</ele><time>2026-03-31T06:39:49.999Z</time></trkpt><trkpt lat="49.01443613540507" lon="2.492801413538919"><ele>106.0</ele><time>2026-03-31T06:39:50.999Z</time></trkpt><trkpt lat="49.01419610914608" lon="2.492705762039176"><ele>106.0</ele><time>2026-03-31T06:39:51.999Z</time></trkpt><trkpt lat="49.013959340160135" lon="2.492607957220392"><ele>105.0</ele><time>2026-03-31T06:39:52.999Z</time></trkpt><trkpt lat="49.01372364600946" lon="2.492514140747527"><ele>104.0</ele><time>2026-03-31T06:39:53.999Z</time></trkpt><trkpt lat="49.01348638595533" lon="2.4924226086761307"><ele>104.0</ele><time>2026-03-31T06:39:54.999Z</time></trkpt><trkpt lat="49.013249903546324" lon="2.492333596584117"><ele>104.0</ele><time>2026-03-31T06:39:55.999Z</time></trkpt><trkpt lat="49.01301467271934" lon="2.4922419999787797"><ele>104.0</ele><time>2026-03-31T06:39:56.999Z</time></trkpt><trkpt lat="49.01277789462314" lon="2.492150846346601"><ele>104.0</ele><time>2026-03-31T06:39:57.999Z</time></trkpt><trkpt lat="49.01254219823778" lon="2.492058690786592"><ele>104.0</ele><time>2026-03-31T06:39:58.999Z</time></trkpt><trkpt lat="49.01230577289886" lon="2.4919684070545527"><ele>104.0</ele><time>2026-03-31T06:39:59.999Z</time></trkpt><trkpt lat="49.01206731823723" lon="2.491874411002885"><ele>104.0</ele><time>2026-03-31T06:40:00.999Z</time></trkpt><trkpt lat="49.01182594175789" lon="2.4917820627079315"><ele>104.0</ele><time>2026-03-31T06:40:01.999Z</time></trkpt><trkpt lat="49.011580180227845" lon="2.4916899135027433"><ele>103.5</ele><time>2026-03-31T06:40:02.999Z</time></trkpt><trkpt lat="49.01133566729191" lon="2.491593995320286"><ele>103.0</ele><time>2026-03-31T06:40:03.999Z</time></trkpt><trkpt lat="49.01109416780057" lon="2.4915010790650824"><ele>103.0</ele><time>2026-03-31T06:40:04.998Z</time></trkpt><trkpt lat="49.0108535826532" lon="2.491408291694133"><ele>103.0</ele><time>2026-03-31T06:40:05.998Z</time></trkpt><trkpt lat="49.01061315195811" lon="2.491313684239444"><ele>103.0</ele><time>2026-03-31T06:40:06.998Z</time></trkpt><trkpt lat="49.01037446136765" lon="2.4912200748251943"><ele>103.0</ele><time>2026-03-31T06:40:07.998Z</time></trkpt><trkpt lat="49.01013675171296" lon="2.491128830426147"><ele>102.0</ele><time>2026-03-31T06:40:08.998Z</time></trkpt><trkpt lat="49.00990174947094" lon="2.491037027084601"><ele>101.0</ele><time>2026-03-31T06:40:09.998Z</time></trkpt><trkpt lat="49.00966307745539" lon="2.4909448639014733"><ele>101.0</ele><time>2026-03-31T06:40:10.998Z</time></trkpt><trkpt lat="49.00942174979937" lon="2.4908509439708357"><ele>101.0</ele><time>2026-03-31T06:40:11.998Z</time></trkpt><trkpt lat="49.009179982934384" lon="2.490761068276735"><ele>100.0</ele><time>2026-03-31T06:40:12.998Z</time></trkpt><trkpt lat="49.00893803468121" lon="2.490671694922131"><ele>99.0</ele><time>2026-03-31T06:40:13.998Z</time></trkpt><trkpt lat="49.00869823689439" lon="2.4905807897586048"><ele>99.0</ele><time>2026-03-31T06:40:15Z</time></trkpt><trkpt lat="49.008462032481546" lon="2.490487974258348"><ele>99.0</ele><time>2026-03-31T06:40:16Z</time></trkpt><trkpt lat="49.00822477913048" lon="2.490392556426995"><ele>98.5</ele><time>2026-03-31T06:40:17Z</time></trkpt><trkpt lat="49.00799321573944" lon="2.490300411989673"><ele>98.0</ele><time>2026-03-31T06:40:18Z</time></trkpt><trkpt lat="49.00775051264552" lon="2.4902078010215276"><ele>98.0</ele><time>2026-03-31T06:40:19Z</time></trkpt><trkpt lat="49.00750173596742" lon="2.4901129723954303"><ele>98.0</ele><time>2026-03-31T06:40:20Z</time></trkpt><trkpt lat="49.007250552268154" lon="2.4900191738483275"><ele>96.5</ele><time>2026-03-31T06:40:21Z</time></trkpt><trkpt lat="49.00699965000747" lon="2.4899266351314306"><ele>95.0</ele><time>2026-03-31T06:40:22Z</time></trkpt><trkpt lat="49.0067478570114" lon="2.489830829584769"><ele>94.0</ele><time>2026-03-31T06:40:23Z</time></trkpt><trkpt lat="49.00650221203093" lon="2.489734349580331"><ele>93.0</ele><time>2026-03-31T06:40:24Z</time></trkpt><trkpt lat="49.00625930594229" lon="2.489644725624552"><ele>93.0</ele><time>2026-03-31T06:40:25Z</time></trkpt><trkpt lat="49.00601924596994" lon="2.4895549837593984"><ele>93.0</ele><time>2026-03-31T06:40:26Z</time></trkpt><trkpt lat="49.00577508876206" lon="2.4894539221804806"><ele>92.0</ele><time>2026-03-31T06:40:27Z</time></trkpt><trkpt lat="49.0055318569989" lon="2.4893527882389286"><ele>91.0</ele><time>2026-03-31T06:40:28Z</time></trkpt><trkpt lat="49.00529025846163" lon="2.4892444041839417"><ele>91.0</ele><time>2026-03-31T06:40:29Z</time></trkpt><trkpt lat="49.00505256443606" lon="2.4891239197973194"><ele>91.0</ele><time>2026-03-31T06:40:30Z</time></trkpt><trkpt lat="49.00481279949624" lon="2.4889914515993223"><ele>89.5</ele><time>2026-03-31T06:40:31Z</time></trkpt><trkpt lat="49.00457856937556" lon="2.4888478886451932"><ele>88.0</ele><time>2026-03-31T06:40:32Z</time></trkpt><trkpt lat="49.004345987391844" lon="2.488693672114633"><ele>84.5</ele><time>2026-03-31T06:40:33Z</time></trkpt><trkpt lat="49.004114245747076" lon="2.488532342009773"><ele>81.0</ele><time>2026-03-31T06:40:34Z</time></trkpt><trkpt lat="49.00388974005182" lon="2.4883659177837356"><ele>81.0</ele><time>2026-03-31T06:40:35Z</time></trkpt><trkpt lat="49.00367089629744" lon="2.4881879783679683"><ele>81.0</ele><time>2026-03-31T06:40:36Z</time></trkpt><trkpt lat="49.0034603603607" lon="2.4880027652903474"><ele>78.5</ele><time>2026-03-31T06:40:37Z</time></trkpt><trkpt lat="49.00325004732509" lon="2.4878075300784865"><ele>76.0</ele><time>2026-03-31T06:40:38Z</time></trkpt><trkpt lat="49.00304379424096" lon="2.4876094499012575"><ele>76.0</ele><time>2026-03-31T06:40:39Z</time></trkpt><trkpt lat="49.00283998317885" lon="2.4874060080216753"><ele>76.0</ele><time>2026-03-31T06:40:40Z</time></trkpt><trkpt lat="49.002637237006724" lon="2.48719333266401"><ele>74.0</ele><time>2026-03-31T06:40:41Z</time></trkpt><trkpt lat="49.00244444993538" lon="2.486969917457218"><ele>72.0</ele><time>2026-03-31T06:40:42Z</time></trkpt><trkpt lat="49.00224963047562" lon="2.486742048512549"><ele>72.0</ele><time>2026-03-31T06:40:43Z</time></trkpt><trkpt lat="49.00205901818388" lon="2.486516850109416"><ele>72.0</ele><time>2026-03-31T06:40:44Z</time></trkpt><trkpt lat="49.001865922692055" lon="2.486294454457041"><ele>72.0</ele><time>2026-03-31T06:40:45Z</time></trkpt><trkpt lat="49.0016705107241" lon="2.4860710973722524"><ele>72.0</ele><time>2026-03-31T06:40:46Z</time></trkpt><trkpt lat="49.00148204303655" lon="2.48586069834949"><ele>71.0</ele><time>2026-03-31T06:40:47Z</time></trkpt><trkpt lat="49.00129183287523" lon="2.4856440263526105"><ele>70.0</ele><time>2026-03-31T06:40:48Z</time></trkpt><trkpt lat="49.0010975953511" lon="2.4854189494576238"><ele>69.5</ele><time>2026-03-31T06:40:49Z</time></trkpt><trkpt lat="49.00089958581777" lon="2.4851926918145506"><ele>69.0</ele><time>2026-03-31T06:40:50Z</time></trkpt><trkpt lat="49.00070069050626" lon="2.484967990397972"><ele>72.5</ele><time>2026-03-31T06:40:51Z</time></trkpt><trkpt lat="49.00050191995348" lon="2.4847391349784123"><ele>76.0</ele><time>2026-03-31T06:40:52Z</time></trkpt><trkpt lat="49.00030168112472" lon="2.484518485892975"><ele>76.0</ele><time>2026-03-31T06:40:53Z</time></trkpt><trkpt lat="49.000101061608206" lon="2.4843073714517696"><ele>76.0</ele><time>2026-03-31T06:40:54Z</time></trkpt><trkpt lat="48.999898165533565" lon="2.484099280136212"><ele>76.0</ele><time>2026-03-31T06:40:55Z</time></trkpt><trkpt lat="48.99969832528037" lon="2.48390373875358"><ele>76.0</ele><time>2026-03-31T06:40:56Z</time></trkpt><trkpt lat="48.99949765492884" lon="2.4837108275671254"><ele>74.5</ele><time>2026-03-31T06:40:57Z</time></trkpt><trkpt lat="48.99929915810997" lon="2.483514601843642"><ele>73.0</ele><time>2026-03-31T06:40:58Z</time></trkpt><trkpt lat="48.99909708997348" lon="2.4833277634266135"><ele>77.5</ele><time>2026-03-31T06:40:59Z</time></trkpt><trkpt lat="48.99889438738014" lon="2.4831367530433988"><ele>82.0</ele><time>2026-03-31T06:41:00Z</time></trkpt><trkpt lat="48.9986915411441" lon="2.4829485029041436"><ele>82.0</ele><time>2026-03-31T06:41:01Z</time></trkpt><trkpt lat="48.99848755912538" lon="2.4827627635324445"><ele>82.0</ele><time>2026-03-31T06:41:02Z</time></trkpt><trkpt lat="48.998281293625666" lon="2.4825807650478344"><ele>84.5</ele><time>2026-03-31T06:41:03Z</time></trkpt><trkpt lat="48.99807564085965" lon="2.48239801071775"><ele>87.0</ele><time>2026-03-31T06:41:03.999Z</time></trkpt><trkpt lat="48.99786918382432" lon="2.4822150572053974"><ele>87.0</ele><time>2026-03-31T06:41:04.999Z</time></trkpt><trkpt lat="48.997665597401294" lon="2.4820311515669826"><ele>87.0</ele><time>2026-03-31T06:41:05.999Z</time></trkpt><trkpt lat="48.99746071823865" lon="2.4818468218141208"><ele>88.5</ele><time>2026-03-31T06:41:06.999Z</time></trkpt><trkpt lat="48.99725727580809" lon="2.481664553539639"><ele>90.0</ele><time>2026-03-31T06:41:07.999Z</time></trkpt><trkpt lat="48.997053876089964" lon="2.4814770492669664"><ele>90.0</ele><time>2026-03-31T06:41:08.999Z</time></trkpt><trkpt lat="48.9968484995703" lon="2.4812923447904702"><ele>90.0</ele><time>2026-03-31T06:41:09.999Z</time></trkpt><trkpt lat="48.99664315701756" lon="2.4811074357214333"><ele>90.0</ele><time>2026-03-31T06:41:10.999Z</time></trkpt><trkpt lat="48.99643508355838" lon="2.4809208897414874"><ele>90.0</ele><time>2026-03-31T06:41:11.999Z</time></trkpt><trkpt lat="48.996224489215315" lon="2.480731574312631"><ele>90.0</ele><time>2026-03-31T06:41:12.999Z</time></trkpt><trkpt lat="48.9960101241812" lon="2.480542305618224"><ele>90.0</ele><time>2026-03-31T06:41:13.999Z</time></trkpt><trkpt lat="48.995794320917625" lon="2.4803499069602437"><ele>89.5</ele><time>2026-03-31T06:41:14.999Z</time></trkpt><trkpt lat="48.99557692996424" lon="2.4801552460167846"><ele>89.0</ele><time>2026-03-31T06:41:15.999Z</time></trkpt><trkpt lat="48.99536372775797" lon="2.47996601279851"><ele>89.0</ele><time>2026-03-31T06:41:16.999Z</time></trkpt><trkpt lat="48.99515129708579" lon="2.4797726791770143"><ele>89.0</ele><time>2026-03-31T06:41:17.999Z</time></trkpt><trkpt lat="48.99494092070311" lon="2.4795830948971775"><ele>88.0</ele><time>2026-03-31T06:41:18.999Z</time></trkpt><trkpt lat="48.994729232475066" lon="2.479394821231457"><ele>87.0</ele><time>2026-03-31T06:41:19.999Z</time></trkpt><trkpt lat="48.994517143096594" lon="2.4792047665721357"><ele>87.0</ele><time>2026-03-31T06:41:20.999Z</time></trkpt><trkpt lat="48.99430669040984" lon="2.4790180256091516"><ele>87.0</ele><time>2026-03-31T06:41:21.999Z</time></trkpt><trkpt lat="48.99409404942785" lon="2.478827416995271"><ele>84.5</ele><time>2026-03-31T06:41:22.999Z</time></trkpt><trkpt lat="48.9938832455425" lon="2.4786422042695304"><ele>82.0</ele><time>2026-03-31T06:41:23.999Z</time></trkpt><trkpt lat="48.993675163407744" lon="2.4784549966660605"><ele>82.0</ele><time>2026-03-31T06:41:24.999Z</time></trkpt><trkpt lat="48.99346762292268" lon="2.478269811025063"><ele>82.0</ele><time>2026-03-31T06:41:25.999Z</time></trkpt><trkpt lat="48.993259959116926" lon="2.478084708200183"><ele>80.0</ele><time>2026-03-31T06:41:26.999Z</time></trkpt><trkpt lat="48.993053287449" lon="2.477902507163209"><ele>78.0</ele><time>2026-03-31T06:41:27.999Z</time></trkpt><trkpt lat="48.992850590976666" lon="2.4777245803864534"><ele>78.0</ele><time>2026-03-31T06:41:28.999Z</time></trkpt><trkpt lat="48.99264732813367" lon="2.477540977468102"><ele>78.0</ele><time>2026-03-31T06:41:29.999Z</time></trkpt><trkpt lat="48.99244073975127" lon="2.477350422630518"><ele>79.0</ele><time>2026-03-31T06:41:30.999Z</time></trkpt><trkpt lat="48.992233440605595" lon="2.4771607394919846"><ele>80.0</ele><time>2026-03-31T06:41:31.999Z</time></trkpt><trkpt lat="48.99202232236997" lon="2.4769738002303385"><ele>80.0</ele><time>2026-03-31T06:41:32.999Z</time></trkpt><trkpt lat="48.99181258311758" lon="2.476789945483374"><ele>80.0</ele><time>2026-03-31T06:41:33.999Z</time></trkpt><trkpt lat="48.99160362145094" lon="2.4766059778312486"><ele>80.5</ele><time>2026-03-31T06:41:34.999Z</time></trkpt><trkpt lat="48.99139213608314" lon="2.4764178070566216"><ele>81.0</ele><time>2026-03-31T06:41:35.999Z</time></trkpt><trkpt lat="48.99118303868184" lon="2.4762311717395127"><ele>81.0</ele><time>2026-03-31T06:41:36.999Z</time></trkpt><trkpt lat="48.990976927629895" lon="2.476047147809806"><ele>81.0</ele><time>2026-03-31T06:41:37.999Z</time></trkpt><trkpt lat="48.99077188066956" lon="2.475859136887528"><ele>81.5</ele><time>2026-03-31T06:41:38.999Z</time></trkpt><trkpt lat="48.990567748485574" lon="2.47567695316796"><ele>82.0</ele><time>2026-03-31T06:41:39.999Z</time></trkpt><trkpt lat="48.990364256859216" lon="2.4754975852536263"><ele>82.0</ele><time>2026-03-31T06:41:40.999Z</time></trkpt><trkpt lat="48.99016085845623" lon="2.4753179425501988"><ele>82.0</ele><time>2026-03-31T06:41:41.999Z</time></trkpt><trkpt lat="48.98995908951257" lon="2.475138121589937"><ele>82.0</ele><time>2026-03-31T06:41:42.999Z</time></trkpt><trkpt lat="48.989757008903894" lon="2.474958006701223"><ele>82.0</ele><time>2026-03-31T06:41:43.999Z</time></trkpt><trkpt lat="48.98955419435656" lon="2.474779796705837"><ele>81.0</ele><time>2026-03-31T06:41:44.999Z</time></trkpt><trkpt lat="48.98935170682587" lon="2.4746022653702355"><ele>80.0</ele><time>2026-03-31T06:41:45.999Z</time></trkpt><trkpt lat="48.98914855316603" lon="2.4744225277943124"><ele>79.5</ele><time>2026-03-31T06:41:46.999Z</time></trkpt><trkpt lat="48.98894740603654" lon="2.474243090802836"><ele>79.0</ele><time>2026-03-31T06:41:47.999Z</time></trkpt><trkpt lat="48.988747361581105" lon="2.4740624124380584"><ele>79.0</ele><time>2026-03-31T06:41:48.999Z</time></trkpt><trkpt lat="48.98854815136844" lon="2.4738819905257943"><ele>79.0</ele><time>2026-03-31T06:41:49.999Z</time></trkpt><trkpt lat="48.98834924874413" lon="2.473702479179128"><ele>77.0</ele><time>2026-03-31T06:41:50.999Z</time></trkpt><trkpt lat="48.98815071265299" lon="2.4735240188855707"><ele>75.0</ele><time>2026-03-31T06:41:51.999Z</time></trkpt><trkpt lat="48.98794572145252" lon="2.473337249044213"><ele>75.0</ele><time>2026-03-31T06:41:52.999Z</time></trkpt><trkpt lat="48.98773484056391" lon="2.4731523643253905"><ele>75.0</ele><time>2026-03-31T06:41:53.999Z</time></trkpt><trkpt lat="48.98752393423938" lon="2.472964401660705"><ele>73.0</ele><time>2026-03-31T06:41:54.999Z</time></trkpt><trkpt lat="48.98731274597587" lon="2.4727780002120894"><ele>71.0</ele><time>2026-03-31T06:41:55.999Z</time></trkpt><trkpt lat="48.987107065326896" lon="2.472586688138251"><ele>71.0</ele><time>2026-03-31T06:41:56.999Z</time></trkpt><trkpt lat="48.98690311603151" lon="2.4723938356082136"><ele>71.0</ele><time>2026-03-31T06:41:57.999Z</time></trkpt><trkpt lat="48.986702316010266" lon="2.4722045423236136"><ele>70.0</ele><time>2026-03-31T06:41:58.999Z</time></trkpt><trkpt lat="48.986502017289446" lon="2.4720171995987976"><ele>69.0</ele><time>2026-03-31T06:41:59.998Z</time></trkpt><trkpt lat="48.98630192801925" lon="2.4718338212659727"><ele>69.0</ele><time>2026-03-31T06:42:00.998Z</time></trkpt><trkpt lat="48.98610645229145" lon="2.471650910930359"><ele>69.0</ele><time>2026-03-31T06:42:01.998Z</time></trkpt><trkpt lat="48.98591181746509" lon="2.4714633429359743"><ele>70.5</ele><time>2026-03-31T06:42:02.998Z</time></trkpt><trkpt lat="48.98572009404226" lon="2.4712731890111486"><ele>72.0</ele><time>2026-03-31T06:42:03.998Z</time></trkpt><trkpt lat="48.98553035111458" lon="2.471081426682328"><ele>72.0</ele><time>2026-03-31T06:42:04.998Z</time></trkpt><trkpt lat="48.98533985749037" lon="2.4708914600531804"><ele>72.0</ele><time>2026-03-31T06:42:05.998Z</time></trkpt><trkpt lat="48.985147329552326" lon="2.4707032044218615"><ele>72.33333333333333</ele><time>2026-03-31T06:42:06.998Z</time></trkpt><trkpt lat="48.98495583675147" lon="2.470523404708467"><ele>72.66666666666666</ele><time>2026-03-31T06:42:07.998Z</time></trkpt><trkpt lat="48.984764247820266" lon="2.4703455591557497"><ele>73.0</ele><time>2026-03-31T06:42:08.998Z</time></trkpt><trkpt lat="48.98457252698123" lon="2.470168758953419"><ele>73.0</ele><time>2026-03-31T06:42:09.998Z</time></trkpt><trkpt lat="48.984379273399924" lon="2.4699898461075245"><ele>73.0</ele><time>2026-03-31T06:42:10.998Z</time></trkpt><trkpt lat="48.98418569934947" lon="2.4698102811125446"><ele>71.5</ele><time>2026-03-31T06:42:11.998Z</time></trkpt><trkpt lat="48.9839900998571" lon="2.4696296221911096"><ele>70.0</ele><time>2026-03-31T06:42:12.998Z</time></trkpt><trkpt lat="48.98379280973199" lon="2.4694474768505925"><ele>69.5</ele><time>2026-03-31T06:42:13.998Z</time></trkpt><trkpt lat="48.98359531836013" lon="2.4692637960354116"><ele>69.0</ele><time>2026-03-31T06:42:14.998Z</time></trkpt><trkpt lat="48.98339586127907" lon="2.469079279014683"><ele>69.0</ele><time>2026-03-31T06:42:15.998Z</time></trkpt><trkpt lat="48.983195819951234" lon="2.4688961160303307"><ele>69.0</ele><time>2026-03-31T06:42:16.998Z</time></trkpt><trkpt lat="48.982992444972105" lon="2.4687109354673202"><ele>69.0</ele><time>2026-03-31T06:42:17.998Z</time></trkpt><trkpt lat="48.9827919295114" lon="2.468542821688989"><ele>69.0</ele><time>2026-03-31T06:42:18.998Z</time></trkpt><trkpt lat="48.98258857284162" lon="2.4683684601774387"><ele>68.0</ele><time>2026-03-31T06:42:19.998Z</time></trkpt><trkpt lat="48.982384726561435" lon="2.468199218699839"><ele>67.0</ele><time>2026-03-31T06:42:21Z</time></trkpt><trkpt lat="48.98218049212" lon="2.468037337017639"><ele>67.0</ele><time>2026-03-31T06:42:22Z</time></trkpt><trkpt lat="48.981974853609366" lon="2.4678769016646087"><ele>67.0</ele><time>2026-03-31T06:42:23Z</time></trkpt><trkpt lat="48.9817720184366" lon="2.467711539991072"><ele>66.0</ele><time>2026-03-31T06:42:24Z</time></trkpt><trkpt lat="48.98156954528184" lon="2.4675471579252024"><ele>65.0</ele><time>2026-03-31T06:42:25Z</time></trkpt><trkpt lat="48.98136496104751" lon="2.4673808652650795"><ele>65.0</ele><time>2026-03-31T06:42:26Z</time></trkpt><trkpt lat="48.98116041409316" lon="2.4672131560747412"><ele>65.0</ele><time>2026-03-31T06:42:27Z</time></trkpt><trkpt lat="48.98095773691984" lon="2.467040104192184"><ele>66.0</ele><time>2026-03-31T06:42:28Z</time></trkpt><trkpt lat="48.98075569806295" lon="2.4668623616034804"><ele>67.0</ele><time>2026-03-31T06:42:29Z</time></trkpt><trkpt lat="48.98056227042683" lon="2.4666800657236547"><ele>67.0</ele><time>2026-03-31T06:42:30Z</time></trkpt><trkpt lat="48.980368891287526" lon="2.466493919170893"><ele>67.0</ele><time>2026-03-31T06:42:31Z</time></trkpt><trkpt lat="48.980176005153695" lon="2.466306387218448"><ele>67.33333333333333</ele><time>2026-03-31T06:42:32Z</time></trkpt><trkpt lat="48.97998604326968" lon="2.4661192790813558"><ele>67.66666666666667</ele><time>2026-03-31T06:42:33Z</time></trkpt><trkpt lat="48.97979951587635" lon="2.4659358970717906"><ele>68.0</ele><time>2026-03-31T06:42:34Z</time></trkpt><trkpt lat="48.979615698161744" lon="2.465756213060123"><ele>68.0</ele><time>2026-03-31T06:42:35Z</time></trkpt><trkpt lat="48.97943614883631" lon="2.465579016655072"><ele>68.0</ele><time>2026-03-31T06:42:36Z</time></trkpt><trkpt lat="48.97925912017736" lon="2.4654021692616572"><ele>68.0</ele><time>2026-03-31T06:42:37Z</time></trkpt><trkpt lat="48.97908799934116" lon="2.46522752697209"><ele>68.33333333333334</ele><time>2026-03-31T06:42:38Z</time></trkpt><trkpt lat="48.9789189417928" lon="2.4650584705561083"><ele>68.66666666666667</ele><time>2026-03-31T06:42:39Z</time></trkpt><trkpt lat="48.97875040204164" lon="2.4648958575187687"><ele>69.0</ele><time>2026-03-31T06:42:40Z</time></trkpt><trkpt lat="48.97858625998486" lon="2.464741574161058"><ele>69.0</ele><time>2026-03-31T06:42:41Z</time></trkpt><trkpt lat="48.97842465938778" lon="2.4645954590788803"><ele>69.0</ele><time>2026-03-31T06:42:42Z</time></trkpt><trkpt lat="48.97826770756312" lon="2.464458444425559"><ele>69.0</ele><time>2026-03-31T06:42:43Z</time></trkpt><trkpt lat="48.97811463360673" lon="2.464327575070666"><ele>68.0</ele><time>2026-03-31T06:42:44Z</time></trkpt><trkpt lat="48.977968196302236" lon="2.464198558016771"><ele>67.0</ele><time>2026-03-31T06:42:45Z</time></trkpt><trkpt lat="48.97783009248835" lon="2.46407243920551"><ele>66.0</ele><time>2026-03-31T06:42:46Z</time></trkpt><trkpt lat="48.9777003655656" lon="2.4639549282545996"><ele>66.0</ele><time>2026-03-31T06:42:47Z</time></trkpt><trkpt lat="48.97758380541363" lon="2.463850525533841"><ele>66.0</ele><time>2026-03-31T06:42:48Z</time></trkpt><trkpt lat="48.97747587410858" lon="2.4637560547733433"><ele>66.0</ele><time>2026-03-31T06:42:49Z</time></trkpt><trkpt lat="48.97737469791722" lon="2.4636623396356905"><ele>66.0</ele><time>2026-03-31T06:42:50Z</time></trkpt><trkpt lat="48.97728083472818" lon="2.463558417383933"><ele>66.2</ele><time>2026-03-31T06:42:51Z</time></trkpt><trkpt lat="48.97720323373266" lon="2.4634509101513564"><ele>66.39999999999999</ele><time>2026-03-31T06:42:52Z</time></trkpt><trkpt lat="48.97713024720633" lon="2.4633271903099403"><ele>66.6</ele><time>2026-03-31T06:42:53Z</time></trkpt><trkpt lat="48.977067459096524" lon="2.4631908856712075"><ele>66.8</ele><time>2026-03-31T06:42:54Z</time></trkpt><trkpt lat="48.977015701264904" lon="2.4630455623897642"><ele>67.0</ele><time>2026-03-31T06:42:55Z</time></trkpt><trkpt lat="48.97696744367856" lon="2.462899263030435"><ele>67.2</ele><time>2026-03-31T06:42:56Z</time></trkpt><trkpt lat="48.97691725135296" lon="2.4627588419470334"><ele>67.4</ele><time>2026-03-31T06:42:57Z</time></trkpt><trkpt lat="48.97686676818647" lon="2.4626170542709223"><ele>67.6</ele><time>2026-03-31T06:42:58Z</time></trkpt><trkpt lat="48.97682371970287" lon="2.462468943856585"><ele>67.8</ele><time>2026-03-31T06:42:59Z</time></trkpt><trkpt lat="48.97679443197686" lon="2.4623144711434266"><ele>68.0</ele><time>2026-03-31T06:43:00Z</time></trkpt><trkpt lat="48.97678380120878" lon="2.4621656685841318"><ele>67.4</ele><time>2026-03-31T06:43:01Z</time></trkpt><trkpt lat="48.976794172587255" lon="2.4620210337609345"><ele>66.8</ele><time>2026-03-31T06:43:02Z</time></trkpt><trkpt lat="48.976821796684014" lon="2.461896653312394"><ele>66.2</ele><time>2026-03-31T06:43:03Z</time></trkpt><trkpt lat="48.97686894273288" lon="2.4617853486034766"><ele>65.6</ele><time>2026-03-31T06:43:04Z</time></trkpt><trkpt lat="48.97693698531131" lon="2.4616944511308367"><ele>65.0</ele><time>2026-03-31T06:43:05Z</time></trkpt><trkpt lat="48.97701911845149" lon="2.4616272959456595"><ele>65.0</ele><time>2026-03-31T06:43:06Z</time></trkpt><trkpt lat="48.97711136270285" lon="2.4615874622295"><ele>65.0</ele><time>2026-03-31T06:43:07Z</time></trkpt><trkpt lat="48.97720694998874" lon="2.4615772912678207"><ele>65.0</ele><time>2026-03-31T06:43:07.999Z</time></trkpt><trkpt lat="48.97730878279765" lon="2.461620857039409"><ele>65.0</ele><time>2026-03-31T06:43:08.999Z</time></trkpt><trkpt lat="48.977390052876004" lon="2.4617086976638953"><ele>65.0</ele><time>2026-03-31T06:43:09.999Z</time></trkpt><trkpt lat="48.97745884559133" lon="2.4618141716630766"><ele>65.0</ele><time>2026-03-31T06:43:10.999Z</time></trkpt><trkpt lat="48.97750418786923" lon="2.4619445532769983"><ele>65.0</ele><time>2026-03-31T06:43:11.999Z</time></trkpt><trkpt lat="48.97752650178513" lon="2.462094846318284"><ele>65.0</ele><time>2026-03-31T06:43:12.999Z</time></trkpt><trkpt lat="48.97752807934043" lon="2.462250816719784"><ele>65.0</ele><time>2026-03-31T06:43:13.999Z</time></trkpt><trkpt lat="48.97752713717005" lon="2.4624077870873404"><ele>65.0</ele><time>2026-03-31T06:43:14.999Z</time></trkpt><trkpt lat="48.97752264290694" lon="2.462577378958957"><ele>65.5</ele><time>2026-03-31T06:43:15.999Z</time></trkpt><trkpt lat="48.97751495134626" lon="2.4627708642906936"><ele>66.0</ele><time>2026-03-31T06:43:16.999Z</time></trkpt><trkpt lat="48.977507779595626" lon="2.462996774177451"><ele>66.5</ele><time>2026-03-31T06:43:17.999Z</time></trkpt><trkpt lat="48.977498441250205" lon="2.463236090385903"><ele>67.0</ele><time>2026-03-31T06:43:18.999Z</time></trkpt><trkpt lat="48.97749368086452" lon="2.463478153591905"><ele>67.0</ele><time>2026-03-31T06:43:19.999Z</time></trkpt><trkpt lat="48.9774885231189" lon="2.463691697245421"><ele>67.0</ele><time>2026-03-31T06:43:20.999Z</time></trkpt><trkpt lat="48.97748059325168" lon="2.4638774027820234"><ele>67.0</ele><time>2026-03-31T06:43:21.999Z</time></trkpt><trkpt lat="48.977478945398225" lon="2.46404539341195"><ele>67.0</ele><time>2026-03-31T06:43:22.999Z</time></trkpt><trkpt lat="48.97748589069918" lon="2.4641993123775374"><ele>66.75</ele><time>2026-03-31T06:43:23.999Z</time></trkpt><trkpt lat="48.977471632653355" lon="2.4643694708106483"><ele>66.5</ele><time>2026-03-31T06:43:24.999Z</time></trkpt><trkpt lat="48.97745852419767" lon="2.4645506963944475"><ele>66.25</ele><time>2026-03-31T06:43:25.999Z</time></trkpt><trkpt lat="48.977452653037304" lon="2.4647700428314296"><ele>66.0</ele><time>2026-03-31T06:43:26.999Z</time></trkpt><trkpt lat="48.9774471497857" lon="2.464969786992049"><ele>65.5</ele><time>2026-03-31T06:43:27.999Z</time></trkpt><trkpt lat="48.97744042712584" lon="2.465171917962685"><ele>65.0</ele><time>2026-03-31T06:43:28.999Z</time></trkpt><trkpt lat="48.9774317007991" lon="2.465371496321005"><ele>64.5</ele><time>2026-03-31T06:43:29.999Z</time></trkpt><trkpt lat="48.97742351725942" lon="2.4655571980061115"><ele>64.0</ele><time>2026-03-31T06:43:30.999Z</time></trkpt><trkpt lat="48.977417496666476" lon="2.465736088117361"><ele>64.0</ele><time>2026-03-31T06:43:31.999Z</time></trkpt><trkpt lat="48.97741460521141" lon="2.465905682348269"><ele>64.0</ele><time>2026-03-31T06:43:32.999Z</time></trkpt><trkpt lat="48.97742002021447" lon="2.466116158264103"><ele>64.0</ele><time>2026-03-31T06:43:33.999Z</time></trkpt><trkpt lat="48.9774227235879" lon="2.4662979733450467"><ele>64.0</ele><time>2026-03-31T06:43:34.999Z</time></trkpt><trkpt lat="48.97742639195428" lon="2.466470266563055"><ele>64.25</ele><time>2026-03-31T06:43:35.999Z</time></trkpt><trkpt lat="48.97742999624609" lon="2.466632535459023"><ele>64.5</ele><time>2026-03-31T06:43:36.999Z</time></trkpt><trkpt lat="48.97742799459588" lon="2.4668146243591895"><ele>64.75</ele><time>2026-03-31T06:43:37.999Z</time></trkpt><trkpt lat="48.97742160668944" lon="2.4669956705201543"><ele>65.0</ele><time>2026-03-31T06:43:38.999Z</time></trkpt><trkpt lat="48.97741671187222" lon="2.4671619779927454"><ele>65.0</ele><time>2026-03-31T06:43:39.999Z</time></trkpt><trkpt lat="48.977413740558084" lon="2.467322216975341"><ele>65.0</ele><time>2026-03-31T06:43:40.999Z</time></trkpt><trkpt lat="48.97741175705968" lon="2.4674656187993187"><ele>65.0</ele><time>2026-03-31T06:43:41.999Z</time></trkpt><trkpt lat="48.9774124374537" lon="2.467623166691899"><ele>65.0</ele><time>2026-03-31T06:43:42.999Z</time></trkpt><trkpt lat="48.97741126376137" lon="2.4677626720849792"><ele>65.0</ele><time>2026-03-31T06:43:43.999Z</time></trkpt><trkpt lat="48.977418551861184" lon="2.4678977314757296"><ele>65.6</ele><time>2026-03-31T06:43:45.999Z</time></trkpt><trkpt lat="48.977438847474886" lon="2.4680440104745336"><ele>66.2</ele><time>2026-03-31T06:43:47.999Z</time></trkpt><trkpt lat="48.97742741506277" lon="2.4681916747178043"><ele>66.8</ele><time>2026-03-31T06:43:48.999Z</time></trkpt><trkpt lat="48.977415067939546" lon="2.4683685848469215"><ele>67.4</ele><time>2026-03-31T06:43:49.999Z</time></trkpt><trkpt lat="48.977407076342" lon="2.4685574058614907"><ele>68.0</ele><time>2026-03-31T06:43:50.999Z</time></trkpt><trkpt lat="48.977394655046304" lon="2.468801149911972"><ele>68.66666666666667</ele><time>2026-03-31T06:43:51.999Z</time></trkpt><trkpt lat="48.97737958896748" lon="2.469061202449635"><ele>69.33333333333333</ele><time>2026-03-31T06:43:52.999Z</time></trkpt><trkpt lat="48.97736785486434" lon="2.4693055975151585"><ele>70.0</ele><time>2026-03-31T06:43:53.999Z</time></trkpt><trkpt lat="48.97735801732451" lon="2.4695479840866215"><ele>69.66666666666666</ele><time>2026-03-31T06:43:54.999Z</time></trkpt><trkpt lat="48.97734055698315" lon="2.469795526676568"><ele>69.33333333333333</ele><time>2026-03-31T06:43:55.999Z</time></trkpt><trkpt lat="48.97732999037177" lon="2.4700516278959506"><ele>69.0</ele><time>2026-03-31T06:43:56.999Z</time></trkpt><trkpt lat="48.977318445602066" lon="2.4702851786345317"><ele>68.75</ele><time>2026-03-31T06:43:57.999Z</time></trkpt><trkpt lat="48.97730213735028" lon="2.470510211251104"><ele>68.5</ele><time>2026-03-31T06:43:58.999Z</time></trkpt><trkpt lat="48.977287694139136" lon="2.4707417638108824"><ele>68.25</ele><time>2026-03-31T06:43:59.999Z</time></trkpt><trkpt lat="48.977275680062355" lon="2.4709650929545943"><ele>68.0</ele><time>2026-03-31T06:44:00.999Z</time></trkpt><trkpt lat="48.97726676659696" lon="2.4711844172422506"><ele>68.0</ele><time>2026-03-31T06:44:01.999Z</time></trkpt><trkpt lat="48.97725531693259" lon="2.471409859655645"><ele>68.0</ele><time>2026-03-31T06:44:02.999Z</time></trkpt><trkpt lat="48.97724330416957" lon="2.471642455539901"><ele>68.0</ele><time>2026-03-31T06:44:03.998Z</time></trkpt><trkpt lat="48.97723158697801" lon="2.4718837475429787"><ele>68.0</ele><time>2026-03-31T06:44:04.998Z</time></trkpt><trkpt lat="48.9772102442275" lon="2.4721275382046337"><ele>68.0</ele><time>2026-03-31T06:44:05.998Z</time></trkpt><trkpt lat="48.97719151453177" lon="2.472364127062419"><ele>68.0</ele><time>2026-03-31T06:44:06.998Z</time></trkpt><trkpt lat="48.97717921350748" lon="2.4726059709140995"><ele>68.0</ele><time>2026-03-31T06:44:07.998Z</time></trkpt><trkpt lat="48.97716724989875" lon="2.4728239285798335"><ele>68.0</ele><time>2026-03-31T06:44:08.998Z</time></trkpt><trkpt lat="48.977152025129556" lon="2.473038944520664"><ele>68.0</ele><time>2026-03-31T06:44:09.998Z</time></trkpt><trkpt lat="48.97714098598998" lon="2.473249362165995"><ele>68.0</ele><time>2026-03-31T06:44:10.998Z</time></trkpt><trkpt lat="48.977128240978956" lon="2.4734429592055687"><ele>68.2</ele><time>2026-03-31T06:44:11.998Z</time></trkpt><trkpt lat="48.97711799707091" lon="2.4736097218654614"><ele>68.4</ele><time>2026-03-31T06:44:12.998Z</time></trkpt><trkpt lat="48.97710521510682" lon="2.4737671524593905"><ele>68.60000000000001</ele><time>2026-03-31T06:44:13.998Z</time></trkpt><trkpt lat="48.97709792104235" lon="2.47391712796492"><ele>68.8</ele><time>2026-03-31T06:44:14.998Z</time></trkpt><trkpt lat="48.97709732860652" lon="2.474074704505514"><ele>69.0</ele><time>2026-03-31T06:44:15.998Z</time></trkpt><trkpt lat="48.97709579195773" lon="2.4742340348227727"><ele>69.25</ele><time>2026-03-31T06:44:16.998Z</time></trkpt><trkpt lat="48.977083301259356" lon="2.4743913859039286"><ele>69.5</ele><time>2026-03-31T06:44:17.998Z</time></trkpt><trkpt lat="48.97705749527711" lon="2.4745859457407633"><ele>69.75</ele><time>2026-03-31T06:44:18.998Z</time></trkpt><trkpt lat="48.97704182892982" lon="2.474789897664414"><ele>70.0</ele><time>2026-03-31T06:44:19.998Z</time></trkpt><trkpt lat="48.977029421971565" lon="2.474982847330769"><ele>70.5</ele><time>2026-03-31T06:44:20.998Z</time></trkpt><trkpt lat="48.977020594694224" lon="2.4751792191052866"><ele>71.0</ele><time>2026-03-31T06:44:21.998Z</time></trkpt><trkpt lat="48.977008196749814" lon="2.475377050018007"><ele>71.5</ele><time>2026-03-31T06:44:22.998Z</time></trkpt><trkpt lat="48.976999638296604" lon="2.475582934125189"><ele>72.0</ele><time>2026-03-31T06:44:23.998Z</time></trkpt><trkpt lat="48.97698588010602" lon="2.4757892122602994"><ele>72.0</ele><time>2026-03-31T06:44:24.998Z</time></trkpt><trkpt lat="48.97696605803643" lon="2.475993982197485"><ele>72.0</ele><time>2026-03-31T06:44:25.998Z</time></trkpt><trkpt lat="48.97695040105056" lon="2.476205285438237"><ele>72.0</ele><time>2026-03-31T06:44:27Z</time></trkpt><trkpt lat="48.97693490531493" lon="2.4764134604662877"><ele>72.0</ele><time>2026-03-31T06:44:28Z</time></trkpt><trkpt lat="48.97691812069637" lon="2.4766191535569275"><ele>72.0</ele><time>2026-03-31T06:44:29Z</time></trkpt><trkpt lat="48.97689922521898" lon="2.4768221380999877"><ele>72.0</ele><time>2026-03-31T06:44:30Z</time></trkpt><trkpt lat="48.9768773662893" lon="2.47702040250131"><ele>72.0</ele><time>2026-03-31T06:44:31Z</time></trkpt><trkpt lat="48.97685597391413" lon="2.4772186599706423"><ele>72.0</ele><time>2026-03-31T06:44:32Z</time></trkpt><trkpt lat="48.97683536337584" lon="2.4774153840548365"><ele>72.25</ele><time>2026-03-31T06:44:33Z</time></trkpt><trkpt lat="48.97681120111875" lon="2.4776054116191255"><ele>72.5</ele><time>2026-03-31T06:44:34Z</time></trkpt><trkpt lat="48.976785098189346" lon="2.4777928148362953"><ele>72.75</ele><time>2026-03-31T06:44:35Z</time></trkpt><trkpt lat="48.976761466830986" lon="2.477961124144332"><ele>73.0</ele><time>2026-03-31T06:44:36Z</time></trkpt><trkpt lat="48.97674147416739" lon="2.4781136034576585"><ele>73.2</ele><time>2026-03-31T06:44:37Z</time></trkpt><trkpt lat="48.97671703519305" lon="2.4782567952475976"><ele>73.4</ele><time>2026-03-31T06:44:38Z</time></trkpt><trkpt lat="48.976693010095666" lon="2.4783968965722436"><ele>73.60000000000001</ele><time>2026-03-31T06:44:39Z</time></trkpt><trkpt lat="48.97666809439035" lon="2.478552679148856"><ele>73.8</ele><time>2026-03-31T06:44:40Z</time></trkpt><trkpt lat="48.976642267885104" lon="2.478737907222078"><ele>74.0</ele><time>2026-03-31T06:44:41Z</time></trkpt><trkpt lat="48.976609363097204" lon="2.4789293289275927"><ele>73.25</ele><time>2026-03-31T06:44:42Z</time></trkpt><trkpt lat="48.9765696378515" lon="2.479123960667771"><ele>72.5</ele><time>2026-03-31T06:44:43Z</time></trkpt><trkpt lat="48.976535912732395" lon="2.4793146496095755"><ele>71.75</ele><time>2026-03-31T06:44:44Z</time></trkpt><trkpt lat="48.97650148839395" lon="2.4794994009729727"><ele>71.0</ele><time>2026-03-31T06:44:45Z</time></trkpt><trkpt lat="48.97646570958993" lon="2.4796786131450803"><ele>71.0</ele><time>2026-03-31T06:44:46Z</time></trkpt><trkpt lat="48.976434100611016" lon="2.479837737446859"><ele>71.0</ele><time>2026-03-31T06:44:47Z</time></trkpt><trkpt lat="48.976403265401" lon="2.479999758062228"><ele>71.0</ele><time>2026-03-31T06:44:48Z</time></trkpt><trkpt lat="48.976360607787385" lon="2.4801946546292846"><ele>71.0</ele><time>2026-03-31T06:44:49Z</time></trkpt><trkpt lat="48.97631072546337" lon="2.48040535840912"><ele>71.0</ele><time>2026-03-31T06:44:50Z</time></trkpt><trkpt lat="48.976258798325816" lon="2.4806262982606695"><ele>71.0</ele><time>2026-03-31T06:44:51Z</time></trkpt><trkpt lat="48.97620815922487" lon="2.4808363791698738"><ele>71.0</ele><time>2026-03-31T06:44:52Z</time></trkpt><trkpt lat="48.97615714212435" lon="2.4810341736886374"><ele>71.0</ele><time>2026-03-31T06:44:53Z</time></trkpt><trkpt lat="48.97610512222741" lon="2.481235872032439"><ele>71.25</ele><time>2026-03-31T06:44:54Z</time></trkpt><trkpt lat="48.9760553556369" lon="2.4814308274653123"><ele>71.5</ele><time>2026-03-31T06:44:55Z</time></trkpt><trkpt lat="48.9760047925289" lon="2.481609072763456"><ele>71.75</ele><time>2026-03-31T06:44:56Z</time></trkpt><trkpt lat="48.975960708296064" lon="2.4817645073145354"><ele>72.0</ele><time>2026-03-31T06:44:57Z</time></trkpt><trkpt lat="48.975916044795994" lon="2.4819146644079355"><ele>72.0</ele><time>2026-03-31T06:44:58Z</time></trkpt><trkpt lat="48.97586594029556" lon="2.482076106235084"><ele>72.0</ele><time>2026-03-31T06:44:59Z</time></trkpt><trkpt lat="48.97582347392664" lon="2.482248628119832"><ele>72.0</ele><time>2026-03-31T06:45:00Z</time></trkpt><trkpt lat="48.975772895157135" lon="2.482400814769458"><ele>72.0</ele><time>2026-03-31T06:45:01Z</time></trkpt><trkpt lat="48.97572726469596" lon="2.482545201026157"><ele>71.75</ele><time>2026-03-31T06:45:02Z</time></trkpt><trkpt lat="48.97567154170146" lon="2.482695591390768"><ele>71.5</ele><time>2026-03-31T06:45:03Z</time></trkpt><trkpt lat="48.975609186242174" lon="2.4828618488853667"><ele>71.25</ele><time>2026-03-31T06:45:04Z</time></trkpt><trkpt lat="48.975541894338704" lon="2.483041031643431"><ele>71.0</ele><time>2026-03-31T06:45:05Z</time></trkpt><trkpt lat="48.975469098848365" lon="2.4832224524753026"><ele>71.0</ele><time>2026-03-31T06:45:06Z</time></trkpt><trkpt lat="48.97538301511833" lon="2.483406842742313"><ele>71.0</ele><time>2026-03-31T06:45:07Z</time></trkpt><trkpt lat="48.97528927602241" lon="2.4835887381750226"><ele>71.0</ele><time>2026-03-31T06:45:08Z</time></trkpt><trkpt lat="48.97518612083789" lon="2.4837651631658026"><ele>71.0</ele><time>2026-03-31T06:45:09Z</time></trkpt><trkpt lat="48.975079672842334" lon="2.483937915484268"><ele>71.0</ele><time>2026-03-31T06:45:10Z</time></trkpt><trkpt lat="48.97497211834344" lon="2.4841058088316847"><ele>71.0</ele><time>2026-03-31T06:45:10.999Z</time></trkpt><trkpt lat="48.97486800560533" lon="2.484257706501502"><ele>71.0</ele><time>2026-03-31T06:45:11.999Z</time></trkpt><trkpt lat="48.97475915370467" lon="2.484400609749181"><ele>71.0</ele><time>2026-03-31T06:45:12.999Z</time></trkpt><trkpt lat="48.97465217068447" lon="2.484540606533474"><ele>71.0</ele><time>2026-03-31T06:45:13.999Z</time></trkpt><trkpt lat="48.974542184585154" lon="2.4846858558177995"><ele>71.0</ele><time>2026-03-31T06:45:14.999Z</time></trkpt><trkpt lat="48.97443482487759" lon="2.484823424530336"><ele>71.0</ele><time>2026-03-31T06:45:15.999Z</time></trkpt><trkpt lat="48.97432491417184" lon="2.484946801390223"><ele>71.0</ele><time>2026-03-31T06:45:16.999Z</time></trkpt><trkpt lat="48.974206654703615" lon="2.485055693925253"><ele>71.0</ele><time>2026-03-31T06:45:17.999Z</time></trkpt><trkpt lat="48.97407700994363" lon="2.4851480821601277"><ele>71.0</ele><time>2026-03-31T06:45:18.999Z</time></trkpt><trkpt lat="48.97393752837775" lon="2.4852135810593854"><ele>71.0</ele><time>2026-03-31T06:45:19.999Z</time></trkpt><trkpt lat="48.97379143821295" lon="2.4852638144414003"><ele>71.0</ele><time>2026-03-31T06:45:20.999Z</time></trkpt><trkpt lat="48.97364147746147" lon="2.485286939537202"><ele>71.0</ele><time>2026-03-31T06:45:21.999Z</time></trkpt><trkpt lat="48.97348990622785" lon="2.485287610814383"><ele>71.33333333333334</ele><time>2026-03-31T06:45:22.999Z</time></trkpt><trkpt lat="48.973329338298235" lon="2.4852631160957173"><ele>71.66666666666667</ele><time>2026-03-31T06:45:23.999Z</time></trkpt><trkpt lat="48.973162215528305" lon="2.485219870777881"><ele>72.0</ele><time>2026-03-31T06:45:24.999Z</time></trkpt><trkpt lat="48.97299632017999" lon="2.485137173820375"><ele>72.0</ele><time>2026-03-31T06:45:25.999Z</time></trkpt><trkpt lat="48.97283141020417" lon="2.4850369513401973"><ele>72.0</ele><time>2026-03-31T06:45:26.999Z</time></trkpt><trkpt lat="48.97266424063411" lon="2.4849229019699903"><ele>72.0</ele><time>2026-03-31T06:45:27.999Z</time></trkpt><trkpt lat="48.97249320939596" lon="2.4848053293337897"><ele>71.0</ele><time>2026-03-31T06:45:28.999Z</time></trkpt><trkpt lat="48.972316956809536" lon="2.4846762482732974"><ele>70.0</ele><time>2026-03-31T06:45:29.999Z</time></trkpt><trkpt lat="48.97214926595692" lon="2.4845320332873024"><ele>69.0</ele><time>2026-03-31T06:45:30.999Z</time></trkpt><trkpt lat="48.97198149006768" lon="2.48437095684093"><ele>69.0</ele><time>2026-03-31T06:45:31.999Z</time></trkpt><trkpt lat="48.971825903729155" lon="2.484185610210834"><ele>69.0</ele><time>2026-03-31T06:45:32.999Z</time></trkpt><trkpt lat="48.97167708786387" lon="2.483987881940493"><ele>69.0</ele><time>2026-03-31T06:45:33.999Z</time></trkpt><trkpt lat="48.97153473830552" lon="2.483778401899526"><ele>68.0</ele><time>2026-03-31T06:45:34.999Z</time></trkpt><trkpt lat="48.971395085044634" lon="2.483562681128517"><ele>67.0</ele><time>2026-03-31T06:45:35.999Z</time></trkpt><trkpt lat="48.97125380796447" lon="2.4833430012268325"><ele>66.0</ele><time>2026-03-31T06:45:36.999Z</time></trkpt><trkpt lat="48.97111061514635" lon="2.483123921869506"><ele>66.0</ele><time>2026-03-31T06:45:37.999Z</time></trkpt><trkpt lat="48.97096156513253" lon="2.4829028646327544"><ele>66.0</ele><time>2026-03-31T06:45:38.999Z</time></trkpt><trkpt lat="48.970813907922185" lon="2.4826829045938696"><ele>66.0</ele><time>2026-03-31T06:45:39.999Z</time></trkpt><trkpt lat="48.97066238535411" lon="2.482459558096503"><ele>65.33333333333333</ele><time>2026-03-31T06:45:40.999Z</time></trkpt><trkpt lat="48.97051212748097" lon="2.4822328829826144"><ele>64.66666666666666</ele><time>2026-03-31T06:45:41.999Z</time></trkpt><trkpt lat="48.97035874661169" lon="2.482004242632929"><ele>64.0</ele><time>2026-03-31T06:45:42.999Z</time></trkpt><trkpt lat="48.970206810877976" lon="2.48177385326933"><ele>64.0</ele><time>2026-03-31T06:45:43.999Z</time></trkpt><trkpt lat="48.97005050853128" lon="2.481538361874737"><ele>64.0</ele><time>2026-03-31T06:45:44.999Z</time></trkpt><trkpt lat="48.9698940883407" lon="2.4812974087679054"><ele>64.0</ele><time>2026-03-31T06:45:45.999Z</time></trkpt><trkpt lat="48.969733850826245" lon="2.4810514601842693"><ele>64.0</ele><time>2026-03-31T06:45:46.999Z</time></trkpt><trkpt lat="48.969576126606796" lon="2.480797503546479"><ele>64.0</ele><time>2026-03-31T06:45:47.999Z</time></trkpt><trkpt lat="48.969421158198664" lon="2.480531804293443"><ele>63.5</ele><time>2026-03-31T06:45:48.999Z</time></trkpt><trkpt lat="48.969271602895056" lon="2.4802610749504415"><ele>63.0</ele><time>2026-03-31T06:45:49.999Z</time></trkpt><trkpt lat="48.969123855843144" lon="2.479980855023163"><ele>63.0</ele><time>2026-03-31T06:45:50.999Z</time></trkpt><trkpt lat="48.96897864945136" lon="2.4796967580099896"><ele>63.0</ele><time>2026-03-31T06:45:51.999Z</time></trkpt><trkpt lat="48.96883677447162" lon="2.4794066544791797"><ele>62.0</ele><time>2026-03-31T06:45:52.999Z</time></trkpt><trkpt lat="48.96869667642293" lon="2.4791141299224138"><ele>61.0</ele><time>2026-03-31T06:45:53.999Z</time></trkpt><trkpt lat="48.96855844300432" lon="2.4788159290084786"><ele>61.0</ele><time>2026-03-31T06:45:54.999Z</time></trkpt><trkpt lat="48.9684229319562" lon="2.4785155220006163"><ele>61.0</ele><time>2026-03-31T06:45:55.999Z</time></trkpt><trkpt lat="48.96827651975145" lon="2.478230321423424"><ele>61.0</ele><time>2026-03-31T06:45:56.999Z</time></trkpt><trkpt lat="48.96816061143958" lon="2.4779116240158587"><ele>61.0</ele><time>2026-03-31T06:45:57.999Z</time></trkpt><trkpt lat="48.96802232983566" lon="2.477605317794873"><ele>61.0</ele><time>2026-03-31T06:45:58.999Z</time></trkpt><trkpt lat="48.967883117523165" lon="2.477302074171674"><ele>61.0</ele><time>2026-03-31T06:45:59.999Z</time></trkpt><trkpt lat="48.96773908677562" lon="2.4770103936135373"><ele>61.0</ele><time>2026-03-31T06:46:00.999Z</time></trkpt><trkpt lat="48.96758630911418" lon="2.4767230417552986"><ele>61.0</ele><time>2026-03-31T06:46:01.999Z</time></trkpt><trkpt lat="48.9674292000102" lon="2.476449140967973"><ele>60.0</ele><time>2026-03-31T06:46:02.999Z</time></trkpt><trkpt lat="48.96726373120207" lon="2.4761884060636405"><ele>59.0</ele><time>2026-03-31T06:46:03.999Z</time></trkpt><trkpt lat="48.96709571129934" lon="2.475942814501186"><ele>59.0</ele><time>2026-03-31T06:46:04.999Z</time></trkpt><trkpt lat="48.96692336183903" lon="2.4757017595835817"><ele>59.0</ele><time>2026-03-31T06:46:05.999Z</time></trkpt><trkpt lat="48.96674540506992" lon="2.4754759742896018"><ele>60.5</ele><time>2026-03-31T06:46:06.999Z</time></trkpt><trkpt lat="48.966564651754354" lon="2.4752588586974893"><ele>62.0</ele><time>2026-03-31T06:46:07.998Z</time></trkpt><trkpt lat="48.96638137842299" lon="2.4750497528189768"><ele>62.0</ele><time>2026-03-31T06:46:08.998Z</time></trkpt><trkpt lat="48.96619216704436" lon="2.4748500761140457"><ele>62.0</ele><time>2026-03-31T06:46:09.998Z</time></trkpt><trkpt lat="48.96599949654054" lon="2.4746544032373112"><ele>61.0</ele><time>2026-03-31T06:46:10.998Z</time></trkpt><trkpt lat="48.96580297919535" lon="2.4744616342983514"><ele>60.0</ele><time>2026-03-31T06:46:11.998Z</time></trkpt><trkpt lat="48.96560682969093" lon="2.4742710400558474"><ele>60.0</ele><time>2026-03-31T06:46:12.998Z</time></trkpt><trkpt lat="48.96540910417332" lon="2.4740834887923486"><ele>60.0</ele><time>2026-03-31T06:46:13.998Z</time></trkpt><trkpt lat="48.96520654504201" lon="2.4738966594847867"><ele>59.0</ele><time>2026-03-31T06:46:14.998Z</time></trkpt><trkpt lat="48.965005046740124" lon="2.4737027163670353"><ele>58.0</ele><time>2026-03-31T06:46:15.998Z</time></trkpt><trkpt lat="48.9648033364353" lon="2.4735075189556657"><ele>58.0</ele><time>2026-03-31T06:46:16.998Z</time></trkpt><trkpt lat="48.96460065415881" lon="2.4733117929634556"><ele>58.0</ele><time>2026-03-31T06:46:17.998Z</time></trkpt><trkpt lat="48.964403167159524" lon="2.473111721580465"><ele>58.5</ele><time>2026-03-31T06:46:18.998Z</time></trkpt><trkpt lat="48.96420994427187" lon="2.472903732676929"><ele>59.0</ele><time>2026-03-31T06:46:19.998Z</time></trkpt><trkpt lat="48.96402419977644" lon="2.4726797402073335"><ele>57.5</ele><time>2026-03-31T06:46:20.998Z</time></trkpt><trkpt lat="48.96385043552104" lon="2.472434343182809"><ele>56.0</ele><time>2026-03-31T06:46:21.998Z</time></trkpt><trkpt lat="48.9636801886599" lon="2.4721790538605024"><ele>57.0</ele><time>2026-03-31T06:46:22.998Z</time></trkpt><trkpt lat="48.96351357105747" lon="2.471916611956575"><ele>58.0</ele><time>2026-03-31T06:46:23.998Z</time></trkpt><trkpt lat="48.963347448932076" lon="2.4716557622675546"><ele>58.5</ele><time>2026-03-31T06:46:24.998Z</time></trkpt><trkpt lat="48.963178892454124" lon="2.471397455117679"><ele>59.0</ele><time>2026-03-31T06:46:25.998Z</time></trkpt><trkpt lat="48.96302418578607" lon="2.471160722811167"><ele>60.0</ele><time>2026-03-31T06:46:26.998Z</time></trkpt><trkpt lat="48.96285976358251" lon="2.4709148668598524"><ele>61.0</ele><time>2026-03-31T06:46:27.998Z</time></trkpt><trkpt lat="48.962697655439285" lon="2.4706813824726335"><ele>61.0</ele><time>2026-03-31T06:46:28.998Z</time></trkpt><trkpt lat="48.9625516191243" lon="2.4704616759747022"><ele>61.0</ele><time>2026-03-31T06:46:29.998Z</time></trkpt><trkpt lat="48.9624069192692" lon="2.4702408813806818"><ele>61.0</ele><time>2026-03-31T06:46:30.998Z</time></trkpt><trkpt lat="48.96226080914103" lon="2.470015532567102"><ele>61.0</ele><time>2026-03-31T06:46:31.998Z</time></trkpt><trkpt lat="48.962108857823544" lon="2.4697882851687663"><ele>61.0</ele><time>2026-03-31T06:46:33Z</time></trkpt><trkpt lat="48.96195928163549" lon="2.469561099000106"><ele>61.0</ele><time>2026-03-31T06:46:34Z</time></trkpt><trkpt lat="48.961814001553115" lon="2.4693404918843016"><ele>60.666666666666664</ele><time>2026-03-31T06:46:35Z</time></trkpt><trkpt lat="48.96167277500956" lon="2.4691161506915"><ele>60.33333333333333</ele><time>2026-03-31T06:46:36Z</time></trkpt><trkpt lat="48.96152829939885" lon="2.4688906741032284"><ele>60.0</ele><time>2026-03-31T06:46:37Z</time></trkpt><trkpt lat="48.961393428343605" lon="2.468675999334528"><ele>60.0</ele><time>2026-03-31T06:46:38Z</time></trkpt><trkpt lat="48.961244492033195" lon="2.468445969144537"><ele>60.0</ele><time>2026-03-31T06:46:39Z</time></trkpt><trkpt lat="48.96109971590562" lon="2.468220226667856"><ele>60.0</ele><time>2026-03-31T06:46:40Z</time></trkpt><trkpt lat="48.96095402803214" lon="2.46798717329526"><ele>58.0</ele><time>2026-03-31T06:46:41Z</time></trkpt><trkpt lat="48.96081390649382" lon="2.4677710206229557"><ele>56.0</ele><time>2026-03-31T06:46:42Z</time></trkpt><trkpt lat="48.96067613543374" lon="2.4675401567702675"><ele>54.0</ele><time>2026-03-31T06:46:43Z</time></trkpt><trkpt lat="48.96053714653204" lon="2.467308386944348"><ele>53.33333333333333</ele><time>2026-03-31T06:46:44Z</time></trkpt><trkpt lat="48.96040157809162" lon="2.4670815528467807"><ele>52.666666666666664</ele><time>2026-03-31T06:46:45Z</time></trkpt><trkpt lat="48.96027267752547" lon="2.4668604762421595"><ele>52.0</ele><time>2026-03-31T06:46:46Z</time></trkpt><trkpt lat="48.960149520046684" lon="2.4666432280192625"><ele>51.0</ele><time>2026-03-31T06:46:47Z</time></trkpt><trkpt lat="48.9600296365321" lon="2.466430534430947"><ele>50.0</ele><time>2026-03-31T06:46:48Z</time></trkpt><trkpt lat="48.95991081587316" lon="2.4662142486701004"><ele>49.0</ele><time>2026-03-31T06:46:49Z</time></trkpt><trkpt lat="48.95979209846153" lon="2.466004362103927"><ele>48.666666666666664</ele><time>2026-03-31T06:46:50Z</time></trkpt><trkpt lat="48.959669054444184" lon="2.4657869349397834"><ele>48.33333333333333</ele><time>2026-03-31T06:46:51Z</time></trkpt><trkpt lat="48.959542740194124" lon="2.465564195545741"><ele>48.0</ele><time>2026-03-31T06:46:52Z</time></trkpt><trkpt lat="48.95941086091277" lon="2.46534488745712"><ele>47.666666666666664</ele><time>2026-03-31T06:46:53Z</time></trkpt><trkpt lat="48.95927577705293" lon="2.46511904991402"><ele>47.33333333333333</ele><time>2026-03-31T06:46:54Z</time></trkpt><trkpt lat="48.95914247054867" lon="2.464885672401026"><ele>47.0</ele><time>2026-03-31T06:46:55Z</time></trkpt><trkpt lat="48.959011482912196" lon="2.4646451029429013"><ele>46.666666666666664</ele><time>2026-03-31T06:46:56Z</time></trkpt><trkpt lat="48.95888374570137" lon="2.4644093517872916"><ele>46.333333333333336</ele><time>2026-03-31T06:46:57Z</time></trkpt><trkpt lat="48.95875746318972" lon="2.4641763672213544"><ele>46.0</ele><time>2026-03-31T06:46:58Z</time></trkpt><trkpt lat="48.958629617169166" lon="2.4639368143569462"><ele>46.0</ele><time>2026-03-31T06:46:59Z</time></trkpt><trkpt lat="48.958501546238516" lon="2.4636990244835304"><ele>46.0</ele><time>2026-03-31T06:47:00Z</time></trkpt><trkpt lat="48.958385860779515" lon="2.463477057301893"><ele>46.0</ele><time>2026-03-31T06:47:01Z</time></trkpt><trkpt lat="48.95827191702789" lon="2.4632667450688146"><ele>46.0</ele><time>2026-03-31T06:47:02Z</time></trkpt><trkpt lat="48.95815742196217" lon="2.4630511695825703"><ele>46.0</ele><time>2026-03-31T06:47:03Z</time></trkpt><trkpt lat="48.958040795658256" lon="2.462828091677856"><ele>46.0</ele><time>2026-03-31T06:47:04Z</time></trkpt><trkpt lat="48.95792520299278" lon="2.4626094248064776"><ele>46.0</ele><time>2026-03-31T06:47:05Z</time></trkpt><trkpt lat="48.95781364487788" lon="2.4624007340340075"><ele>46.0</ele><time>2026-03-31T06:47:06Z</time></trkpt><trkpt lat="48.95770628645684" lon="2.4621996145431173"><ele>46.0</ele><time>2026-03-31T06:47:07Z</time></trkpt><trkpt lat="48.95760296985362" lon="2.462009197090967"><ele>45.75</ele><time>2026-03-31T06:47:08Z</time></trkpt><trkpt lat="48.95750992416238" lon="2.4618356265704584"><ele>45.5</ele><time>2026-03-31T06:47:09Z</time></trkpt><trkpt lat="48.95742280337901" lon="2.4616715612304896"><ele>45.25</ele><time>2026-03-31T06:47:10Z</time></trkpt><trkpt lat="48.95733581352541" lon="2.461516255074843"><ele>45.0</ele><time>2026-03-31T06:47:11Z</time></trkpt><trkpt lat="48.95726151128064" lon="2.461369253674047"><ele>44.25</ele><time>2026-03-31T06:47:12Z</time></trkpt><trkpt lat="48.957192484682416" lon="2.461218082313763"><ele>43.5</ele><time>2026-03-31T06:47:13Z</time></trkpt><trkpt lat="48.957120281226835" lon="2.461077076657744"><ele>42.75</ele><time>2026-03-31T06:47:14Z</time></trkpt><trkpt lat="48.95703871028439" lon="2.4609341866193817"><ele>42.0</ele><time>2026-03-31T06:47:15Z</time></trkpt><trkpt lat="48.95695722535937" lon="2.460781221122345"><ele>42.0</ele><time>2026-03-31T06:47:15.999Z</time></trkpt><trkpt lat="48.9568721467172" lon="2.4606246487464625"><ele>42.0</ele><time>2026-03-31T06:47:16.999Z</time></trkpt><trkpt lat="48.95678603216488" lon="2.460461668942203"><ele>42.0</ele><time>2026-03-31T06:47:17.999Z</time></trkpt><trkpt lat="48.95669825611118" lon="2.4602954186717905"><ele>42.0</ele><time>2026-03-31T06:47:18.999Z</time></trkpt><trkpt lat="48.95660998844407" lon="2.460133263439992"><ele>42.0</ele><time>2026-03-31T06:47:19.999Z</time></trkpt><trkpt lat="48.95652213476695" lon="2.4599768320889033"><ele>42.0</ele><time>2026-03-31T06:47:20.999Z</time></trkpt><trkpt lat="48.95643656918471" lon="2.4598249263394805"><ele>42.0</ele><time>2026-03-31T06:47:21.999Z</time></trkpt><trkpt lat="48.95635272222984" lon="2.4596714009530265"><ele>42.0</ele><time>2026-03-31T06:47:22.999Z</time></trkpt><trkpt lat="48.95626886309131" lon="2.4595194381544587"><ele>44.0</ele><time>2026-03-31T06:47:23.999Z</time></trkpt><trkpt lat="48.956191519326424" lon="2.4593826380463266"><ele>46.0</ele><time>2026-03-31T06:47:24.999Z</time></trkpt><trkpt lat="48.95612391601066" lon="2.4592589488734284"><ele>48.0</ele><time>2026-03-31T06:47:25.999Z</time></trkpt><trkpt lat="48.95605689589208" lon="2.4591399066499084"><ele>50.0</ele><time>2026-03-31T06:47:26.999Z</time></trkpt><trkpt lat="48.955987205102524" lon="2.4590146661260723"><ele>52.0</ele><time>2026-03-31T06:47:27.999Z</time></trkpt><trkpt lat="48.955914697132734" lon="2.4588868796652554"><ele>50.2</ele><time>2026-03-31T06:47:28.999Z</time></trkpt><trkpt lat="48.95584232794249" lon="2.458766911484765"><ele>48.400000000000006</ele><time>2026-03-31T06:47:29.999Z</time></trkpt><trkpt lat="48.955770948974596" lon="2.458646321712107"><ele>46.599999999999994</ele><time>2026-03-31T06:47:30.999Z</time></trkpt><trkpt lat="48.95569943242717" lon="2.458526575660107"><ele>44.8</ele><time>2026-03-31T06:47:31.999Z</time></trkpt><trkpt lat="48.95563004517705" lon="2.4584133816989935"><ele>43.0</ele><time>2026-03-31T06:47:32.999Z</time></trkpt><trkpt lat="48.955571713330635" lon="2.458308142245146"><ele>43.0</ele><time>2026-03-31T06:47:33.999Z</time></trkpt><trkpt lat="48.95551796888438" lon="2.4582053713382424"><ele>43.0</ele><time>2026-03-31T06:47:34.999Z</time></trkpt><trkpt lat="48.95544279134307" lon="2.4580855132288106"><ele>43.0</ele><time>2026-03-31T06:47:36.999Z</time></trkpt><trkpt lat="48.95535903101288" lon="2.457943312162156"><ele>43.0</ele><time>2026-03-31T06:47:38.999Z</time></trkpt><trkpt lat="48.95531199137237" lon="2.4578745933738917"><ele>43.0</ele><time>2026-03-31T06:47:39.999Z</time></trkpt><trkpt lat="48.95521277296063" lon="2.4577784398329223"><ele>43.0</ele><time>2026-03-31T06:47:41.999Z</time></trkpt><trkpt lat="48.955145394139066" lon="2.457684196447152"><ele>43.0</ele><time>2026-03-31T06:47:43.999Z</time></trkpt><trkpt lat="48.95507536310822" lon="2.4576001352417935"><ele>43.0</ele><time>2026-03-31T06:47:45.999Z</time></trkpt><trkpt lat="48.95502577776596" lon="2.457525312017533"><ele>43.0</ele><time>2026-03-31T06:47:46.999Z</time></trkpt><trkpt lat="48.954971421566285" lon="2.4574214011096553"><ele>43.0</ele><time>2026-03-31T06:47:47.999Z</time></trkpt><trkpt lat="48.95491473818882" lon="2.457320457710681"><ele>43.0</ele><time>2026-03-31T06:47:48.999Z</time></trkpt><trkpt lat="48.95484573364461" lon="2.4571878374120595"><ele>42.25</ele><time>2026-03-31T06:47:49.999Z</time></trkpt><trkpt lat="48.95476951071466" lon="2.4570465349493915"><ele>41.5</ele><time>2026-03-31T06:47:50.999Z</time></trkpt><trkpt lat="48.954687737833886" lon="2.4569000983426244"><ele>40.75</ele><time>2026-03-31T06:47:51.999Z</time></trkpt><trkpt lat="48.954603066025854" lon="2.4567473607820784"><ele>40.0</ele><time>2026-03-31T06:47:52.999Z</time></trkpt><trkpt lat="48.954521607420915" lon="2.456602027845234"><ele>40.0</ele><time>2026-03-31T06:47:53.999Z</time></trkpt><trkpt lat="48.95444359737872" lon="2.456473583891806"><ele>40.0</ele><time>2026-03-31T06:47:54.999Z</time></trkpt><trkpt lat="48.95438205533979" lon="2.4563617493351066"><ele>40.0</ele><time>2026-03-31T06:47:55.999Z</time></trkpt><trkpt lat="48.95432200972182" lon="2.456233103975295"><ele>40.0</ele><time>2026-03-31T06:47:56.999Z</time></trkpt><trkpt lat="48.95425039110653" lon="2.4560724423748717"><ele>40.0</ele><time>2026-03-31T06:47:57.999Z</time></trkpt><trkpt lat="48.95416124784126" lon="2.4559129507685307"><ele>40.5</ele><time>2026-03-31T06:47:58.999Z</time></trkpt><trkpt lat="48.954064445721755" lon="2.4557389523515196"><ele>41.0</ele><time>2026-03-31T06:47:59.999Z</time></trkpt><trkpt lat="48.95397215179943" lon="2.4555683282220278"><ele>41.5</ele><time>2026-03-31T06:48:00.999Z</time></trkpt><trkpt lat="48.95388461616136" lon="2.4554051847057017"><ele>42.0</ele><time>2026-03-31T06:48:01.999Z</time></trkpt><trkpt lat="48.95379798542259" lon="2.45524181027266"><ele>42.0</ele><time>2026-03-31T06:48:02.999Z</time></trkpt><trkpt lat="48.953710905465236" lon="2.455085274307951"><ele>42.0</ele><time>2026-03-31T06:48:03.999Z</time></trkpt><trkpt lat="48.953620019274034" lon="2.454913433491495"><ele>42.0</ele><time>2026-03-31T06:48:04.999Z</time></trkpt><trkpt lat="48.953524372161" lon="2.4547355329676743"><ele>42.0</ele><time>2026-03-31T06:48:05.999Z</time></trkpt><trkpt lat="48.9534266809041" lon="2.45455106134052"><ele>42.666666666666664</ele><time>2026-03-31T06:48:06.999Z</time></trkpt><trkpt lat="48.95332464376968" lon="2.4543598298861986"><ele>43.33333333333333</ele><time>2026-03-31T06:48:07.999Z</time></trkpt><trkpt lat="48.953219185880386" lon="2.454171497090661"><ele>44.0</ele><time>2026-03-31T06:48:08.999Z</time></trkpt><trkpt lat="48.95312007914543" lon="2.453991118596308"><ele>44.0</ele><time>2026-03-31T06:48:09.999Z</time></trkpt><trkpt lat="48.953036429433666" lon="2.4538279590721412"><ele>44.0</ele><time>2026-03-31T06:48:10.999Z</time></trkpt><trkpt lat="48.952952979913654" lon="2.45368140205282"><ele>44.0</ele><time>2026-03-31T06:48:11.998Z</time></trkpt><trkpt lat="48.95287497127756" lon="2.453531596329076"><ele>44.0</ele><time>2026-03-31T06:48:12.998Z</time></trkpt><trkpt lat="48.95279286006062" lon="2.453374034425587"><ele>43.75</ele><time>2026-03-31T06:48:13.998Z</time></trkpt><trkpt lat="48.95270932998615" lon="2.4532174002908502"><ele>43.5</ele><time>2026-03-31T06:48:14.998Z</time></trkpt><trkpt lat="48.95263032370355" lon="2.45307656100359"><ele>43.25</ele><time>2026-03-31T06:48:15.998Z</time></trkpt><trkpt lat="48.95255540817391" lon="2.452942928203542"><ele>43.0</ele><time>2026-03-31T06:48:16.998Z</time></trkpt><trkpt lat="48.952476129707925" lon="2.4528043183019093"><ele>43.75</ele><time>2026-03-31T06:48:17.998Z</time></trkpt><trkpt lat="48.95238956167652" lon="2.452667663759586"><ele>44.5</ele><time>2026-03-31T06:48:18.998Z</time></trkpt><trkpt lat="48.95231939205375" lon="2.452510946597435"><ele>45.25</ele><time>2026-03-31T06:48:19.998Z</time></trkpt><trkpt lat="48.9522451074497" lon="2.452370079202207"><ele>46.0</ele><time>2026-03-31T06:48:20.998Z</time></trkpt><trkpt lat="48.952171357312146" lon="2.452232685663124"><ele>45.8</ele><time>2026-03-31T06:48:21.998Z</time></trkpt><trkpt lat="48.95210397855696" lon="2.45210505833935"><ele>45.599999999999994</ele><time>2026-03-31T06:48:22.998Z</time></trkpt><trkpt lat="48.95203997620021" lon="2.451989121523387"><ele>45.4</ele><time>2026-03-31T06:48:23.998Z</time></trkpt><trkpt lat="48.95198015395454" lon="2.4518771469846667"><ele>45.2</ele><time>2026-03-31T06:48:24.998Z</time></trkpt><trkpt lat="48.951918166574984" lon="2.4517609719853435"><ele>45.0</ele><time>2026-03-31T06:48:25.998Z</time></trkpt><trkpt lat="48.95185371359164" lon="2.4516379531951764"><ele>45.0</ele><time>2026-03-31T06:48:26.998Z</time></trkpt><trkpt lat="48.95178623725424" lon="2.4515134367478275"><ele>45.0</ele><time>2026-03-31T06:48:27.998Z</time></trkpt><trkpt lat="48.95171494151654" lon="2.4513812335401486"><ele>45.0</ele><time>2026-03-31T06:48:28.998Z</time></trkpt><trkpt lat="48.95163524812312" lon="2.451234729365711"><ele>45.0</ele><time>2026-03-31T06:48:29.998Z</time></trkpt><trkpt lat="48.95155295136064" lon="2.451081578966296"><ele>44.75</ele><time>2026-03-31T06:48:30.998Z</time></trkpt><trkpt lat="48.95147000528975" lon="2.450932596504318"><ele>44.5</ele><time>2026-03-31T06:48:31.998Z</time></trkpt><trkpt lat="48.95139191534563" lon="2.4507899708384784"><ele>44.25</ele><time>2026-03-31T06:48:32.998Z</time></trkpt><trkpt lat="48.95131863689359" lon="2.4506556322223494"><ele>44.0</ele><time>2026-03-31T06:48:33.998Z</time></trkpt><trkpt lat="48.951251504305496" lon="2.450529599776167"><ele>44.25</ele><time>2026-03-31T06:48:34.998Z</time></trkpt><trkpt lat="48.95118082743536" lon="2.4503972379738674"><ele>44.5</ele><time>2026-03-31T06:48:35.998Z</time></trkpt><trkpt lat="48.95110896877719" lon="2.4502672589882435"><ele>44.75</ele><time>2026-03-31T06:48:36.998Z</time></trkpt><trkpt lat="48.951039148727745" lon="2.4501326812894937"><ele>45.0</ele><time>2026-03-31T06:48:37.998Z</time></trkpt><trkpt lat="48.950965227358985" lon="2.449994423342135"><ele>45.0</ele><time>2026-03-31T06:48:39Z</time></trkpt><trkpt lat="48.95089202091833" lon="2.449857462881104"><ele>45.0</ele><time>2026-03-31T06:48:40Z</time></trkpt><trkpt lat="48.95081905438286" lon="2.4497215718039076"><ele>45.0</ele><time>2026-03-31T06:48:41Z</time></trkpt><trkpt lat="48.9507492052951" lon="2.449590807904254"><ele>45.0</ele><time>2026-03-31T06:48:42Z</time></trkpt><trkpt lat="48.95067908471551" lon="2.4494641046300822"><ele>44.5</ele><time>2026-03-31T06:48:43Z</time></trkpt><trkpt lat="48.95060324076922" lon="2.4493250483720197"><ele>44.0</ele><time>2026-03-31T06:48:44Z</time></trkpt><trkpt lat="48.950525391040955" lon="2.4491817985056916"><ele>43.5</ele><time>2026-03-31T06:48:45Z</time></trkpt><trkpt lat="48.95044939183923" lon="2.449037508840328"><ele>43.0</ele><time>2026-03-31T06:48:46Z</time></trkpt><trkpt lat="48.95039709701228" lon="2.4488912022827525"><ele>44.0</ele><time>2026-03-31T06:48:47Z</time></trkpt><trkpt lat="48.95032790074426" lon="2.4487339460196043"><ele>45.0</ele><time>2026-03-31T06:48:48Z</time></trkpt><trkpt lat="48.950262276555584" lon="2.448575185088811"><ele>46.0</ele><time>2026-03-31T06:48:49Z</time></trkpt><trkpt lat="48.950199356080326" lon="2.448411407622619"><ele>47.0</ele><time>2026-03-31T06:48:50Z</time></trkpt><trkpt lat="48.95009352007997" lon="2.448297926805985"><ele>47.0</ele><time>2026-03-31T06:48:51Z</time></trkpt><trkpt lat="48.95000439736924" lon="2.448127616544865"><ele>47.0</ele><time>2026-03-31T06:48:52Z</time></trkpt><trkpt lat="48.94992139732142" lon="2.4479626753993378"><ele>47.0</ele><time>2026-03-31T06:48:53Z</time></trkpt><trkpt lat="48.94983942447813" lon="2.4477968228584226"><ele>47.0</ele><time>2026-03-31T06:48:54Z</time></trkpt><trkpt lat="48.949758759032825" lon="2.447628706916596"><ele>47.0</ele><time>2026-03-31T06:48:55Z</time></trkpt><trkpt lat="48.94967401557419" lon="2.4474508502696826"><ele>47.0</ele><time>2026-03-31T06:48:56Z</time></trkpt><trkpt lat="48.9495892696582" lon="2.447288449675101"><ele>47.0</ele><time>2026-03-31T06:48:57Z</time></trkpt><trkpt lat="48.949500996705275" lon="2.4471262325600143"><ele>47.0</ele><time>2026-03-31T06:48:58Z</time></trkpt><trkpt lat="48.949413416810586" lon="2.4469525936991934"><ele>46.75</ele><time>2026-03-31T06:48:59Z</time></trkpt><trkpt lat="48.94932882322359" lon="2.4467708413660443"><ele>46.5</ele><time>2026-03-31T06:49:00Z</time></trkpt><trkpt lat="48.949241114434756" lon="2.4465901937013292"><ele>46.25</ele><time>2026-03-31T06:49:01Z</time></trkpt><trkpt lat="48.94915364265193" lon="2.446438444792773"><ele>46.0</ele><time>2026-03-31T06:49:02Z</time></trkpt><trkpt lat="48.94907928913272" lon="2.4462785502118822"><ele>45.5</ele><time>2026-03-31T06:49:03Z</time></trkpt><trkpt lat="48.94900781204884" lon="2.4461395464900573"><ele>45.0</ele><time>2026-03-31T06:49:04Z</time></trkpt><trkpt lat="48.948935469084056" lon="2.445999334883885"><ele>44.5</ele><time>2026-03-31T06:49:05Z</time></trkpt><trkpt lat="48.94886318408682" lon="2.445859344721407"><ele>44.0</ele><time>2026-03-31T06:49:06Z</time></trkpt><trkpt lat="48.94878982141191" lon="2.4457111462464263"><ele>44.0</ele><time>2026-03-31T06:49:07Z</time></trkpt><trkpt lat="48.948713691262725" lon="2.4455627771796946"><ele>44.0</ele><time>2026-03-31T06:49:08Z</time></trkpt><trkpt lat="48.94861831644856" lon="2.4454205878201276"><ele>44.0</ele><time>2026-03-31T06:49:09Z</time></trkpt><trkpt lat="48.94853624997554" lon="2.4452685542442203"><ele>44.0</ele><time>2026-03-31T06:49:10Z</time></trkpt><trkpt lat="48.9484541062398" lon="2.445116402565761"><ele>44.25</ele><time>2026-03-31T06:49:11Z</time></trkpt><trkpt lat="48.948375831086054" lon="2.444971446667605"><ele>44.5</ele><time>2026-03-31T06:49:12Z</time></trkpt><trkpt lat="48.94829291976077" lon="2.444817904462827"><ele>44.75</ele><time>2026-03-31T06:49:13Z</time></trkpt><trkpt lat="48.94819372487395" lon="2.444633986502847"><ele>45.0</ele><time>2026-03-31T06:49:14Z</time></trkpt><trkpt lat="48.948106388193786" lon="2.444482132116826"><ele>45.25</ele><time>2026-03-31T06:49:15Z</time></trkpt><trkpt lat="48.94800995964824" lon="2.4443398837669528"><ele>45.5</ele><time>2026-03-31T06:49:16Z</time></trkpt><trkpt lat="48.947929133573226" lon="2.4441823164770686"><ele>45.75</ele><time>2026-03-31T06:49:17Z</time></trkpt><trkpt lat="48.9478210372517" lon="2.44402367421646"><ele>46.0</ele><time>2026-03-31T06:49:18Z</time></trkpt><trkpt lat="48.947750201591916" lon="2.443832033999551"><ele>45.75</ele><time>2026-03-31T06:49:19Z</time></trkpt><trkpt lat="48.94763049444064" lon="2.4436914420866147"><ele>45.5</ele><time>2026-03-31T06:49:19.999Z</time></trkpt><trkpt lat="48.947568350201706" lon="2.443550471025739"><ele>45.25</ele><time>2026-03-31T06:49:20.999Z</time></trkpt><trkpt lat="48.94748958677258" lon="2.4434271918802106"><ele>45.0</ele><time>2026-03-31T06:49:21.999Z</time></trkpt><trkpt lat="48.947396787416075" lon="2.4432646485253424"><ele>45.0</ele><time>2026-03-31T06:49:22.999Z</time></trkpt><trkpt lat="48.94734035519731" lon="2.443161998791877"><ele>45.0</ele><time>2026-03-31T06:49:23.999Z</time></trkpt><trkpt lat="48.94728173115725" lon="2.4430506618843317"><ele>45.0</ele><time>2026-03-31T06:49:24.999Z</time></trkpt><trkpt lat="48.94720166545299" lon="2.442927738644556"><ele>45.0</ele><time>2026-03-31T06:49:25.999Z</time></trkpt><trkpt lat="48.94712445174021" lon="2.4427940352929345"><ele>45.0</ele><time>2026-03-31T06:49:26.999Z</time></trkpt><trkpt lat="48.94704519316836" lon="2.442666309614992"><ele>45.0</ele><time>2026-03-31T06:49:27.999Z</time></trkpt><trkpt lat="48.946938503690966" lon="2.4424939740005747"><ele>45.0</ele><time>2026-03-31T06:49:28.999Z</time></trkpt><trkpt lat="48.94687512716627" lon="2.442326524961696"><ele>45.0</ele><time>2026-03-31T06:49:29.999Z</time></trkpt><trkpt lat="48.94677181596369" lon="2.442189747553369"><ele>45.0</ele><time>2026-03-31T06:49:30.999Z</time></trkpt><trkpt lat="48.94668151643796" lon="2.4420332653477135"><ele>45.0</ele><time>2026-03-31T06:49:31.999Z</time></trkpt><trkpt lat="48.946608915373766" lon="2.441890088865358"><ele>45.0</ele><time>2026-03-31T06:49:32.999Z</time></trkpt><trkpt lat="48.94651670630631" lon="2.441736574562795"><ele>45.0</ele><time>2026-03-31T06:49:33.999Z</time></trkpt><trkpt lat="48.94644221801279" lon="2.4415903852860454"><ele>45.0</ele><time>2026-03-31T06:49:34.999Z</time></trkpt><trkpt lat="48.94637096964156" lon="2.4414207028302513"><ele>45.333333333333336</ele><time>2026-03-31T06:49:35.999Z</time></trkpt><trkpt lat="48.94627909832835" lon="2.441203588069085"><ele>45.66666666666667</ele><time>2026-03-31T06:49:36.999Z</time></trkpt><trkpt lat="48.9461841998258" lon="2.441006393300897"><ele>46.0</ele><time>2026-03-31T06:49:37.999Z</time></trkpt><trkpt lat="48.94611083887649" lon="2.440835432710962"><ele>46.0</ele><time>2026-03-31T06:49:38.999Z</time></trkpt><trkpt lat="48.94602628776202" lon="2.4406896227344994"><ele>46.0</ele><time>2026-03-31T06:49:39.999Z</time></trkpt><trkpt lat="48.94593973619022" lon="2.4405257818490735"><ele>46.0</ele><time>2026-03-31T06:49:40.999Z</time></trkpt><trkpt lat="48.94584679597492" lon="2.440363764572125"><ele>46.0</ele><time>2026-03-31T06:49:41.999Z</time></trkpt><trkpt lat="48.94575470040997" lon="2.440194334868525"><ele>46.0</ele><time>2026-03-31T06:49:42.999Z</time></trkpt><trkpt lat="48.94566089806374" lon="2.4400196588244025"><ele>46.0</ele><time>2026-03-31T06:49:43.999Z</time></trkpt><trkpt lat="48.945567504344034" lon="2.43984932065053"><ele>46.0</ele><time>2026-03-31T06:49:44.999Z</time></trkpt><trkpt lat="48.94547911908858" lon="2.439687180841921"><ele>46.0</ele><time>2026-03-31T06:49:45.999Z</time></trkpt><trkpt lat="48.945402606604965" lon="2.4395308549918315"><ele>46.0</ele><time>2026-03-31T06:49:46.999Z</time></trkpt><trkpt lat="48.945330347809616" lon="2.439389250786383"><ele>46.0</ele><time>2026-03-31T06:49:47.999Z</time></trkpt><trkpt lat="48.94525696588424" lon="2.439250384786215"><ele>46.0</ele><time>2026-03-31T06:49:48.999Z</time></trkpt><trkpt lat="48.94519050031648" lon="2.4391133091934756"><ele>46.0</ele><time>2026-03-31T06:49:49.999Z</time></trkpt><trkpt lat="48.94513101314358" lon="2.4389935651519585"><ele>46.0</ele><time>2026-03-31T06:49:50.999Z</time></trkpt><trkpt lat="48.945078015589836" lon="2.4388815599158535"><ele>45.833333333333336</ele><time>2026-03-31T06:49:51.999Z</time></trkpt><trkpt lat="48.945031871920165" lon="2.4387930089645664"><ele>45.66666666666667</ele><time>2026-03-31T06:49:52.999Z</time></trkpt><trkpt lat="48.944993134675606" lon="2.4387125133660863"><ele>45.5</ele><time>2026-03-31T06:49:53.999Z</time></trkpt><trkpt lat="48.94492752050286" lon="2.438548507596645"><ele>45.333333333333336</ele><time>2026-03-31T06:49:55.999Z</time></trkpt><trkpt lat="48.94487660351218" lon="2.4384571335468097"><ele>45.166666666666664</ele><time>2026-03-31T06:49:56.999Z</time></trkpt><trkpt lat="48.944827685147786" lon="2.438345534434595"><ele>45.0</ele><time>2026-03-31T06:49:57.999Z</time></trkpt><trkpt lat="48.94477513857607" lon="2.4382419326183586"><ele>45.0</ele><time>2026-03-31T06:49:58.999Z</time></trkpt><trkpt lat="48.94472094892479" lon="2.4381271283362858"><ele>45.0</ele><time>2026-03-31T06:49:59.999Z</time></trkpt><trkpt lat="48.94466171514447" lon="2.438001984054633"><ele>45.0</ele><time>2026-03-31T06:50:00.999Z</time></trkpt><trkpt lat="48.94460045822614" lon="2.437870285581883"><ele>45.0</ele><time>2026-03-31T06:50:01.999Z</time></trkpt><trkpt lat="48.94453413072308" lon="2.43772652604158"><ele>45.0</ele><time>2026-03-31T06:50:02.999Z</time></trkpt><trkpt lat="48.94446613594333" lon="2.4375822453211335"><ele>45.0</ele><time>2026-03-31T06:50:03.999Z</time></trkpt><trkpt lat="48.94440551651623" lon="2.437443205698718"><ele>45.0</ele><time>2026-03-31T06:50:04.999Z</time></trkpt><trkpt lat="48.94435678292238" lon="2.437311369585026"><ele>45.0</ele><time>2026-03-31T06:50:05.999Z</time></trkpt><trkpt lat="48.94430258396356" lon="2.4372070858674766"><ele>45.0</ele><time>2026-03-31T06:50:06.999Z</time></trkpt><trkpt lat="48.94425346429738" lon="2.4370990302062556"><ele>45.0</ele><time>2026-03-31T06:50:07.999Z</time></trkpt><trkpt lat="48.94420599623896" lon="2.43699642083175"><ele>44.857142857142854</ele><time>2026-03-31T06:50:08.999Z</time></trkpt><trkpt lat="48.944161069510656" lon="2.4368946648128658"><ele>44.714285714285715</ele><time>2026-03-31T06:50:09.999Z</time></trkpt><trkpt lat="48.94412593943455" lon="2.4368028294110937"><ele>44.57142857142857</ele><time>2026-03-31T06:50:10.999Z</time></trkpt><trkpt lat="48.94408671545684" lon="2.436714458614212"><ele>44.42857142857143</ele><time>2026-03-31T06:50:11.999Z</time></trkpt><trkpt lat="48.94404314430415" lon="2.4366229361569434"><ele>44.285714285714285</ele><time>2026-03-31T06:50:12.999Z</time></trkpt><trkpt lat="48.94400009607088" lon="2.436527305213408"><ele>44.142857142857146</ele><time>2026-03-31T06:50:13.999Z</time></trkpt><trkpt lat="48.943964155825874" lon="2.4364465719924087"><ele>44.0</ele><time>2026-03-31T06:50:14.999Z</time></trkpt><trkpt lat="48.94392161814042" lon="2.436329009344698"><ele>44.400000000000006</ele><time>2026-03-31T06:50:16.998Z</time></trkpt><trkpt lat="48.94387299238209" lon="2.436204896599273"><ele>44.8</ele><time>2026-03-31T06:50:19.998Z</time></trkpt><trkpt lat="48.94381952794237" lon="2.4360740532702603"><ele>45.2</ele><time>2026-03-31T06:50:21.998Z</time></trkpt><trkpt lat="48.9437646458185" lon="2.4359331283544137"><ele>45.599999999999994</ele><time>2026-03-31T06:50:23.998Z</time></trkpt><trkpt lat="48.94371139667864" lon="2.4357925519380212"><ele>46.0</ele><time>2026-03-31T06:50:25.998Z</time></trkpt><trkpt lat="48.943676107255435" lon="2.435703339295099"><ele>46.0</ele><time>2026-03-31T06:50:26.998Z</time></trkpt><trkpt lat="48.94363223433782" lon="2.4356041385987552"><ele>46.0</ele><time>2026-03-31T06:50:27.998Z</time></trkpt><trkpt lat="48.94358851990989" lon="2.435494411744894"><ele>46.0</ele><time>2026-03-31T06:50:28.998Z</time></trkpt><trkpt lat="48.94353766527021" lon="2.4353738867339727"><ele>46.0</ele><time>2026-03-31T06:50:29.998Z</time></trkpt><trkpt lat="48.94348900427773" lon="2.4352240767561284"><ele>46.0</ele><time>2026-03-31T06:50:30.998Z</time></trkpt><trkpt lat="48.94342813406034" lon="2.4350825743970628"><ele>45.75</ele><time>2026-03-31T06:50:31.998Z</time></trkpt><trkpt lat="48.94337400543373" lon="2.4349259469747913"><ele>45.5</ele><time>2026-03-31T06:50:32.998Z</time></trkpt><trkpt lat="48.943313327795835" lon="2.4347583743463774"><ele>45.25</ele><time>2026-03-31T06:50:33.998Z</time></trkpt><trkpt lat="48.94325437024377" lon="2.4345719208719303"><ele>45.0</ele><time>2026-03-31T06:50:34.998Z</time></trkpt><trkpt lat="48.943198342981056" lon="2.4343972542864103"><ele>45.5</ele><time>2026-03-31T06:50:35.998Z</time></trkpt><trkpt lat="48.94313584152508" lon="2.434218955623449"><ele>46.0</ele><time>2026-03-31T06:50:36.998Z</time></trkpt><trkpt lat="48.94307616426" lon="2.434053888941386"><ele>46.5</ele><time>2026-03-31T06:50:37.998Z</time></trkpt><trkpt lat="48.94302494944189" lon="2.4338778115021427"><ele>47.0</ele><time>2026-03-31T06:50:38.998Z</time></trkpt><trkpt lat="48.94297505437063" lon="2.4337167213617144"><ele>47.0</ele><time>2026-03-31T06:50:39.998Z</time></trkpt><trkpt lat="48.94292858447435" lon="2.4335601122202566"><ele>47.0</ele><time>2026-03-31T06:50:40.998Z</time></trkpt><trkpt lat="48.942872507953" lon="2.4334063562570822"><ele>47.0</ele><time>2026-03-31T06:50:41.998Z</time></trkpt><trkpt lat="48.94281796269572" lon="2.433245251935849"><ele>47.0</ele><time>2026-03-31T06:50:42.998Z</time></trkpt><trkpt lat="48.94276589188667" lon="2.4330703077156466"><ele>47.0</ele><time>2026-03-31T06:50:43.998Z</time></trkpt><trkpt lat="48.94270651598186" lon="2.4328991908461517"><ele>47.0</ele><time>2026-03-31T06:50:45Z</time></trkpt><trkpt lat="48.942640006106885" lon="2.4327477052392457"><ele>47.0</ele><time>2026-03-31T06:50:46Z</time></trkpt><trkpt lat="48.942575427054294" lon="2.4326120274660807"><ele>47.0</ele><time>2026-03-31T06:50:47Z</time></trkpt><trkpt lat="48.942520024015295" lon="2.4324649903189544"><ele>46.666666666666664</ele><time>2026-03-31T06:50:48Z</time></trkpt><trkpt lat="48.942506381815484" lon="2.432326383102622"><ele>46.33333333333333</ele><time>2026-03-31T06:50:49Z</time></trkpt><trkpt lat="48.94247767821703" lon="2.432240859820602"><ele>46.0</ele><time>2026-03-31T06:50:50Z</time></trkpt><trkpt lat="48.94244227515998" lon="2.432134347639211"><ele>45.666666666666664</ele><time>2026-03-31T06:50:51Z</time></trkpt><trkpt lat="48.94240996737413" lon="2.4320345899320563"><ele>45.333333333333336</ele><time>2026-03-31T06:50:52Z</time></trkpt><trkpt lat="48.942378163037674" lon="2.431936709972595"><ele>45.0</ele><time>2026-03-31T06:50:53Z</time></trkpt><trkpt lat="48.94232926359444" lon="2.431769175837999"><ele>44.8</ele><time>2026-03-31T06:50:55Z</time></trkpt><trkpt lat="48.942282108896755" lon="2.431589965838712"><ele>44.6</ele><time>2026-03-31T06:50:57Z</time></trkpt><trkpt lat="48.94225286311476" lon="2.4314777156791303"><ele>44.400000000000006</ele><time>2026-03-31T06:50:58Z</time></trkpt><trkpt lat="48.94222047241911" lon="2.431362119170345"><ele>44.2</ele><time>2026-03-31T06:50:59Z</time></trkpt><trkpt lat="48.94218723829798" lon="2.431243042400828"><ele>44.0</ele><time>2026-03-31T06:51:00Z</time></trkpt><trkpt lat="48.9421587852762" lon="2.4311288889520504"><ele>44.0</ele><time>2026-03-31T06:51:01Z</time></trkpt><trkpt lat="48.9421313349594" lon="2.431018732927419"><ele>44.0</ele><time>2026-03-31T06:51:02Z</time></trkpt><trkpt lat="48.94210281241024" lon="2.430903052111278"><ele>44.0</ele><time>2026-03-31T06:51:03Z</time></trkpt><trkpt lat="48.942074623647194" lon="2.4307851842436814"><ele>44.0</ele><time>2026-03-31T06:51:04Z</time></trkpt><trkpt lat="48.94203473850892" lon="2.4306159694480094"><ele>44.0</ele><time>2026-03-31T06:51:06Z</time></trkpt><trkpt lat="48.942011246881194" lon="2.430522654048524"><ele>44.0</ele><time>2026-03-31T06:51:07Z</time></trkpt><trkpt lat="48.94198147112226" lon="2.4304162348483067"><ele>44.166666666666664</ele><time>2026-03-31T06:51:08Z</time></trkpt><trkpt lat="48.94195592944956" lon="2.430318843857736"><ele>44.33333333333333</ele><time>2026-03-31T06:51:09Z</time></trkpt><trkpt lat="48.941920343536275" lon="2.4301747947675505"><ele>44.5</ele><time>2026-03-31T06:51:11Z</time></trkpt><trkpt lat="48.94187870075164" lon="2.4300170942129657"><ele>44.666666666666664</ele><time>2026-03-31T06:51:13Z</time></trkpt><trkpt lat="48.941852986092385" lon="2.429903019190583"><ele>44.833333333333336</ele><time>2026-03-31T06:51:14Z</time></trkpt><trkpt lat="48.9418254887624" lon="2.4297791195171072"><ele>45.0</ele><time>2026-03-31T06:51:15Z</time></trkpt><trkpt lat="48.941799030058924" lon="2.429681122494929"><ele>45.2</ele><time>2026-03-31T06:51:16Z</time></trkpt><trkpt lat="48.94174281677786" lon="2.4295409930964684"><ele>45.4</ele><time>2026-03-31T06:51:18Z</time></trkpt><trkpt lat="48.94171864617619" lon="2.4293703199323162"><ele>45.599999999999994</ele><time>2026-03-31T06:51:20Z</time></trkpt><trkpt lat="48.941699268423825" lon="2.429268082433672"><ele>45.8</ele><time>2026-03-31T06:51:21Z</time></trkpt><trkpt lat="48.94167788678686" lon="2.42915267632912"><ele>46.0</ele><time>2026-03-31T06:51:22Z</time></trkpt><trkpt lat="48.9416514683977" lon="2.4290198229029043"><ele>46.0</ele><time>2026-03-31T06:51:23Z</time></trkpt><trkpt lat="48.941626047531486" lon="2.4288931749219107"><ele>46.0</ele><time>2026-03-31T06:51:24Z</time></trkpt><trkpt lat="48.941594178824296" lon="2.428747029249797"><ele>46.0</ele><time>2026-03-31T06:51:26Z</time></trkpt><trkpt lat="48.94156463499413" lon="2.42863033373869"><ele>46.0</ele><time>2026-03-31T06:51:27.999Z</time></trkpt><trkpt lat="48.94152927752813" lon="2.4284792633137995"><ele>46.0</ele><time>2026-03-31T06:51:29.999Z</time></trkpt><trkpt lat="48.941500580601435" lon="2.428379775374019"><ele>46.0</ele><time>2026-03-31T06:51:30.999Z</time></trkpt><trkpt lat="48.94147053122008" lon="2.4282688928937013"><ele>45.833333333333336</ele><time>2026-03-31T06:51:31.999Z</time></trkpt><trkpt lat="48.941444683935906" lon="2.428166054217291"><ele>45.66666666666667</ele><time>2026-03-31T06:51:32.999Z</time></trkpt><trkpt lat="48.94141817468186" lon="2.4280578752557"><ele>45.5</ele><time>2026-03-31T06:51:33.999Z</time></trkpt><trkpt lat="48.94138786238308" lon="2.427941732946428"><ele>45.333333333333336</ele><time>2026-03-31T06:51:34.999Z</time></trkpt><trkpt lat="48.94136028361987" lon="2.427826286750756"><ele>45.166666666666664</ele><time>2026-03-31T06:51:35.999Z</time></trkpt><trkpt lat="48.941337245697945" lon="2.4277234292217225"><ele>45.0</ele><time>2026-03-31T06:51:36.999Z</time></trkpt><trkpt lat="48.94130997963659" lon="2.4276134657366235"><ele>44.833333333333336</ele><time>2026-03-31T06:51:37.999Z</time></trkpt><trkpt lat="48.941280708501445" lon="2.427498987128078"><ele>44.666666666666664</ele><time>2026-03-31T06:51:38.999Z</time></trkpt><trkpt lat="48.94125624299515" lon="2.427394803421838"><ele>44.5</ele><time>2026-03-31T06:51:39.999Z</time></trkpt><trkpt lat="48.94123239241804" lon="2.4272885682948573"><ele>44.33333333333333</ele><time>2026-03-31T06:51:40.999Z</time></trkpt><trkpt lat="48.94120436156109" lon="2.4271737666776145"><ele>44.166666666666664</ele><time>2026-03-31T06:51:41.999Z</time></trkpt><trkpt lat="48.94117510103209" lon="2.4270540527290305"><ele>44.0</ele><time>2026-03-31T06:51:42.999Z</time></trkpt><trkpt lat="48.94114845083451" lon="2.426936977356676"><ele>43.5</ele><time>2026-03-31T06:51:43.999Z</time></trkpt><trkpt lat="48.94112435024014" lon="2.4268225324823134"><ele>43.0</ele><time>2026-03-31T06:51:44.999Z</time></trkpt><trkpt lat="48.9411009519857" lon="2.4267079124815183"><ele>42.5</ele><time>2026-03-31T06:51:45.999Z</time></trkpt><trkpt lat="48.94107698046913" lon="2.4265963264620933"><ele>42.0</ele><time>2026-03-31T06:51:46.999Z</time></trkpt><trkpt lat="48.94105141547217" lon="2.426490500936544"><ele>41.5</ele><time>2026-03-31T06:51:47.999Z</time></trkpt><trkpt lat="48.941025680371375" lon="2.426385891630126"><ele>41.0</ele><time>2026-03-31T06:51:48.999Z</time></trkpt><trkpt lat="48.94100083599817" lon="2.42628443694717"><ele>41.0</ele><time>2026-03-31T06:51:49.999Z</time></trkpt><trkpt lat="48.94097449783754" lon="2.4261802042857283"><ele>41.0</ele><time>2026-03-31T06:51:50.999Z</time></trkpt><trkpt lat="48.940950389470444" lon="2.426070940822245"><ele>41.0</ele><time>2026-03-31T06:51:51.999Z</time></trkpt><trkpt lat="48.94092930901286" lon="2.42597258414977"><ele>41.0</ele><time>2026-03-31T06:51:52.999Z</time></trkpt><trkpt lat="48.940892479105784" lon="2.425817211858341"><ele>41.0</ele><time>2026-03-31T06:51:54.999Z</time></trkpt><trkpt lat="48.94086035032271" lon="2.425684746481549"><ele>41.0</ele><time>2026-03-31T06:51:56.999Z</time></trkpt><trkpt lat="48.94081740637137" lon="2.4255200583893046"><ele>41.166666666666664</ele><time>2026-03-31T06:51:58.999Z</time></trkpt><trkpt lat="48.940789347441054" lon="2.4254102405556717"><ele>41.33333333333333</ele><time>2026-03-31T06:51:59.999Z</time></trkpt><trkpt lat="48.940759174851365" lon="2.4252773627072797"><ele>41.5</ele><time>2026-03-31T06:52:00.999Z</time></trkpt><trkpt lat="48.94072917989983" lon="2.4251375787246463"><ele>41.666666666666664</ele><time>2026-03-31T06:52:01.999Z</time></trkpt><trkpt lat="48.94070129942197" lon="2.425006171538502"><ele>41.833333333333336</ele><time>2026-03-31T06:52:02.999Z</time></trkpt><trkpt lat="48.940670533130145" lon="2.4248742035923674"><ele>42.0</ele><time>2026-03-31T06:52:03.999Z</time></trkpt><trkpt lat="48.94063996943939" lon="2.424744445706295"><ele>42.0</ele><time>2026-03-31T06:52:04.999Z</time></trkpt><trkpt lat="48.94060639813046" lon="2.4246134243759645"><ele>42.0</ele><time>2026-03-31T06:52:05.999Z</time></trkpt><trkpt lat="48.940578374048684" lon="2.4244816451805007"><ele>42.0</ele><time>2026-03-31T06:52:06.999Z</time></trkpt><trkpt lat="48.94054885101917" lon="2.424348119874671"><ele>42.0</ele><time>2026-03-31T06:52:07.999Z</time></trkpt><trkpt lat="48.9405191395588" lon="2.424210717198201"><ele>42.0</ele><time>2026-03-31T06:52:08.999Z</time></trkpt><trkpt lat="48.94048667551457" lon="2.4240777240668896"><ele>42.0</ele><time>2026-03-31T06:52:09.999Z</time></trkpt><trkpt lat="48.94045711338598" lon="2.423954120670299"><ele>42.0</ele><time>2026-03-31T06:52:10.999Z</time></trkpt><trkpt lat="48.94042834729595" lon="2.42383828378565"><ele>42.0</ele><time>2026-03-31T06:52:11.999Z</time></trkpt><trkpt lat="48.9403978711498" lon="2.423718870264129"><ele>42.0</ele><time>2026-03-31T06:52:12.999Z</time></trkpt><trkpt lat="48.940371755256336" lon="2.423587180264026"><ele>42.0</ele><time>2026-03-31T06:52:13.999Z</time></trkpt><trkpt lat="48.940343543834004" lon="2.423458122457797"><ele>42.0</ele><time>2026-03-31T06:52:14.999Z</time></trkpt><trkpt lat="48.94031856223968" lon="2.4233459676661453"><ele>41.833333333333336</ele><time>2026-03-31T06:52:15.999Z</time></trkpt><trkpt lat="48.940294695657954" lon="2.423245372927181"><ele>41.666666666666664</ele><time>2026-03-31T06:52:16.999Z</time></trkpt><trkpt lat="48.94026822455199" lon="2.423132442453775"><ele>41.5</ele><time>2026-03-31T06:52:17.999Z</time></trkpt><trkpt lat="48.94023760271537" lon="2.423003188981227"><ele>41.33333333333333</ele><time>2026-03-31T06:52:18.999Z</time></trkpt><trkpt lat="48.94020813208073" lon="2.4228694784551283"><ele>41.166666666666664</ele><time>2026-03-31T06:52:19.999Z</time></trkpt><trkpt lat="48.940178686632116" lon="2.4227339781549166"><ele>41.0</ele><time>2026-03-31T06:52:20.999Z</time></trkpt><trkpt lat="48.94014817548087" lon="2.4225986779113526"><ele>41.0</ele><time>2026-03-31T06:52:21.999Z</time></trkpt><trkpt lat="48.94011869516462" lon="2.422459170846274"><ele>41.0</ele><time>2026-03-31T06:52:22.999Z</time></trkpt><trkpt lat="48.94009517463855" lon="2.422331225621508"><ele>41.0</ele><time>2026-03-31T06:52:23.999Z</time></trkpt><trkpt lat="48.94005826723202" lon="2.422203509658567"><ele>41.0</ele><time>2026-03-31T06:52:24.999Z</time></trkpt><trkpt lat="48.94002447939403" lon="2.422066756800298"><ele>41.0</ele><time>2026-03-31T06:52:25.998Z</time></trkpt><trkpt lat="48.93999201369346" lon="2.4219229700820293"><ele>40.8</ele><time>2026-03-31T06:52:26.998Z</time></trkpt><trkpt lat="48.9399663862083" lon="2.4217593049159687"><ele>40.599999999999994</ele><time>2026-03-31T06:52:27.998Z</time></trkpt><trkpt lat="48.93993866524067" lon="2.4216135161788483"><ele>40.4</ele><time>2026-03-31T06:52:28.998Z</time></trkpt><trkpt lat="48.93990790539151" lon="2.4214795577355637"><ele>40.2</ele><time>2026-03-31T06:52:29.998Z</time></trkpt><trkpt lat="48.939873261465685" lon="2.4213283976044373"><ele>40.0</ele><time>2026-03-31T06:52:30.998Z</time></trkpt><trkpt lat="48.939838757747225" lon="2.4211724168929396"><ele>40.0</ele><time>2026-03-31T06:52:31.998Z</time></trkpt><trkpt lat="48.93979416724175" lon="2.420992429652765"><ele>40.0</ele><time>2026-03-31T06:52:32.998Z</time></trkpt><trkpt lat="48.939754266810695" lon="2.4208205388300454"><ele>40.0</ele><time>2026-03-31T06:52:33.998Z</time></trkpt><trkpt lat="48.93971586356421" lon="2.4206466083276745"><ele>40.0</ele><time>2026-03-31T06:52:34.998Z</time></trkpt><trkpt lat="48.93967201612092" lon="2.4204687416476944"><ele>40.0</ele><time>2026-03-31T06:52:35.998Z</time></trkpt><trkpt lat="48.9396241316315" lon="2.420271172700014"><ele>40.0</ele><time>2026-03-31T06:52:36.998Z</time></trkpt><trkpt lat="48.93957138571569" lon="2.4200586603942376"><ele>40.0</ele><time>2026-03-31T06:52:37.998Z</time></trkpt><trkpt lat="48.939524649676876" lon="2.4198379162854637"><ele>40.0</ele><time>2026-03-31T06:52:38.998Z</time></trkpt><trkpt lat="48.939477982175724" lon="2.4196257570368633"><ele>39.75</ele><time>2026-03-31T06:52:39.998Z</time></trkpt><trkpt lat="48.939430775247985" lon="2.419424757338691"><ele>39.5</ele><time>2026-03-31T06:52:40.998Z</time></trkpt><trkpt lat="48.9393849665736" lon="2.4192228678393164"><ele>39.25</ele><time>2026-03-31T06:52:41.998Z</time></trkpt><trkpt lat="48.93934099021746" lon="2.419028368173166"><ele>39.0</ele><time>2026-03-31T06:52:42.998Z</time></trkpt><trkpt lat="48.939297887666434" lon="2.4188332985261383"><ele>38.333333333333336</ele><time>2026-03-31T06:52:43.998Z</time></trkpt><trkpt lat="48.93925031931453" lon="2.4186383811423773"><ele>37.66666666666667</ele><time>2026-03-31T06:52:44.998Z</time></trkpt><trkpt lat="48.93920046319387" lon="2.4184308170607403"><ele>37.0</ele><time>2026-03-31T06:52:45.998Z</time></trkpt><trkpt lat="48.93914531893778" lon="2.418176296119625"><ele>36.333333333333336</ele><time>2026-03-31T06:52:46.998Z</time></trkpt><trkpt lat="48.93909197200944" lon="2.4179300420308842"><ele>35.666666666666664</ele><time>2026-03-31T06:52:47.998Z</time></trkpt><trkpt lat="48.93903501252074" lon="2.417682691198786"><ele>35.0</ele><time>2026-03-31T06:52:48.998Z</time></trkpt><trkpt lat="48.93898014547927" lon="2.417443661287132"><ele>35.0</ele><time>2026-03-31T06:52:49.998Z</time></trkpt><trkpt lat="48.938925920868854" lon="2.4172075724202515"><ele>35.0</ele><time>2026-03-31T06:52:51Z</time></trkpt><trkpt lat="48.93887021180889" lon="2.416972002258815"><ele>35.0</ele><time>2026-03-31T06:52:52Z</time></trkpt><trkpt lat="48.938814715637186" lon="2.4167307980262533"><ele>35.0</ele><time>2026-03-31T06:52:53Z</time></trkpt><trkpt lat="48.93875959011068" lon="2.416494737087471"><ele>35.0</ele><time>2026-03-31T06:52:54Z</time></trkpt><trkpt lat="48.93870451903393" lon="2.416258572262145"><ele>35.0</ele><time>2026-03-31T06:52:55Z</time></trkpt><trkpt lat="48.938646334439206" lon="2.4160025596781307"><ele>35.0</ele><time>2026-03-31T06:52:56Z</time></trkpt><trkpt lat="48.9385877539533" lon="2.4157389142878976"><ele>35.0</ele><time>2026-03-31T06:52:57Z</time></trkpt><trkpt lat="48.938531914259265" lon="2.4154688467524625"><ele>35.0</ele><time>2026-03-31T06:52:58Z</time></trkpt><trkpt lat="48.93847109360781" lon="2.4152280094280942"><ele>35.666666666666664</ele><time>2026-03-31T06:52:59Z</time></trkpt><trkpt lat="48.9384059098512" lon="2.4149892796190744"><ele>36.333333333333336</ele><time>2026-03-31T06:53:00Z</time></trkpt><trkpt lat="48.938353164081924" lon="2.414741025715565"><ele>37.0</ele><time>2026-03-31T06:53:01Z</time></trkpt><trkpt lat="48.93829929687651" lon="2.414496156366884"><ele>39.0</ele><time>2026-03-31T06:53:02Z</time></trkpt><trkpt lat="48.93824578794608" lon="2.4142616517486997"><ele>41.0</ele><time>2026-03-31T06:53:03Z</time></trkpt><trkpt lat="48.93819238813401" lon="2.4140269969075328"><ele>43.0</ele><time>2026-03-31T06:53:04Z</time></trkpt><trkpt lat="48.9381380174906" lon="2.4137897944262208"><ele>43.0</ele><time>2026-03-31T06:53:05Z</time></trkpt><trkpt lat="48.93808393048873" lon="2.41355274899422"><ele>43.0</ele><time>2026-03-31T06:53:06Z</time></trkpt><trkpt lat="48.93802636420495" lon="2.413309885205993"><ele>43.0</ele><time>2026-03-31T06:53:07Z</time></trkpt><trkpt lat="48.9379673505296" lon="2.4130626023857213"><ele>43.0</ele><time>2026-03-31T06:53:08Z</time></trkpt><trkpt lat="48.9379071300827" lon="2.4128107228778424"><ele>43.0</ele><time>2026-03-31T06:53:09Z</time></trkpt><trkpt lat="48.93784791623633" lon="2.412557832375371"><ele>43.0</ele><time>2026-03-31T06:53:10Z</time></trkpt><trkpt lat="48.937792258040744" lon="2.412305597146679"><ele>42.66666666666667</ele><time>2026-03-31T06:53:11Z</time></trkpt><trkpt lat="48.93773703333722" lon="2.412053482277406"><ele>42.333333333333336</ele><time>2026-03-31T06:53:12Z</time></trkpt><trkpt lat="48.93767706073551" lon="2.4118047740905637"><ele>42.0</ele><time>2026-03-31T06:53:13Z</time></trkpt><trkpt lat="48.9376187892563" lon="2.411552236865929"><ele>42.333333333333336</ele><time>2026-03-31T06:53:14Z</time></trkpt><trkpt lat="48.93756037062753" lon="2.4112975731326203"><ele>42.66666666666667</ele><time>2026-03-31T06:53:15Z</time></trkpt><trkpt lat="48.937499007092065" lon="2.4110414269486546"><ele>43.0</ele><time>2026-03-31T06:53:16Z</time></trkpt><trkpt lat="48.93743996000057" lon="2.4107821788342"><ele>43.0</ele><time>2026-03-31T06:53:17Z</time></trkpt><trkpt lat="48.93737810599802" lon="2.4105195248038047"><ele>43.0</ele><time>2026-03-31T06:53:18Z</time></trkpt><trkpt lat="48.937315903275184" lon="2.4102596688881572"><ele>43.0</ele><time>2026-03-31T06:53:19Z</time></trkpt><trkpt lat="48.93725228712116" lon="2.4099957692313057"><ele>42.333333333333336</ele><time>2026-03-31T06:53:20Z</time></trkpt><trkpt lat="48.93719180494897" lon="2.4097247264914823"><ele>41.666666666666664</ele><time>2026-03-31T06:53:21Z</time></trkpt><trkpt lat="48.93713374492623" lon="2.4094682217452856"><ele>41.0</ele><time>2026-03-31T06:53:22Z</time></trkpt><trkpt lat="48.93708020857107" lon="2.4092297465519645"><ele>40.666666666666664</ele><time>2026-03-31T06:53:23Z</time></trkpt><trkpt lat="48.93702515628326" lon="2.409001550885447"><ele>40.333333333333336</ele><time>2026-03-31T06:53:24Z</time></trkpt><trkpt lat="48.93697225958414" lon="2.408785474348414"><ele>40.0</ele><time>2026-03-31T06:53:25Z</time></trkpt><trkpt lat="48.93691940374687" lon="2.408564861360544"><ele>40.0</ele><time>2026-03-31T06:53:26Z</time></trkpt><trkpt lat="48.93686484927476" lon="2.4083324173757474"><ele>40.0</ele><time>2026-03-31T06:53:27Z</time></trkpt><trkpt lat="48.93680976013728" lon="2.408102696862042"><ele>40.0</ele><time>2026-03-31T06:53:28Z</time></trkpt><trkpt lat="48.93675913877503" lon="2.4078771943974515"><ele>40.25</ele><time>2026-03-31T06:53:29Z</time></trkpt><trkpt lat="48.936699515389684" lon="2.407662084336216"><ele>40.5</ele><time>2026-03-31T06:53:30Z</time></trkpt><trkpt lat="48.93663832549898" lon="2.4074617992192873"><ele>40.75</ele><time>2026-03-31T06:53:31Z</time></trkpt><trkpt lat="48.93657575209622" lon="2.407265832630497"><ele>41.0</ele><time>2026-03-31T06:53:32Z</time></trkpt><trkpt lat="48.93655312971379" lon="2.4069409140633713"><ele>41.0</ele><time>2026-03-31T06:53:32.999Z</time></trkpt><trkpt lat="48.93649579370638" lon="2.406708274758236"><ele>41.0</ele><time>2026-03-31T06:53:33.999Z</time></trkpt><trkpt lat="48.93644678669218" lon="2.4064732844843975"><ele>41.0</ele><time>2026-03-31T06:53:34.999Z</time></trkpt><trkpt lat="48.93639366305103" lon="2.406238712956494"><ele>40.33333333333333</ele><time>2026-03-31T06:53:35.999Z</time></trkpt><trkpt lat="48.93633826280708" lon="2.4060000770965644"><ele>39.666666666666664</ele><time>2026-03-31T06:53:36.999Z</time></trkpt><trkpt lat="48.936286452986266" lon="2.4057655017065587"><ele>39.0</ele><time>2026-03-31T06:53:37.999Z</time></trkpt><trkpt lat="48.93623149135756" lon="2.405530650338044"><ele>39.333333333333336</ele><time>2026-03-31T06:53:38.999Z</time></trkpt><trkpt lat="48.9361760689382" lon="2.4053005770746387"><ele>39.66666666666667</ele><time>2026-03-31T06:53:39.999Z</time></trkpt><trkpt lat="48.9361259710739" lon="2.405063311348429"><ele>40.0</ele><time>2026-03-31T06:53:40.999Z</time></trkpt><trkpt lat="48.936072929511276" lon="2.4048281179624085"><ele>39.66666666666667</ele><time>2026-03-31T06:53:41.999Z</time></trkpt><trkpt lat="48.93601908395205" lon="2.4045953587301807"><ele>39.333333333333336</ele><time>2026-03-31T06:53:42.999Z</time></trkpt><trkpt lat="48.93596939260545" lon="2.40437296673348"><ele>39.0</ele><time>2026-03-31T06:53:43.999Z</time></trkpt><trkpt lat="48.93591671585558" lon="2.4041463002799985"><ele>38.666666666666664</ele><time>2026-03-31T06:53:44.999Z</time></trkpt><trkpt lat="48.93585844598497" lon="2.4039174344083225"><ele>38.33333333333333</ele><time>2026-03-31T06:53:45.999Z</time></trkpt><trkpt lat="48.93579536404782" lon="2.403710237982206"><ele>38.0</ele><time>2026-03-31T06:53:46.999Z</time></trkpt><trkpt lat="48.93575090435181" lon="2.4034726989504227"><ele>38.0</ele><time>2026-03-31T06:53:47.999Z</time></trkpt><trkpt lat="48.935699260314834" lon="2.4032585648328517"><ele>38.0</ele><time>2026-03-31T06:53:48.999Z</time></trkpt><trkpt lat="48.93564621271547" lon="2.40306094648889"><ele>38.0</ele><time>2026-03-31T06:53:49.999Z</time></trkpt><trkpt lat="48.93559586064558" lon="2.402859335224009"><ele>38.0</ele><time>2026-03-31T06:53:50.999Z</time></trkpt><trkpt lat="48.93555910829839" lon="2.402625952374568"><ele>37.666666666666664</ele><time>2026-03-31T06:53:51.999Z</time></trkpt><trkpt lat="48.9355083128553" lon="2.4023953554177564"><ele>37.333333333333336</ele><time>2026-03-31T06:53:52.999Z</time></trkpt><trkpt lat="48.93545302392584" lon="2.402170065596005"><ele>37.0</ele><time>2026-03-31T06:53:53.999Z</time></trkpt><trkpt lat="48.93538651788526" lon="2.401931694791668"><ele>38.0</ele><time>2026-03-31T06:53:54.999Z</time></trkpt><trkpt lat="48.93533313608798" lon="2.401684963252463"><ele>39.0</ele><time>2026-03-31T06:53:55.999Z</time></trkpt><trkpt lat="48.93527391567459" lon="2.40143059701094"><ele>40.0</ele><time>2026-03-31T06:53:56.999Z</time></trkpt><trkpt lat="48.93522004603118" lon="2.401170548540101"><ele>40.0</ele><time>2026-03-31T06:53:57.999Z</time></trkpt><trkpt lat="48.93516517467228" lon="2.4009017187222517"><ele>40.0</ele><time>2026-03-31T06:53:58.999Z</time></trkpt><trkpt lat="48.93511247701734" lon="2.4006306874554295"><ele>40.0</ele><time>2026-03-31T06:53:59.999Z</time></trkpt><trkpt lat="48.93506298905513" lon="2.400349747364108"><ele>40.333333333333336</ele><time>2026-03-31T06:54:00.999Z</time></trkpt><trkpt lat="48.93500698081647" lon="2.4000663854651174"><ele>40.666666666666664</ele><time>2026-03-31T06:54:01.999Z</time></trkpt><trkpt lat="48.93495788321074" lon="2.3997796816438184"><ele>41.0</ele><time>2026-03-31T06:54:02.999Z</time></trkpt><trkpt lat="48.934907724762624" lon="2.3994909719966393"><ele>41.0</ele><time>2026-03-31T06:54:03.999Z</time></trkpt><trkpt lat="48.93486304589581" lon="2.399198858430339"><ele>41.0</ele><time>2026-03-31T06:54:04.999Z</time></trkpt><trkpt lat="48.93481423831776" lon="2.398901044467872"><ele>41.0</ele><time>2026-03-31T06:54:05.999Z</time></trkpt><trkpt lat="48.93476606683149" lon="2.3985971541248015"><ele>40.0</ele><time>2026-03-31T06:54:06.999Z</time></trkpt><trkpt lat="48.93471902904768" lon="2.3982943122421"><ele>39.0</ele><time>2026-03-31T06:54:07.999Z</time></trkpt><trkpt lat="48.934675799717404" lon="2.397993560950433"><ele>38.0</ele><time>2026-03-31T06:54:08.999Z</time></trkpt><trkpt lat="48.934634123605626" lon="2.397688776606983"><ele>37.0</ele><time>2026-03-31T06:54:09.999Z</time></trkpt><trkpt lat="48.93459941281865" lon="2.3973855498820655"><ele>36.0</ele><time>2026-03-31T06:54:10.999Z</time></trkpt><trkpt lat="48.93456442417652" lon="2.3970960315247187"><ele>35.0</ele><time>2026-03-31T06:54:11.999Z</time></trkpt><trkpt lat="48.93453931864626" lon="2.396812153149678"><ele>35.0</ele><time>2026-03-31T06:54:12.999Z</time></trkpt><trkpt lat="48.934518893173" lon="2.396507634037192"><ele>35.0</ele><time>2026-03-31T06:54:13.999Z</time></trkpt><trkpt lat="48.93449387250656" lon="2.3962030554763185"><ele>35.0</ele><time>2026-03-31T06:54:14.999Z</time></trkpt><trkpt lat="48.93446124190519" lon="2.3959072197019387"><ele>35.33333333333333</ele><time>2026-03-31T06:54:15.999Z</time></trkpt><trkpt lat="48.9344424334015" lon="2.3956175588398616"><ele>35.666666666666664</ele><time>2026-03-31T06:54:16.999Z</time></trkpt><trkpt lat="48.93441282591705" lon="2.3953301472623156"><ele>36.0</ele><time>2026-03-31T06:54:17.999Z</time></trkpt><trkpt lat="48.93438461686741" lon="2.395031794619873"><ele>36.0</ele><time>2026-03-31T06:54:18.999Z</time></trkpt><trkpt lat="48.934366478025666" lon="2.3947319990112335"><ele>36.0</ele><time>2026-03-31T06:54:19.999Z</time></trkpt><trkpt lat="48.93434673710371" lon="2.3944330491835317"><ele>36.0</ele><time>2026-03-31T06:54:20.999Z</time></trkpt><trkpt lat="48.93433069915373" lon="2.3941377807182653"><ele>35.333333333333336</ele><time>2026-03-31T06:54:21.999Z</time></trkpt><trkpt lat="48.93431683523294" lon="2.393844423338295"><ele>34.66666666666667</ele><time>2026-03-31T06:54:22.999Z</time></trkpt><trkpt lat="48.9342963135257" lon="2.393548709080814"><ele>34.0</ele><time>2026-03-31T06:54:23.999Z</time></trkpt><trkpt lat="48.93428019511794" lon="2.393246742831237"><ele>33.66666666666667</ele><time>2026-03-31T06:54:24.999Z</time></trkpt><trkpt lat="48.93426976701259" lon="2.392940465266555"><ele>33.333333333333336</ele><time>2026-03-31T06:54:25.999Z</time></trkpt><trkpt lat="48.93426068551429" lon="2.3926352276268563"><ele>33.0</ele><time>2026-03-31T06:54:26.999Z</time></trkpt><trkpt lat="48.93424965823045" lon="2.392326470658316"><ele>33.0</ele><time>2026-03-31T06:54:27.999Z</time></trkpt><trkpt lat="48.93424374731873" lon="2.3920175646387283"><ele>33.0</ele><time>2026-03-31T06:54:28.999Z</time></trkpt><trkpt lat="48.934233921347264" lon="2.391726310781012"><ele>33.0</ele><time>2026-03-31T06:54:29.998Z</time></trkpt><trkpt lat="48.93423214023125" lon="2.3914412122769257"><ele>32.666666666666664</ele><time>2026-03-31T06:54:30.998Z</time></trkpt><trkpt lat="48.9342213316165" lon="2.3911525139475613"><ele>32.33333333333333</ele><time>2026-03-31T06:54:31.998Z</time></trkpt><trkpt lat="48.93421244704237" lon="2.3908689535028045"><ele>32.0</ele><time>2026-03-31T06:54:32.998Z</time></trkpt><trkpt lat="48.93420324949102" lon="2.39058370221433"><ele>32.33333333333333</ele><time>2026-03-31T06:54:33.998Z</time></trkpt><trkpt lat="48.934193943157226" lon="2.3902994069242562"><ele>32.666666666666664</ele><time>2026-03-31T06:54:34.998Z</time></trkpt><trkpt lat="48.93418069280138" lon="2.390015469229403"><ele>33.0</ele><time>2026-03-31T06:54:35.998Z</time></trkpt><trkpt lat="48.934169881070616" lon="2.38972990075986"><ele>33.0</ele><time>2026-03-31T06:54:36.998Z</time></trkpt><trkpt lat="48.93415416653414" lon="2.3894426874661634"><ele>33.0</ele><time>2026-03-31T06:54:37.998Z</time></trkpt><trkpt lat="48.93413906962593" lon="2.3891519292062693"><ele>33.0</ele><time>2026-03-31T06:54:38.998Z</time></trkpt><trkpt lat="48.93412292382839" lon="2.3888595808006423"><ele>33.0</ele><time>2026-03-31T06:54:39.998Z</time></trkpt><trkpt lat="48.93411954646132" lon="2.3885660339734422"><ele>33.0</ele><time>2026-03-31T06:54:40.998Z</time></trkpt><trkpt lat="48.93411011937565" lon="2.3882732315896904"><ele>33.0</ele><time>2026-03-31T06:54:41.998Z</time></trkpt><trkpt lat="48.93410456595462" lon="2.387984194941968"><ele>33.0</ele><time>2026-03-31T06:54:42.998Z</time></trkpt><trkpt lat="48.93410546684135" lon="2.387692123641613"><ele>33.0</ele><time>2026-03-31T06:54:43.998Z</time></trkpt><trkpt lat="48.934099721714794" lon="2.3874068597729647"><ele>33.0</ele><time>2026-03-31T06:54:44.998Z</time></trkpt><trkpt lat="48.93409598592096" lon="2.3871298876006604"><ele>33.333333333333336</ele><time>2026-03-31T06:54:45.998Z</time></trkpt><trkpt lat="48.934092483842726" lon="2.386860301082405"><ele>33.66666666666667</ele><time>2026-03-31T06:54:46.998Z</time></trkpt><trkpt lat="48.934082057908235" lon="2.3866040191755995"><ele>34.0</ele><time>2026-03-31T06:54:47.998Z</time></trkpt><trkpt lat="48.93407610643365" lon="2.386353925195266"><ele>34.333333333333336</ele><time>2026-03-31T06:54:48.998Z</time></trkpt><trkpt lat="48.93407070411849" lon="2.3861018370563323"><ele>34.666666666666664</ele><time>2026-03-31T06:54:49.998Z</time></trkpt><trkpt lat="48.934059753269246" lon="2.3858529812807032"><ele>35.0</ele><time>2026-03-31T06:54:50.998Z</time></trkpt><trkpt lat="48.934049691982494" lon="2.3856036780668384"><ele>35.0</ele><time>2026-03-31T06:54:51.998Z</time></trkpt><trkpt lat="48.93404077581591" lon="2.385356464588926"><ele>35.0</ele><time>2026-03-31T06:54:52.998Z</time></trkpt><trkpt lat="48.93403856245401" lon="2.385111355618175"><ele>35.0</ele><time>2026-03-31T06:54:53.998Z</time></trkpt><trkpt lat="48.93403598809287" lon="2.38485553584584"><ele>35.0</ele><time>2026-03-31T06:54:54.998Z</time></trkpt><trkpt lat="48.93403284082392" lon="2.3846081664112333"><ele>35.0</ele><time>2026-03-31T06:54:55.998Z</time></trkpt><trkpt lat="48.93402652212113" lon="2.384356320141076"><ele>35.0</ele><time>2026-03-31T06:54:57Z</time></trkpt><trkpt lat="48.934018342412685" lon="2.3840976139643177"><ele>33.666666666666664</ele><time>2026-03-31T06:54:58Z</time></trkpt><trkpt lat="48.934007633005194" lon="2.3838391036089246"><ele>32.333333333333336</ele><time>2026-03-31T06:54:59Z</time></trkpt><trkpt lat="48.93399710862418" lon="2.3835831167480386"><ele>31.0</ele><time>2026-03-31T06:55:00Z</time></trkpt><trkpt lat="48.93398544368345" lon="2.383328648810078"><ele>31.0</ele><time>2026-03-31T06:55:01Z</time></trkpt><trkpt lat="48.93397730285283" lon="2.3830723951744406"><ele>31.0</ele><time>2026-03-31T06:55:02Z</time></trkpt><trkpt lat="48.93396344415005" lon="2.3828130158812493"><ele>31.0</ele><time>2026-03-31T06:55:03Z</time></trkpt><trkpt lat="48.933951742902465" lon="2.382557444446804"><ele>31.333333333333336</ele><time>2026-03-31T06:55:04Z</time></trkpt><trkpt lat="48.933937821192615" lon="2.382303847589976"><ele>31.666666666666664</ele><time>2026-03-31T06:55:05Z</time></trkpt><trkpt lat="48.93392482836638" lon="2.382056758780663"><ele>32.0</ele><time>2026-03-31T06:55:06Z</time></trkpt><trkpt lat="48.93391425717866" lon="2.381796531878989"><ele>32.33333333333333</ele><time>2026-03-31T06:55:07Z</time></trkpt><trkpt lat="48.93390490970934" lon="2.381537462701213"><ele>32.666666666666664</ele><time>2026-03-31T06:55:08Z</time></trkpt><trkpt lat="48.93389162448441" lon="2.381275992898528"><ele>33.0</ele><time>2026-03-31T06:55:09Z</time></trkpt><trkpt lat="48.93386787856637" lon="2.3810187606593303"><ele>33.0</ele><time>2026-03-31T06:55:10Z</time></trkpt><trkpt lat="48.933847871202815" lon="2.3807617943218506"><ele>33.0</ele><time>2026-03-31T06:55:11Z</time></trkpt><trkpt lat="48.9338284589135" lon="2.3805150469007565"><ele>33.0</ele><time>2026-03-31T06:55:12Z</time></trkpt><trkpt lat="48.93380756927342" lon="2.380274184527832"><ele>32.75</ele><time>2026-03-31T06:55:13Z</time></trkpt><trkpt lat="48.9337904577171" lon="2.38003943611573"><ele>32.5</ele><time>2026-03-31T06:55:14Z</time></trkpt><trkpt lat="48.933766161715525" lon="2.37982381357409"><ele>32.25</ele><time>2026-03-31T06:55:15Z</time></trkpt><trkpt lat="48.933745182108794" lon="2.379599198908735"><ele>32.0</ele><time>2026-03-31T06:55:16Z</time></trkpt><trkpt lat="48.93372249733457" lon="2.379369903217028"><ele>32.0</ele><time>2026-03-31T06:55:17Z</time></trkpt><trkpt lat="48.933697948464946" lon="2.379135953167022"><ele>32.0</ele><time>2026-03-31T06:55:18Z</time></trkpt><trkpt lat="48.93367265340086" lon="2.3789077088392507"><ele>32.0</ele><time>2026-03-31T06:55:19Z</time></trkpt><trkpt lat="48.933645062899984" lon="2.3786779454049745"><ele>32.33333333333333</ele><time>2026-03-31T06:55:20Z</time></trkpt><trkpt lat="48.93361014134355" lon="2.378448437192907"><ele>32.666666666666664</ele><time>2026-03-31T06:55:21Z</time></trkpt><trkpt lat="48.93357741687445" lon="2.378212752464396"><ele>33.0</ele><time>2026-03-31T06:55:22Z</time></trkpt><trkpt lat="48.93354702331608" lon="2.377978493939605"><ele>33.0</ele><time>2026-03-31T06:55:23Z</time></trkpt><trkpt lat="48.93351571928569" lon="2.377744387232894"><ele>33.0</ele><time>2026-03-31T06:55:24Z</time></trkpt><trkpt lat="48.93348417427525" lon="2.3775181866635666"><ele>33.0</ele><time>2026-03-31T06:55:25Z</time></trkpt><trkpt lat="48.933452605274404" lon="2.3772920549661203"><ele>33.0</ele><time>2026-03-31T06:55:26Z</time></trkpt><trkpt lat="48.933423104924486" lon="2.3770667534064556"><ele>33.0</ele><time>2026-03-31T06:55:27Z</time></trkpt><trkpt lat="48.9333910712932" lon="2.3768456446642383"><ele>33.0</ele><time>2026-03-31T06:55:28Z</time></trkpt><trkpt lat="48.93333949182713" lon="2.376628435598585"><ele>33.0</ele><time>2026-03-31T06:55:29Z</time></trkpt><trkpt lat="48.93329383698529" lon="2.376408633879278"><ele>33.0</ele><time>2026-03-31T06:55:30Z</time></trkpt><trkpt lat="48.933310806652784" lon="2.37618378772328"><ele>33.0</ele><time>2026-03-31T06:55:31Z</time></trkpt><trkpt lat="48.93329257214868" lon="2.3759605476927836"><ele>33.0</ele><time>2026-03-31T06:55:32Z</time></trkpt><trkpt lat="48.933284961719515" lon="2.3757391695696013"><ele>34.0</ele><time>2026-03-31T06:55:33Z</time></trkpt><trkpt lat="48.93328493038791" lon="2.3755099704292166"><ele>35.0</ele><time>2026-03-31T06:55:34Z</time></trkpt><trkpt lat="48.93329204087708" lon="2.3752864321783944"><ele>36.0</ele><time>2026-03-31T06:55:35Z</time></trkpt><trkpt lat="48.93330712686217" lon="2.375067996365545"><ele>37.0</ele><time>2026-03-31T06:55:36Z</time></trkpt><trkpt lat="48.933300241186444" lon="2.374853374056827"><ele>36.75</ele><time>2026-03-31T06:55:37Z</time></trkpt><trkpt lat="48.93330970179393" lon="2.3746539126016195"><ele>36.5</ele><time>2026-03-31T06:55:38Z</time></trkpt><trkpt lat="48.93331793364325" lon="2.374459998761992"><ele>36.25</ele><time>2026-03-31T06:55:39Z</time></trkpt><trkpt lat="48.93334086468682" lon="2.374274042045215"><ele>36.0</ele><time>2026-03-31T06:55:40Z</time></trkpt><trkpt lat="48.93334485032505" lon="2.3740845791975906"><ele>36.0</ele><time>2026-03-31T06:55:41Z</time></trkpt><trkpt lat="48.93335626856644" lon="2.3739053853793717"><ele>36.0</ele><time>2026-03-31T06:55:41.999Z</time></trkpt><trkpt lat="48.93336603343341" lon="2.37372888894971"><ele>36.0</ele><time>2026-03-31T06:55:42.999Z</time></trkpt><trkpt lat="48.933387541238694" lon="2.373563663792763"><ele>36.0</ele><time>2026-03-31T06:55:43.999Z</time></trkpt><trkpt lat="48.93341936652975" lon="2.3734032143048336"><ele>36.0</ele><time>2026-03-31T06:55:44.999Z</time></trkpt><trkpt lat="48.933459842672974" lon="2.373259757480959"><ele>36.0</ele><time>2026-03-31T06:55:45.999Z</time></trkpt><trkpt lat="48.93350809641778" lon="2.373124948460595"><ele>36.0</ele><time>2026-03-31T06:55:46.999Z</time></trkpt><trkpt lat="48.93356334028539" lon="2.3730009554443074"><ele>36.0</ele><time>2026-03-31T06:55:47.999Z</time></trkpt><trkpt lat="48.93362744067508" lon="2.372896647874112"><ele>36.0</ele><time>2026-03-31T06:55:48.999Z</time></trkpt><trkpt lat="48.933684184346404" lon="2.372797860986794"><ele>36.0</ele><time>2026-03-31T06:55:49.999Z</time></trkpt><trkpt lat="48.933744360386356" lon="2.3727009874832143"><ele>36.0</ele><time>2026-03-31T06:55:50.999Z</time></trkpt><trkpt lat="48.93380801629436" lon="2.372611885791218"><ele>36.0</ele><time>2026-03-31T06:55:51.999Z</time></trkpt><trkpt lat="48.93386490356571" lon="2.3725378546176223"><ele>36.0</ele><time>2026-03-31T06:55:52.999Z</time></trkpt><trkpt lat="48.9339175327296" lon="2.372454614519057"><ele>36.0</ele><time>2026-03-31T06:55:53.999Z</time></trkpt><trkpt lat="48.93404839846003" lon="2.372432335551518"><ele>36.0</ele><time>2026-03-31T06:55:55.999Z</time></trkpt><trkpt lat="48.934152714831875" lon="2.372421147603137"><ele>36.0</ele><time>2026-03-31T06:55:57.999Z</time></trkpt><trkpt lat="48.93424294256016" lon="2.3724041970459595"><ele>36.0</ele><time>2026-03-31T06:55:59.999Z</time></trkpt><trkpt lat="48.93432427702081" lon="2.372394038774306"><ele>36.0</ele><time>2026-03-31T06:56:02.999Z</time></trkpt><trkpt lat="48.93439961046371" lon="2.3723739686253245"><ele>36.0</ele><time>2026-03-31T06:56:16.999Z</time></trkpt><trkpt lat="48.93450287069189" lon="2.3723678976662326"><ele>35.714285714285715</ele><time>2026-03-31T06:56:18.999Z</time></trkpt><trkpt lat="48.93457002127384" lon="2.372365005567059"><ele>35.42857142857143</ele><time>2026-03-31T06:56:19.999Z</time></trkpt><trkpt lat="48.93463748920083" lon="2.37236339742407"><ele>35.14285714285714</ele><time>2026-03-31T06:56:20.999Z</time></trkpt><trkpt lat="48.93470912593816" lon="2.372361230753816"><ele>34.85714285714286</ele><time>2026-03-31T06:56:21.999Z</time></trkpt><trkpt lat="48.934786548749706" lon="2.372356563066178"><ele>34.57142857142857</ele><time>2026-03-31T06:56:22.999Z</time></trkpt><trkpt lat="48.93486989882976" lon="2.3723510174032807"><ele>34.285714285714285</ele><time>2026-03-31T06:56:23.999Z</time></trkpt><trkpt lat="48.9349509075406" lon="2.3723503100234913"><ele>34.0</ele><time>2026-03-31T06:56:24.999Z</time></trkpt><trkpt lat="48.93503127039337" lon="2.372349819497285"><ele>34.285714285714285</ele><time>2026-03-31T06:56:25.999Z</time></trkpt><trkpt lat="48.93510695811026" lon="2.3723484457431483"><ele>34.57142857142857</ele><time>2026-03-31T06:56:26.999Z</time></trkpt><trkpt lat="48.93517978623145" lon="2.372344872870274"><ele>34.85714285714286</ele><time>2026-03-31T06:56:27.999Z</time></trkpt><trkpt lat="48.93525157666368" lon="2.3723459683443435"><ele>35.14285714285714</ele><time>2026-03-31T06:56:28.999Z</time></trkpt><trkpt lat="48.93532097355656" lon="2.3723471863107646"><ele>35.42857142857143</ele><time>2026-03-31T06:56:29.999Z</time></trkpt><trkpt lat="48.93538716648226" lon="2.3723434325378108"><ele>35.714285714285715</ele><time>2026-03-31T06:56:30.999Z</time></trkpt><trkpt lat="48.93545239539179" lon="2.3723418536096705"><ele>36.0</ele><time>2026-03-31T06:56:31.999Z</time></trkpt><trkpt lat="48.93556688659991" lon="2.3723403497427498"><ele>36.0</ele><time>2026-03-31T06:56:33.999Z</time></trkpt><trkpt lat="48.93566307225434" lon="2.3723382510654933"><ele>36.0</ele><time>2026-03-31T06:56:35.999Z</time></trkpt><trkpt lat="48.93573828900155" lon="2.372336607734919"><ele>36.0</ele><time>2026-03-31T06:56:37.999Z</time></trkpt><trkpt lat="48.93581390159051" lon="2.3723371099840094"><ele>36.0</ele><time>2026-03-31T06:56:55.998Z</time></trkpt><trkpt lat="48.93589185908156" lon="2.3723336189088715"><ele>36.0</ele><time>2026-03-31T06:56:58.998Z</time></trkpt><trkpt lat="48.93597923145382" lon="2.3723354744734966"><ele>36.0</ele><time>2026-03-31T06:57:02Z</time></trkpt><trkpt lat="48.93606570304697" lon="2.3723263078451846"><ele>35.6</ele><time>2026-03-31T06:57:05Z</time></trkpt><trkpt lat="48.93614933614722" lon="2.3723374168897635"><ele>35.2</ele><time>2026-03-31T06:57:08Z</time></trkpt><trkpt lat="48.93619567787094" lon="2.3724907818639442"><ele>34.8</ele><time>2026-03-31T06:57:11Z</time></trkpt><trkpt lat="48.93620463294602" lon="2.3726436539624842"><ele>34.4</ele><time>2026-03-31T06:57:13Z</time></trkpt><trkpt lat="48.93621574484406" lon="2.3728262739244648"><ele>34.0</ele><time>2026-03-31T06:57:15Z</time></trkpt><trkpt lat="48.936209586945886" lon="2.3729621517305604"><ele>34.0</ele><time>2026-03-31T06:57:17Z</time></trkpt><trkpt lat="48.93621433309576" lon="2.3731572949407296"><ele>34.0</ele><time>2026-03-31T06:57:19Z</time></trkpt><trkpt lat="48.93621710530873" lon="2.3732714999152935"><ele>34.0</ele><time>2026-03-31T06:57:20Z</time></trkpt><trkpt lat="48.936235343551964" lon="2.3733736360227136"><ele>34.0</ele><time>2026-03-31T06:57:21Z</time></trkpt><trkpt lat="48.93623105959023" lon="2.3735576841350206"><ele>34.0</ele><time>2026-03-31T06:57:23Z</time></trkpt><trkpt lat="48.93623590009733" lon="2.373720760402123"><ele>34.0</ele><time>2026-03-31T06:57:25Z</time></trkpt><trkpt lat="48.93624487071574" lon="2.3738872157219353"><ele>34.0</ele><time>2026-03-31T06:57:27Z</time></trkpt><trkpt lat="48.9362495777567" lon="2.3740631609908003"><ele>34.0</ele><time>2026-03-31T06:57:29Z</time></trkpt><trkpt lat="48.93625990595135" lon="2.3742271768667975"><ele>34.0</ele><time>2026-03-31T06:57:31Z</time></trkpt><trkpt lat="48.93626387863855" lon="2.3743627694589917"><ele>34.0</ele><time>2026-03-31T06:57:33Z</time></trkpt><trkpt lat="48.93624133817934" lon="2.3744634192309824"><ele>34.0</ele><time>2026-03-31T06:57:36Z</time></trkpt><trkpt lat="48.93623444316495" lon="2.374566979803387"><ele>34.0</ele><time>2026-03-31T06:57:41Z</time></trkpt><trkpt lat="48.93623683428089" lon="2.374712940471706"><ele>34.0</ele><time>2026-03-31T06:57:42.999Z</time></trkpt><trkpt lat="48.93624032370916" lon="2.3748526286391196"><ele>34.0</ele><time>2026-03-31T06:57:44.999Z</time></trkpt><trkpt lat="48.936231176350084" lon="2.37497143968677"><ele>34.0</ele><time>2026-03-31T06:57:47.999Z</time></trkpt><trkpt lat="48.93606765858643" lon="2.374988130583412"><ele>34.0</ele><time>2026-03-31T06:57:48.999Z</time></trkpt><trkpt lat="48.93598056189545" lon="2.3749815968457453"><ele>34.0</ele><time>2026-03-31T06:57:50.999Z</time></trkpt><trkpt lat="48.93590098457764" lon="2.3749867264366133"><ele>34.0</ele><time>2026-03-31T06:57:52.999Z</time></trkpt><trkpt lat="48.935863367109846" lon="2.374899627682284"><ele>34.0</ele><time>2026-03-31T06:57:54.999Z</time></trkpt><trkpt lat="48.935809201078015" lon="2.3748155711753456"><ele>34.0</ele><time>2026-03-31T06:57:58.999Z</time></trkpt><trkpt lat="48.93575007508018" lon="2.3747440103605673"><ele>34.0</ele><time>2026-03-31T06:58:00.999Z</time></trkpt><trkpt lat="48.93572082759637" lon="2.3745793016038608"><ele>34.2</ele><time>2026-03-31T06:58:02.999Z</time></trkpt><trkpt lat="48.935711080836136" lon="2.374472234631683"><ele>34.4</ele><time>2026-03-31T06:58:03.999Z</time></trkpt><trkpt lat="48.93567690873277" lon="2.374347320371198"><ele>34.6</ele><time>2026-03-31T06:58:04.999Z</time></trkpt><trkpt lat="48.93563212342442" lon="2.374212070878795"><ele>34.8</ele><time>2026-03-31T06:58:05.999Z</time></trkpt><trkpt lat="48.93571263394191" lon="2.3740722283710927"><ele>35.0</ele><time>2026-03-31T06:58:06.999Z</time></trkpt><trkpt lat="48.93566323903952" lon="2.373839568688274"><ele>35.0</ele><time>2026-03-31T06:58:07.999Z</time></trkpt><trkpt lat="48.93571999460498" lon="2.373758413801552"><ele>35.0</ele><time>2026-03-31T06:58:09.999Z</time></trkpt><trkpt lat="48.93599432476972" lon="2.373585876114331"><ele>34.0</ele><time>2026-03-31T06:58:12.999Z</time></trkpt><trkpt lat="48.93605785578968" lon="2.3735999242037744"><ele>34.0</ele><time>2026-03-31T06:58:20.999Z</time></trkpt></trkseg></trk></gpx>